<?xml version="1.0" encoding="UTF-8" standalone="no" ?>
<gpx xmlns="http://www.topografix.com/GPX/1/1" xmlns:xsi="http://www.w3.org/2001/XMLSchema-instance" xsi:schemaLocation="http://www.topografix.com/GPX/1/1 http://www.topografix.com/GPX/1/1/gpx.xsd" version="1.1" creator="VisuGPX - https://www.visugpx.com">
  <metadata>
    <name>Plaines Joux</name>
    <desc><![CDATA[boucle au départ de Mégevette via le plateau de Plaines Joux]]></desc>
  </metadata>
  <trk>
    <name><![CDATA[2021-08-21 Plaine Joux]]></name>
    <trkseg>
      <trkpt lat="46.19418" lon="6.49618">
        <ele>876.94140625</ele>
        <time>2021-08-21T13:28:24Z</time>
      </trkpt>
      <trkpt lat="46.19418" lon="6.49616">
        <ele>877.12109375</ele>
        <time>2021-08-21T13:28:27Z</time>
      </trkpt>
      <trkpt lat="46.1942" lon="6.4962">
        <ele>876.91796875</ele>
        <time>2021-08-21T13:28:31Z</time>
      </trkpt>
      <trkpt lat="46.19421" lon="6.49622">
        <ele>876.79296875</ele>
        <time>2021-08-21T13:28:34Z</time>
      </trkpt>
      <trkpt lat="46.19421" lon="6.49623">
        <ele>876.71484375</ele>
        <time>2021-08-21T13:28:35Z</time>
      </trkpt>
      <trkpt lat="46.1942" lon="6.49624">
        <ele>876.65234375</ele>
        <time>2021-08-21T13:28:36Z</time>
      </trkpt>
      <trkpt lat="46.19419" lon="6.49625">
        <ele>876.43359375</ele>
        <time>2021-08-21T13:28:39Z</time>
      </trkpt>
      <trkpt lat="46.19419" lon="6.49625">
        <ele>876.3671875</ele>
        <time>2021-08-21T13:28:40Z</time>
      </trkpt>
      <trkpt lat="46.19426" lon="6.49626">
        <ele>876.9375</ele>
        <time>2021-08-21T13:29:06Z</time>
      </trkpt>
      <trkpt lat="46.19422" lon="6.49629">
        <ele>876.33203125</ele>
        <time>2021-08-21T13:29:43Z</time>
      </trkpt>
      <trkpt lat="46.19421" lon="6.49631">
        <ele>876.06640625</ele>
        <time>2021-08-21T13:30:13Z</time>
      </trkpt>
      <trkpt lat="46.19425" lon="6.4963">
        <ele>876.5078125</ele>
        <time>2021-08-21T13:30:43Z</time>
      </trkpt>
      <trkpt lat="46.19431" lon="6.49627">
        <ele>877.23046875</ele>
        <time>2021-08-21T13:31:02Z</time>
      </trkpt>
      <trkpt lat="46.1944" lon="6.49642">
        <ele>876.203125</ele>
        <time>2021-08-21T13:31:15Z</time>
      </trkpt>
      <trkpt lat="46.1944" lon="6.49642">
        <ele>876.1875</ele>
        <time>2021-08-21T13:31:17Z</time>
      </trkpt>
      <trkpt lat="46.19451" lon="6.49643">
        <ele>876.57421875</ele>
        <time>2021-08-21T13:31:23Z</time>
      </trkpt>
      <trkpt lat="46.19456" lon="6.49643">
        <ele>876.8203125</ele>
        <time>2021-08-21T13:31:25Z</time>
      </trkpt>
      <trkpt lat="46.19459" lon="6.49625">
        <ele>878.609375</ele>
        <time>2021-08-21T13:31:30Z</time>
      </trkpt>
      <trkpt lat="46.19458" lon="6.49621">
        <ele>878.9921875</ele>
        <time>2021-08-21T13:31:31Z</time>
      </trkpt>
      <trkpt lat="46.19459" lon="6.49619">
        <ele>879.27734375</ele>
        <time>2021-08-21T13:31:32Z</time>
      </trkpt>
      <trkpt lat="46.19461" lon="6.49619">
        <ele>879.3203125</ele>
        <time>2021-08-21T13:31:33Z</time>
      </trkpt>
      <trkpt lat="46.19463" lon="6.49621">
        <ele>879.16796875</ele>
        <time>2021-08-21T13:31:34Z</time>
      </trkpt>
      <trkpt lat="46.19464" lon="6.49624">
        <ele>878.83984375</ele>
        <time>2021-08-21T13:31:35Z</time>
      </trkpt>
      <trkpt lat="46.19464" lon="6.4963">
        <ele>878.2734375</ele>
        <time>2021-08-21T13:31:36Z</time>
      </trkpt>
      <trkpt lat="46.19465" lon="6.49637">
        <ele>877.73828125</ele>
        <time>2021-08-21T13:31:37Z</time>
      </trkpt>
      <trkpt lat="46.19466" lon="6.49644">
        <ele>877.24609375</ele>
        <time>2021-08-21T13:31:38Z</time>
      </trkpt>
      <trkpt lat="46.19467" lon="6.49651">
        <ele>876.75390625</ele>
        <time>2021-08-21T13:31:39Z</time>
      </trkpt>
      <trkpt lat="46.1947" lon="6.49659">
        <ele>876.3125</ele>
        <time>2021-08-21T13:31:40Z</time>
      </trkpt>
      <trkpt lat="46.19475" lon="6.49672">
        <ele>875.72265625</ele>
        <time>2021-08-21T13:31:42Z</time>
      </trkpt>
      <trkpt lat="46.19479" lon="6.49679">
        <ele>875.62109375</ele>
        <time>2021-08-21T13:31:43Z</time>
      </trkpt>
      <trkpt lat="46.19485" lon="6.49685">
        <ele>875.66796875</ele>
        <time>2021-08-21T13:31:44Z</time>
      </trkpt>
      <trkpt lat="46.19504" lon="6.49706">
        <ele>875.46875</ele>
        <time>2021-08-21T13:31:48Z</time>
      </trkpt>
      <trkpt lat="46.19507" lon="6.49712">
        <ele>875.31640625</ele>
        <time>2021-08-21T13:31:49Z</time>
      </trkpt>
      <trkpt lat="46.19508" lon="6.49719">
        <ele>875.1171875</ele>
        <time>2021-08-21T13:31:50Z</time>
      </trkpt>
      <trkpt lat="46.19507" lon="6.49726">
        <ele>874.92578125</ele>
        <time>2021-08-21T13:31:51Z</time>
      </trkpt>
      <trkpt lat="46.19506" lon="6.49731">
        <ele>874.7890625</ele>
        <time>2021-08-21T13:31:52Z</time>
      </trkpt>
      <trkpt lat="46.19508" lon="6.49736">
        <ele>874.75390625</ele>
        <time>2021-08-21T13:31:53Z</time>
      </trkpt>
      <trkpt lat="46.1951" lon="6.49741">
        <ele>874.74609375</ele>
        <time>2021-08-21T13:31:54Z</time>
      </trkpt>
      <trkpt lat="46.19513" lon="6.49745">
        <ele>874.7734375</ele>
        <time>2021-08-21T13:31:55Z</time>
      </trkpt>
      <trkpt lat="46.19516" lon="6.49749">
        <ele>874.87109375</ele>
        <time>2021-08-21T13:31:56Z</time>
      </trkpt>
      <trkpt lat="46.19518" lon="6.49755">
        <ele>874.97265625</ele>
        <time>2021-08-21T13:31:57Z</time>
      </trkpt>
      <trkpt lat="46.1952" lon="6.49761">
        <ele>875.04296875</ele>
        <time>2021-08-21T13:31:58Z</time>
      </trkpt>
      <trkpt lat="46.19522" lon="6.49774">
        <ele>875.1328125</ele>
        <time>2021-08-21T13:32:00Z</time>
      </trkpt>
      <trkpt lat="46.19523" lon="6.4978">
        <ele>875.140625</ele>
        <time>2021-08-21T13:32:01Z</time>
      </trkpt>
      <trkpt lat="46.19525" lon="6.49794">
        <ele>875.21484375</ele>
        <time>2021-08-21T13:32:04Z</time>
      </trkpt>
      <trkpt lat="46.19528" lon="6.49798">
        <ele>875.328125</ele>
        <time>2021-08-21T13:32:05Z</time>
      </trkpt>
      <trkpt lat="46.1954" lon="6.49812">
        <ele>875.75</ele>
        <time>2021-08-21T13:32:08Z</time>
      </trkpt>
      <trkpt lat="46.19543" lon="6.49817">
        <ele>875.8828125</ele>
        <time>2021-08-21T13:32:09Z</time>
      </trkpt>
      <trkpt lat="46.19568" lon="6.49854">
        <ele>876.7734375</ele>
        <time>2021-08-21T13:32:20Z</time>
      </trkpt>
      <trkpt lat="46.19571" lon="6.49856">
        <ele>876.875</ele>
        <time>2021-08-21T13:32:40Z</time>
      </trkpt>
      <trkpt lat="46.19573" lon="6.4986">
        <ele>876.953125</ele>
        <time>2021-08-21T13:32:53Z</time>
      </trkpt>
      <trkpt lat="46.19595" lon="6.49864">
        <ele>877.734375</ele>
        <time>2021-08-21T13:33:03Z</time>
      </trkpt>
      <trkpt lat="46.19615" lon="6.49863">
        <ele>878</ele>
        <time>2021-08-21T13:33:07Z</time>
      </trkpt>
      <trkpt lat="46.19642" lon="6.49878">
        <ele>878.4296875</ele>
        <time>2021-08-21T13:33:13Z</time>
      </trkpt>
      <trkpt lat="46.19653" lon="6.49895">
        <ele>878.828125</ele>
        <time>2021-08-21T13:33:16Z</time>
      </trkpt>
      <trkpt lat="46.19691" lon="6.499">
        <ele>879</ele>
        <time>2021-08-21T13:33:24Z</time>
      </trkpt>
      <trkpt lat="46.19759" lon="6.49876">
        <ele>879</ele>
        <time>2021-08-21T13:33:34Z</time>
      </trkpt>
      <trkpt lat="46.19788" lon="6.4989">
        <ele>879</ele>
        <time>2021-08-21T13:33:40Z</time>
      </trkpt>
      <trkpt lat="46.19798" lon="6.49916">
        <ele>879</ele>
        <time>2021-08-21T13:33:44Z</time>
      </trkpt>
      <trkpt lat="46.19804" lon="6.49925">
        <ele>879</ele>
        <time>2021-08-21T13:33:46Z</time>
      </trkpt>
      <trkpt lat="46.19829" lon="6.49938">
        <ele>879</ele>
        <time>2021-08-21T13:33:52Z</time>
      </trkpt>
      <trkpt lat="46.19844" lon="6.49934">
        <ele>879</ele>
        <time>2021-08-21T13:33:55Z</time>
      </trkpt>
      <trkpt lat="46.19869" lon="6.49943">
        <ele>879</ele>
        <time>2021-08-21T13:34:00Z</time>
      </trkpt>
      <trkpt lat="46.19872" lon="6.49949">
        <ele>879</ele>
        <time>2021-08-21T13:34:01Z</time>
      </trkpt>
      <trkpt lat="46.19876" lon="6.49954">
        <ele>879</ele>
        <time>2021-08-21T13:34:02Z</time>
      </trkpt>
      <trkpt lat="46.19881" lon="6.49957">
        <ele>879</ele>
        <time>2021-08-21T13:34:03Z</time>
      </trkpt>
      <trkpt lat="46.19886" lon="6.49956">
        <ele>879</ele>
        <time>2021-08-21T13:34:04Z</time>
      </trkpt>
      <trkpt lat="46.1989" lon="6.49952">
        <ele>879</ele>
        <time>2021-08-21T13:34:05Z</time>
      </trkpt>
      <trkpt lat="46.19895" lon="6.49947">
        <ele>879</ele>
        <time>2021-08-21T13:34:06Z</time>
      </trkpt>
      <trkpt lat="46.19899" lon="6.49941">
        <ele>879</ele>
        <time>2021-08-21T13:34:07Z</time>
      </trkpt>
      <trkpt lat="46.19916" lon="6.49916">
        <ele>879</ele>
        <time>2021-08-21T13:34:12Z</time>
      </trkpt>
      <trkpt lat="46.19919" lon="6.49912">
        <ele>879</ele>
        <time>2021-08-21T13:34:13Z</time>
      </trkpt>
      <trkpt lat="46.19943" lon="6.49882">
        <ele>879</ele>
        <time>2021-08-21T13:34:20Z</time>
      </trkpt>
      <trkpt lat="46.19946" lon="6.49878">
        <ele>879.12109375</ele>
        <time>2021-08-21T13:34:21Z</time>
      </trkpt>
      <trkpt lat="46.19955" lon="6.49866">
        <ele>879.58203125</ele>
        <time>2021-08-21T13:34:24Z</time>
      </trkpt>
      <trkpt lat="46.19958" lon="6.49862">
        <ele>879.69921875</ele>
        <time>2021-08-21T13:34:25Z</time>
      </trkpt>
      <trkpt lat="46.19962" lon="6.49859">
        <ele>879.81640625</ele>
        <time>2021-08-21T13:34:26Z</time>
      </trkpt>
      <trkpt lat="46.19965" lon="6.49855">
        <ele>879.9609375</ele>
        <time>2021-08-21T13:34:27Z</time>
      </trkpt>
      <trkpt lat="46.19968" lon="6.49851">
        <ele>880.109375</ele>
        <time>2021-08-21T13:34:28Z</time>
      </trkpt>
      <trkpt lat="46.19993" lon="6.4982">
        <ele>881.31640625</ele>
        <time>2021-08-21T13:34:36Z</time>
      </trkpt>
      <trkpt lat="46.19998" lon="6.49818">
        <ele>881.55859375</ele>
        <time>2021-08-21T13:34:37Z</time>
      </trkpt>
      <trkpt lat="46.20003" lon="6.49817">
        <ele>881.76953125</ele>
        <time>2021-08-21T13:34:38Z</time>
      </trkpt>
      <trkpt lat="46.20008" lon="6.49819">
        <ele>881.87109375</ele>
        <time>2021-08-21T13:34:39Z</time>
      </trkpt>
      <trkpt lat="46.20012" lon="6.49824">
        <ele>881.859375</ele>
        <time>2021-08-21T13:34:40Z</time>
      </trkpt>
      <trkpt lat="46.20016" lon="6.4983">
        <ele>881.671875</ele>
        <time>2021-08-21T13:34:41Z</time>
      </trkpt>
      <trkpt lat="46.20019" lon="6.49836">
        <ele>881.3359375</ele>
        <time>2021-08-21T13:34:42Z</time>
      </trkpt>
      <trkpt lat="46.20022" lon="6.49842">
        <ele>880.9921875</ele>
        <time>2021-08-21T13:34:43Z</time>
      </trkpt>
      <trkpt lat="46.20059" lon="6.49913">
        <ele>879.890625</ele>
        <time>2021-08-21T13:34:52Z</time>
      </trkpt>
      <trkpt lat="46.20064" lon="6.49919">
        <ele>879.6796875</ele>
        <time>2021-08-21T13:34:53Z</time>
      </trkpt>
      <trkpt lat="46.20071" lon="6.49924">
        <ele>879.49609375</ele>
        <time>2021-08-21T13:34:54Z</time>
      </trkpt>
      <trkpt lat="46.20078" lon="6.49928">
        <ele>879.2890625</ele>
        <time>2021-08-21T13:34:55Z</time>
      </trkpt>
      <trkpt lat="46.20085" lon="6.49932">
        <ele>879.12109375</ele>
        <time>2021-08-21T13:34:56Z</time>
      </trkpt>
      <trkpt lat="46.20092" lon="6.49935">
        <ele>879.02734375</ele>
        <time>2021-08-21T13:34:57Z</time>
      </trkpt>
      <trkpt lat="46.20144" lon="6.49969">
        <ele>878</ele>
        <time>2021-08-21T13:35:05Z</time>
      </trkpt>
      <trkpt lat="46.20148" lon="6.49976">
        <ele>878</ele>
        <time>2021-08-21T13:35:06Z</time>
      </trkpt>
      <trkpt lat="46.20197" lon="6.50068">
        <ele>879.16015625</ele>
        <time>2021-08-21T13:35:18Z</time>
      </trkpt>
      <trkpt lat="46.20211" lon="6.50098">
        <ele>880.69921875</ele>
        <time>2021-08-21T13:35:22Z</time>
      </trkpt>
      <trkpt lat="46.20213" lon="6.50106">
        <ele>881.1328125</ele>
        <time>2021-08-21T13:35:23Z</time>
      </trkpt>
      <trkpt lat="46.20239" lon="6.50195">
        <ele>887.5234375</ele>
        <time>2021-08-21T13:35:36Z</time>
      </trkpt>
      <trkpt lat="46.20241" lon="6.50201">
        <ele>887.9921875</ele>
        <time>2021-08-21T13:35:37Z</time>
      </trkpt>
      <trkpt lat="46.20253" lon="6.50246">
        <ele>891.72265625</ele>
        <time>2021-08-21T13:35:46Z</time>
      </trkpt>
      <trkpt lat="46.20272" lon="6.50267">
        <ele>893.9140625</ele>
        <time>2021-08-21T13:35:54Z</time>
      </trkpt>
      <trkpt lat="46.20332" lon="6.50243">
        <ele>894.34765625</ele>
        <time>2021-08-21T13:36:08Z</time>
      </trkpt>
      <trkpt lat="46.20338" lon="6.50242">
        <ele>894.4453125</ele>
        <time>2021-08-21T13:36:09Z</time>
      </trkpt>
      <trkpt lat="46.20417" lon="6.50214">
        <ele>894.33203125</ele>
        <time>2021-08-21T13:36:22Z</time>
      </trkpt>
      <trkpt lat="46.20454" lon="6.50204">
        <ele>894.1875</ele>
        <time>2021-08-21T13:36:28Z</time>
      </trkpt>
      <trkpt lat="46.20461" lon="6.50204">
        <ele>894.1796875</ele>
        <time>2021-08-21T13:36:29Z</time>
      </trkpt>
      <trkpt lat="46.20561" lon="6.50223">
        <ele>893.546875</ele>
        <time>2021-08-21T13:36:42Z</time>
      </trkpt>
      <trkpt lat="46.20668" lon="6.50221">
        <ele>892.10546875</ele>
        <time>2021-08-21T13:36:57Z</time>
      </trkpt>
      <trkpt lat="46.20758" lon="6.50194">
        <ele>892.0546875</ele>
        <time>2021-08-21T13:37:11Z</time>
      </trkpt>
      <trkpt lat="46.20798" lon="6.50186">
        <ele>893.0390625</ele>
        <time>2021-08-21T13:37:18Z</time>
      </trkpt>
      <trkpt lat="46.20803" lon="6.50182">
        <ele>892.89453125</ele>
        <time>2021-08-21T13:37:19Z</time>
      </trkpt>
      <trkpt lat="46.20805" lon="6.50176">
        <ele>892.49609375</ele>
        <time>2021-08-21T13:37:20Z</time>
      </trkpt>
      <trkpt lat="46.20805" lon="6.50168">
        <ele>891.94921875</ele>
        <time>2021-08-21T13:37:21Z</time>
      </trkpt>
      <trkpt lat="46.20806" lon="6.50159">
        <ele>891.3359375</ele>
        <time>2021-08-21T13:37:22Z</time>
      </trkpt>
      <trkpt lat="46.20806" lon="6.50138">
        <ele>890.58203125</ele>
        <time>2021-08-21T13:37:24Z</time>
      </trkpt>
      <trkpt lat="46.20802" lon="6.50097">
        <ele>889.75</ele>
        <time>2021-08-21T13:37:28Z</time>
      </trkpt>
      <trkpt lat="46.20802" lon="6.5009">
        <ele>889.5078125</ele>
        <time>2021-08-21T13:37:29Z</time>
      </trkpt>
      <trkpt lat="46.20803" lon="6.50079">
        <ele>889.1015625</ele>
        <time>2021-08-21T13:37:32Z</time>
      </trkpt>
      <trkpt lat="46.20805" lon="6.50077">
        <ele>889.02734375</ele>
        <time>2021-08-21T13:37:33Z</time>
      </trkpt>
      <trkpt lat="46.20808" lon="6.50075">
        <ele>888.98046875</ele>
        <time>2021-08-21T13:37:34Z</time>
      </trkpt>
      <trkpt lat="46.2081" lon="6.50072">
        <ele>888.92578125</ele>
        <time>2021-08-21T13:37:35Z</time>
      </trkpt>
      <trkpt lat="46.20813" lon="6.50067">
        <ele>888.87890625</ele>
        <time>2021-08-21T13:37:36Z</time>
      </trkpt>
      <trkpt lat="46.20816" lon="6.50062">
        <ele>888.86328125</ele>
        <time>2021-08-21T13:37:37Z</time>
      </trkpt>
      <trkpt lat="46.2082" lon="6.50057">
        <ele>888.90625</ele>
        <time>2021-08-21T13:37:38Z</time>
      </trkpt>
      <trkpt lat="46.20824" lon="6.50052">
        <ele>889</ele>
        <time>2021-08-21T13:37:39Z</time>
      </trkpt>
      <trkpt lat="46.20906" lon="6.49963">
        <ele>890.98046875</ele>
        <time>2021-08-21T13:37:56Z</time>
      </trkpt>
      <trkpt lat="46.20973" lon="6.49893">
        <ele>894.1796875</ele>
        <time>2021-08-21T13:38:11Z</time>
      </trkpt>
      <trkpt lat="46.20978" lon="6.49891">
        <ele>894.34375</ele>
        <time>2021-08-21T13:38:12Z</time>
      </trkpt>
      <trkpt lat="46.20982" lon="6.4989">
        <ele>894.43359375</ele>
        <time>2021-08-21T13:38:13Z</time>
      </trkpt>
      <trkpt lat="46.20987" lon="6.4989">
        <ele>894.43359375</ele>
        <time>2021-08-21T13:38:14Z</time>
      </trkpt>
      <trkpt lat="46.20991" lon="6.49891">
        <ele>894.3828125</ele>
        <time>2021-08-21T13:38:15Z</time>
      </trkpt>
      <trkpt lat="46.20996" lon="6.49892">
        <ele>894.37109375</ele>
        <time>2021-08-21T13:38:16Z</time>
      </trkpt>
      <trkpt lat="46.21011" lon="6.49898">
        <ele>894.26171875</ele>
        <time>2021-08-21T13:38:25Z</time>
      </trkpt>
      <trkpt lat="46.21011" lon="6.499">
        <ele>894.20703125</ele>
        <time>2021-08-21T13:38:46Z</time>
      </trkpt>
      <trkpt lat="46.21013" lon="6.499">
        <ele>894.2421875</ele>
        <time>2021-08-21T13:39:08Z</time>
      </trkpt>
      <trkpt lat="46.21014" lon="6.49899">
        <ele>894.2890625</ele>
        <time>2021-08-21T13:39:31Z</time>
      </trkpt>
      <trkpt lat="46.21018" lon="6.49895">
        <ele>894.5234375</ele>
        <time>2021-08-21T13:39:35Z</time>
      </trkpt>
      <trkpt lat="46.21021" lon="6.49885">
        <ele>894.8828125</ele>
        <time>2021-08-21T13:39:38Z</time>
      </trkpt>
      <trkpt lat="46.21023" lon="6.49884">
        <ele>894.9296875</ele>
        <time>2021-08-21T13:39:39Z</time>
      </trkpt>
      <trkpt lat="46.21026" lon="6.49884">
        <ele>894.9140625</ele>
        <time>2021-08-21T13:39:40Z</time>
      </trkpt>
      <trkpt lat="46.2103" lon="6.49885">
        <ele>894.87109375</ele>
        <time>2021-08-21T13:39:41Z</time>
      </trkpt>
      <trkpt lat="46.21045" lon="6.49888">
        <ele>894.77734375</ele>
        <time>2021-08-21T13:39:45Z</time>
      </trkpt>
      <trkpt lat="46.21049" lon="6.49888">
        <ele>894.796875</ele>
        <time>2021-08-21T13:39:46Z</time>
      </trkpt>
      <trkpt lat="46.21053" lon="6.49888">
        <ele>894.8359375</ele>
        <time>2021-08-21T13:39:47Z</time>
      </trkpt>
      <trkpt lat="46.21057" lon="6.49887">
        <ele>894.89453125</ele>
        <time>2021-08-21T13:39:48Z</time>
      </trkpt>
      <trkpt lat="46.2106" lon="6.49885">
        <ele>894.9453125</ele>
        <time>2021-08-21T13:39:49Z</time>
      </trkpt>
      <trkpt lat="46.21064" lon="6.49883">
        <ele>894.984375</ele>
        <time>2021-08-21T13:39:50Z</time>
      </trkpt>
      <trkpt lat="46.21093" lon="6.49867">
        <ele>896.75</ele>
        <time>2021-08-21T13:39:58Z</time>
      </trkpt>
      <trkpt lat="46.21096" lon="6.49863">
        <ele>897.12890625</ele>
        <time>2021-08-21T13:39:59Z</time>
      </trkpt>
      <trkpt lat="46.21098" lon="6.4986">
        <ele>897.50390625</ele>
        <time>2021-08-21T13:40:00Z</time>
      </trkpt>
      <trkpt lat="46.21102" lon="6.49857">
        <ele>897.7734375</ele>
        <time>2021-08-21T13:40:01Z</time>
      </trkpt>
      <trkpt lat="46.21105" lon="6.49856">
        <ele>897.8515625</ele>
        <time>2021-08-21T13:40:02Z</time>
      </trkpt>
      <trkpt lat="46.21109" lon="6.49857">
        <ele>897.83984375</ele>
        <time>2021-08-21T13:40:03Z</time>
      </trkpt>
      <trkpt lat="46.21114" lon="6.49858">
        <ele>897.76953125</ele>
        <time>2021-08-21T13:40:04Z</time>
      </trkpt>
      <trkpt lat="46.21118" lon="6.4986">
        <ele>897.703125</ele>
        <time>2021-08-21T13:40:05Z</time>
      </trkpt>
      <trkpt lat="46.21187" lon="6.49875">
        <ele>897.5</ele>
        <time>2021-08-21T13:40:16Z</time>
      </trkpt>
      <trkpt lat="46.21275" lon="6.49901">
        <ele>898.80859375</ele>
        <time>2021-08-21T13:40:31Z</time>
      </trkpt>
      <trkpt lat="46.21291" lon="6.49904">
        <ele>899.08203125</ele>
        <time>2021-08-21T13:40:34Z</time>
      </trkpt>
      <trkpt lat="46.21297" lon="6.49904">
        <ele>899.2578125</ele>
        <time>2021-08-21T13:40:35Z</time>
      </trkpt>
      <trkpt lat="46.21331" lon="6.49901">
        <ele>900.66796875</ele>
        <time>2021-08-21T13:40:41Z</time>
      </trkpt>
      <trkpt lat="46.21364" lon="6.49905">
        <ele>901.765625</ele>
        <time>2021-08-21T13:40:48Z</time>
      </trkpt>
      <trkpt lat="46.21368" lon="6.49904">
        <ele>901.97265625</ele>
        <time>2021-08-21T13:40:49Z</time>
      </trkpt>
      <trkpt lat="46.21408" lon="6.49883">
        <ele>904.96875</ele>
        <time>2021-08-21T13:41:01Z</time>
      </trkpt>
      <trkpt lat="46.21411" lon="6.49883">
        <ele>905.2578125</ele>
        <time>2021-08-21T13:41:02Z</time>
      </trkpt>
      <trkpt lat="46.21416" lon="6.49884">
        <ele>905.5234375</ele>
        <time>2021-08-21T13:41:03Z</time>
      </trkpt>
      <trkpt lat="46.2142" lon="6.49885">
        <ele>905.7421875</ele>
        <time>2021-08-21T13:41:04Z</time>
      </trkpt>
      <trkpt lat="46.21424" lon="6.49887">
        <ele>905.8671875</ele>
        <time>2021-08-21T13:41:05Z</time>
      </trkpt>
      <trkpt lat="46.21428" lon="6.4989">
        <ele>905.96484375</ele>
        <time>2021-08-21T13:41:06Z</time>
      </trkpt>
      <trkpt lat="46.21437" lon="6.49896">
        <ele>906.17578125</ele>
        <time>2021-08-21T13:41:08Z</time>
      </trkpt>
      <trkpt lat="46.21471" lon="6.49915">
        <ele>907.2421875</ele>
        <time>2021-08-21T13:41:17Z</time>
      </trkpt>
      <trkpt lat="46.21474" lon="6.49912">
        <ele>907.6328125</ele>
        <time>2021-08-21T13:41:18Z</time>
      </trkpt>
      <trkpt lat="46.21475" lon="6.49908">
        <ele>908.0703125</ele>
        <time>2021-08-21T13:41:19Z</time>
      </trkpt>
      <trkpt lat="46.21476" lon="6.49903">
        <ele>908.47265625</ele>
        <time>2021-08-21T13:41:20Z</time>
      </trkpt>
      <trkpt lat="46.21476" lon="6.49898">
        <ele>908.80078125</ele>
        <time>2021-08-21T13:41:21Z</time>
      </trkpt>
      <trkpt lat="46.21475" lon="6.49894">
        <ele>909.03515625</ele>
        <time>2021-08-21T13:41:22Z</time>
      </trkpt>
      <trkpt lat="46.21473" lon="6.4989">
        <ele>909.25390625</ele>
        <time>2021-08-21T13:41:23Z</time>
      </trkpt>
      <trkpt lat="46.21447" lon="6.49862">
        <ele>909.33203125</ele>
        <time>2021-08-21T13:41:33Z</time>
      </trkpt>
      <trkpt lat="46.21448" lon="6.49836">
        <ele>911.58984375</ele>
        <time>2021-08-21T13:41:39Z</time>
      </trkpt>
      <trkpt lat="46.21451" lon="6.49834">
        <ele>911.9296875</ele>
        <time>2021-08-21T13:41:40Z</time>
      </trkpt>
      <trkpt lat="46.21455" lon="6.49833">
        <ele>912.15625</ele>
        <time>2021-08-21T13:41:41Z</time>
      </trkpt>
      <trkpt lat="46.21458" lon="6.49833">
        <ele>912.3203125</ele>
        <time>2021-08-21T13:41:42Z</time>
      </trkpt>
      <trkpt lat="46.21462" lon="6.49834">
        <ele>912.4375</ele>
        <time>2021-08-21T13:41:43Z</time>
      </trkpt>
      <trkpt lat="46.21465" lon="6.49834">
        <ele>912.61328125</ele>
        <time>2021-08-21T13:41:44Z</time>
      </trkpt>
      <trkpt lat="46.2148" lon="6.49828">
        <ele>914.1328125</ele>
        <time>2021-08-21T13:41:49Z</time>
      </trkpt>
      <trkpt lat="46.21481" lon="6.49785">
        <ele>918.171875</ele>
        <time>2021-08-21T13:41:59Z</time>
      </trkpt>
      <trkpt lat="46.21442" lon="6.49753">
        <ele>920.7109375</ele>
        <time>2021-08-21T13:42:11Z</time>
      </trkpt>
      <trkpt lat="46.21432" lon="6.49749">
        <ele>921.12109375</ele>
        <time>2021-08-21T13:42:14Z</time>
      </trkpt>
      <trkpt lat="46.21395" lon="6.49731">
        <ele>922.54296875</ele>
        <time>2021-08-21T13:42:26Z</time>
      </trkpt>
      <trkpt lat="46.21366" lon="6.4971">
        <ele>924.2578125</ele>
        <time>2021-08-21T13:42:37Z</time>
      </trkpt>
      <trkpt lat="46.21332" lon="6.49663">
        <ele>926.921875</ele>
        <time>2021-08-21T13:42:53Z</time>
      </trkpt>
      <trkpt lat="46.21328" lon="6.49658">
        <ele>927.1953125</ele>
        <time>2021-08-21T13:42:55Z</time>
      </trkpt>
      <trkpt lat="46.21306" lon="6.49629">
        <ele>930.71875</ele>
        <time>2021-08-21T13:43:06Z</time>
      </trkpt>
      <trkpt lat="46.21287" lon="6.49597">
        <ele>935.0859375</ele>
        <time>2021-08-21T13:43:16Z</time>
      </trkpt>
      <trkpt lat="46.21258" lon="6.49568">
        <ele>940.86328125</ele>
        <time>2021-08-21T13:43:29Z</time>
      </trkpt>
      <trkpt lat="46.21232" lon="6.49557">
        <ele>944.94921875</ele>
        <time>2021-08-21T13:43:40Z</time>
      </trkpt>
      <trkpt lat="46.21211" lon="6.49554">
        <ele>946.44921875</ele>
        <time>2021-08-21T13:43:48Z</time>
      </trkpt>
      <trkpt lat="46.21197" lon="6.49539">
        <ele>954.1875</ele>
        <time>2021-08-21T13:43:55Z</time>
      </trkpt>
      <trkpt lat="46.21197" lon="6.49537">
        <ele>954.98046875</ele>
        <time>2021-08-21T13:43:56Z</time>
      </trkpt>
      <trkpt lat="46.21198" lon="6.49534">
        <ele>955.83984375</ele>
        <time>2021-08-21T13:43:57Z</time>
      </trkpt>
      <trkpt lat="46.21198" lon="6.49532">
        <ele>956.62109375</ele>
        <time>2021-08-21T13:43:58Z</time>
      </trkpt>
      <trkpt lat="46.212" lon="6.49528">
        <ele>957.3828125</ele>
        <time>2021-08-21T13:44:00Z</time>
      </trkpt>
      <trkpt lat="46.21203" lon="6.49528">
        <ele>956.94140625</ele>
        <time>2021-08-21T13:44:01Z</time>
      </trkpt>
      <trkpt lat="46.21243" lon="6.49531">
        <ele>952.53125</ele>
        <time>2021-08-21T13:44:14Z</time>
      </trkpt>
      <trkpt lat="46.21267" lon="6.49539">
        <ele>949.17578125</ele>
        <time>2021-08-21T13:44:22Z</time>
      </trkpt>
      <trkpt lat="46.21305" lon="6.49552">
        <ele>952.140625</ele>
        <time>2021-08-21T13:44:35Z</time>
      </trkpt>
      <trkpt lat="46.21321" lon="6.4956">
        <ele>952.75390625</ele>
        <time>2021-08-21T13:44:41Z</time>
      </trkpt>
      <trkpt lat="46.21348" lon="6.49573">
        <ele>955.34375</ele>
        <time>2021-08-21T13:44:52Z</time>
      </trkpt>
      <trkpt lat="46.21374" lon="6.49576">
        <ele>958.41796875</ele>
        <time>2021-08-21T13:45:02Z</time>
      </trkpt>
      <trkpt lat="46.21376" lon="6.49576">
        <ele>958.84375</ele>
        <time>2021-08-21T13:45:03Z</time>
      </trkpt>
      <trkpt lat="46.21396" lon="6.49567">
        <ele>963.9765625</ele>
        <time>2021-08-21T13:45:10Z</time>
      </trkpt>
      <trkpt lat="46.21398" lon="6.49563">
        <ele>965.3984375</ele>
        <time>2021-08-21T13:45:11Z</time>
      </trkpt>
      <trkpt lat="46.21399" lon="6.49559">
        <ele>966.75390625</ele>
        <time>2021-08-21T13:45:12Z</time>
      </trkpt>
      <trkpt lat="46.21399" lon="6.49555">
        <ele>968.04296875</ele>
        <time>2021-08-21T13:45:13Z</time>
      </trkpt>
      <trkpt lat="46.21399" lon="6.49552">
        <ele>969.21484375</ele>
        <time>2021-08-21T13:45:14Z</time>
      </trkpt>
      <trkpt lat="46.21397" lon="6.49549">
        <ele>969.89453125</ele>
        <time>2021-08-21T13:45:15Z</time>
      </trkpt>
      <trkpt lat="46.21395" lon="6.49547">
        <ele>970.49609375</ele>
        <time>2021-08-21T13:45:16Z</time>
      </trkpt>
      <trkpt lat="46.21392" lon="6.49545">
        <ele>970.91796875</ele>
        <time>2021-08-21T13:45:17Z</time>
      </trkpt>
      <trkpt lat="46.21389" lon="6.49544">
        <ele>970.93359375</ele>
        <time>2021-08-21T13:45:18Z</time>
      </trkpt>
      <trkpt lat="46.21387" lon="6.49544">
        <ele>970.66015625</ele>
        <time>2021-08-21T13:45:19Z</time>
      </trkpt>
      <trkpt lat="46.2136" lon="6.49542">
        <ele>967.765625</ele>
        <time>2021-08-21T13:45:29Z</time>
      </trkpt>
      <trkpt lat="46.21341" lon="6.4953">
        <ele>968.29296875</ele>
        <time>2021-08-21T13:45:37Z</time>
      </trkpt>
      <trkpt lat="46.21322" lon="6.49507">
        <ele>971.87890625</ele>
        <time>2021-08-21T13:45:46Z</time>
      </trkpt>
      <trkpt lat="46.21295" lon="6.49468">
        <ele>981.0078125</ele>
        <time>2021-08-21T13:46:00Z</time>
      </trkpt>
      <trkpt lat="46.2129" lon="6.49463">
        <ele>982.0234375</ele>
        <time>2021-08-21T13:46:02Z</time>
      </trkpt>
      <trkpt lat="46.21264" lon="6.49433">
        <ele>988.57421875</ele>
        <time>2021-08-21T13:46:14Z</time>
      </trkpt>
      <trkpt lat="46.21231" lon="6.49395">
        <ele>1000.4765625</ele>
        <time>2021-08-21T13:46:28Z</time>
      </trkpt>
      <trkpt lat="46.2123" lon="6.49392">
        <ele>1001.36328125</ele>
        <time>2021-08-21T13:46:29Z</time>
      </trkpt>
      <trkpt lat="46.2123" lon="6.49389">
        <ele>1002.15234375</ele>
        <time>2021-08-21T13:46:30Z</time>
      </trkpt>
      <trkpt lat="46.21231" lon="6.49386">
        <ele>1002.74609375</ele>
        <time>2021-08-21T13:46:31Z</time>
      </trkpt>
      <trkpt lat="46.21232" lon="6.49384">
        <ele>1003.24609375</ele>
        <time>2021-08-21T13:46:32Z</time>
      </trkpt>
      <trkpt lat="46.21233" lon="6.49382">
        <ele>1003.6484375</ele>
        <time>2021-08-21T13:46:33Z</time>
      </trkpt>
      <trkpt lat="46.21235" lon="6.49381">
        <ele>1003.78515625</ele>
        <time>2021-08-21T13:46:34Z</time>
      </trkpt>
      <trkpt lat="46.21237" lon="6.4938">
        <ele>1003.78125</ele>
        <time>2021-08-21T13:46:35Z</time>
      </trkpt>
      <trkpt lat="46.21238" lon="6.4938">
        <ele>1003.66796875</ele>
        <time>2021-08-21T13:46:36Z</time>
      </trkpt>
      <trkpt lat="46.21241" lon="6.4938">
        <ele>1003.3828125</ele>
        <time>2021-08-21T13:46:37Z</time>
      </trkpt>
      <trkpt lat="46.21244" lon="6.49382">
        <ele>1002.8359375</ele>
        <time>2021-08-21T13:46:38Z</time>
      </trkpt>
      <trkpt lat="46.21279" lon="6.49394">
        <ele>999.53515625</ele>
        <time>2021-08-21T13:46:49Z</time>
      </trkpt>
      <trkpt lat="46.21305" lon="6.49402">
        <ele>1000.94140625</ele>
        <time>2021-08-21T13:46:59Z</time>
      </trkpt>
      <trkpt lat="46.2134" lon="6.49424">
        <ele>1002.43359375</ele>
        <time>2021-08-21T13:47:12Z</time>
      </trkpt>
      <trkpt lat="46.21364" lon="6.4945">
        <ele>1002.45703125</ele>
        <time>2021-08-21T13:47:24Z</time>
      </trkpt>
      <trkpt lat="46.21387" lon="6.49474">
        <ele>1001.109375</ele>
        <time>2021-08-21T13:47:35Z</time>
      </trkpt>
      <trkpt lat="46.21419" lon="6.49482">
        <ele>1002.84375</ele>
        <time>2021-08-21T13:47:48Z</time>
      </trkpt>
      <trkpt lat="46.21451" lon="6.49465">
        <ele>1014.609375</ele>
        <time>2021-08-21T13:48:02Z</time>
      </trkpt>
      <trkpt lat="46.21451" lon="6.49454">
        <ele>1016.73828125</ele>
        <time>2021-08-21T13:48:05Z</time>
      </trkpt>
      <trkpt lat="46.2145" lon="6.4945">
        <ele>1017.375</ele>
        <time>2021-08-21T13:48:06Z</time>
      </trkpt>
      <trkpt lat="46.21448" lon="6.49446">
        <ele>1017.90625</ele>
        <time>2021-08-21T13:48:07Z</time>
      </trkpt>
      <trkpt lat="46.21445" lon="6.49444">
        <ele>1018.34375</ele>
        <time>2021-08-21T13:48:08Z</time>
      </trkpt>
      <trkpt lat="46.21443" lon="6.49441">
        <ele>1018.6640625</ele>
        <time>2021-08-21T13:48:09Z</time>
      </trkpt>
      <trkpt lat="46.2144" lon="6.4944">
        <ele>1018.859375</ele>
        <time>2021-08-21T13:48:10Z</time>
      </trkpt>
      <trkpt lat="46.21413" lon="6.49406">
        <ele>1022.265625</ele>
        <time>2021-08-21T13:48:23Z</time>
      </trkpt>
      <trkpt lat="46.2139" lon="6.49363">
        <ele>1024.2578125</ele>
        <time>2021-08-21T13:48:36Z</time>
      </trkpt>
      <trkpt lat="46.21366" lon="6.49328">
        <ele>1025.55859375</ele>
        <time>2021-08-21T13:48:48Z</time>
      </trkpt>
      <trkpt lat="46.21353" lon="6.49291">
        <ele>1030.47265625</ele>
        <time>2021-08-21T13:48:59Z</time>
      </trkpt>
      <trkpt lat="46.21355" lon="6.49287">
        <ele>1031.546875</ele>
        <time>2021-08-21T13:49:00Z</time>
      </trkpt>
      <trkpt lat="46.21357" lon="6.49284">
        <ele>1032.6484375</ele>
        <time>2021-08-21T13:49:01Z</time>
      </trkpt>
      <trkpt lat="46.21359" lon="6.49282">
        <ele>1033.609375</ele>
        <time>2021-08-21T13:49:02Z</time>
      </trkpt>
      <trkpt lat="46.21362" lon="6.4928">
        <ele>1034.4140625</ele>
        <time>2021-08-21T13:49:03Z</time>
      </trkpt>
      <trkpt lat="46.21365" lon="6.49279">
        <ele>1035.05078125</ele>
        <time>2021-08-21T13:49:04Z</time>
      </trkpt>
      <trkpt lat="46.21367" lon="6.49279">
        <ele>1035.6328125</ele>
        <time>2021-08-21T13:49:05Z</time>
      </trkpt>
      <trkpt lat="46.2137" lon="6.49278">
        <ele>1036.140625</ele>
        <time>2021-08-21T13:49:06Z</time>
      </trkpt>
      <trkpt lat="46.21405" lon="6.49288">
        <ele>1040.71484375</ele>
        <time>2021-08-21T13:49:18Z</time>
      </trkpt>
      <trkpt lat="46.21436" lon="6.49296">
        <ele>1042.71875</ele>
        <time>2021-08-21T13:49:29Z</time>
      </trkpt>
      <trkpt lat="46.2145" lon="6.493">
        <ele>1043.48046875</ele>
        <time>2021-08-21T13:49:34Z</time>
      </trkpt>
      <trkpt lat="46.21472" lon="6.49285">
        <ele>1047.5859375</ele>
        <time>2021-08-21T13:49:44Z</time>
      </trkpt>
      <trkpt lat="46.21471" lon="6.49281">
        <ele>1048.3046875</ele>
        <time>2021-08-21T13:49:45Z</time>
      </trkpt>
      <trkpt lat="46.2147" lon="6.49277">
        <ele>1048.97265625</ele>
        <time>2021-08-21T13:49:46Z</time>
      </trkpt>
      <trkpt lat="46.21468" lon="6.49274">
        <ele>1049.5</ele>
        <time>2021-08-21T13:49:47Z</time>
      </trkpt>
      <trkpt lat="46.21465" lon="6.49272">
        <ele>1049.8359375</ele>
        <time>2021-08-21T13:49:48Z</time>
      </trkpt>
      <trkpt lat="46.21463" lon="6.49271">
        <ele>1050.0078125</ele>
        <time>2021-08-21T13:49:49Z</time>
      </trkpt>
      <trkpt lat="46.2146" lon="6.4927">
        <ele>1049.88671875</ele>
        <time>2021-08-21T13:49:50Z</time>
      </trkpt>
      <trkpt lat="46.21457" lon="6.4927">
        <ele>1049.62109375</ele>
        <time>2021-08-21T13:49:51Z</time>
      </trkpt>
      <trkpt lat="46.21426" lon="6.49249">
        <ele>1050.05078125</ele>
        <time>2021-08-21T13:50:01Z</time>
      </trkpt>
      <trkpt lat="46.21401" lon="6.49216">
        <ele>1053.37890625</ele>
        <time>2021-08-21T13:50:13Z</time>
      </trkpt>
      <trkpt lat="46.21378" lon="6.49193">
        <ele>1056.5390625</ele>
        <time>2021-08-21T13:50:25Z</time>
      </trkpt>
      <trkpt lat="46.21371" lon="6.49188">
        <ele>1057.6171875</ele>
        <time>2021-08-21T13:50:28Z</time>
      </trkpt>
      <trkpt lat="46.21368" lon="6.49187">
        <ele>1057.75390625</ele>
        <time>2021-08-21T13:50:29Z</time>
      </trkpt>
      <trkpt lat="46.21365" lon="6.49187">
        <ele>1057.77734375</ele>
        <time>2021-08-21T13:50:30Z</time>
      </trkpt>
      <trkpt lat="46.21362" lon="6.49187">
        <ele>1057.75</ele>
        <time>2021-08-21T13:50:31Z</time>
      </trkpt>
      <trkpt lat="46.21358" lon="6.49186">
        <ele>1057.84375</ele>
        <time>2021-08-21T13:50:32Z</time>
      </trkpt>
      <trkpt lat="46.21355" lon="6.49186">
        <ele>1057.91796875</ele>
        <time>2021-08-21T13:50:33Z</time>
      </trkpt>
      <trkpt lat="46.21353" lon="6.49186">
        <ele>1057.85546875</ele>
        <time>2021-08-21T13:50:34Z</time>
      </trkpt>
      <trkpt lat="46.2135" lon="6.49186">
        <ele>1057.390625</ele>
        <time>2021-08-21T13:50:35Z</time>
      </trkpt>
      <trkpt lat="46.21347" lon="6.49188">
        <ele>1056.765625</ele>
        <time>2021-08-21T13:50:36Z</time>
      </trkpt>
      <trkpt lat="46.21345" lon="6.49188">
        <ele>1056.37109375</ele>
        <time>2021-08-21T13:50:37Z</time>
      </trkpt>
      <trkpt lat="46.21342" lon="6.49189">
        <ele>1056.15234375</ele>
        <time>2021-08-21T13:50:38Z</time>
      </trkpt>
      <trkpt lat="46.21312" lon="6.49188">
        <ele>1054.67578125</ele>
        <time>2021-08-21T13:50:49Z</time>
      </trkpt>
      <trkpt lat="46.21283" lon="6.49177">
        <ele>1057.58203125</ele>
        <time>2021-08-21T13:51:00Z</time>
      </trkpt>
      <trkpt lat="46.21246" lon="6.49162">
        <ele>1061.6875</ele>
        <time>2021-08-21T13:51:13Z</time>
      </trkpt>
      <trkpt lat="46.21221" lon="6.49148">
        <ele>1065.7109375</ele>
        <time>2021-08-21T13:51:23Z</time>
      </trkpt>
      <trkpt lat="46.2119" lon="6.49133">
        <ele>1069.90625</ele>
        <time>2021-08-21T13:51:36Z</time>
      </trkpt>
      <trkpt lat="46.21164" lon="6.49118">
        <ele>1074.625</ele>
        <time>2021-08-21T13:51:47Z</time>
      </trkpt>
      <trkpt lat="46.21138" lon="6.49106">
        <ele>1079.140625</ele>
        <time>2021-08-21T13:51:58Z</time>
      </trkpt>
      <trkpt lat="46.21112" lon="6.49097">
        <ele>1084.796875</ele>
        <time>2021-08-21T13:52:09Z</time>
      </trkpt>
      <trkpt lat="46.21083" lon="6.49089">
        <ele>1092.72265625</ele>
        <time>2021-08-21T13:52:19Z</time>
      </trkpt>
      <trkpt lat="46.21081" lon="6.49088">
        <ele>1093.71875</ele>
        <time>2021-08-21T13:52:20Z</time>
      </trkpt>
      <trkpt lat="46.21079" lon="6.49087">
        <ele>1094.48046875</ele>
        <time>2021-08-21T13:52:21Z</time>
      </trkpt>
      <trkpt lat="46.21052" lon="6.49092">
        <ele>1099.38671875</ele>
        <time>2021-08-21T13:52:32Z</time>
      </trkpt>
      <trkpt lat="46.21035" lon="6.49104">
        <ele>1099.96484375</ele>
        <time>2021-08-21T13:52:39Z</time>
      </trkpt>
      <trkpt lat="46.21003" lon="6.49127">
        <ele>1100.99609375</ele>
        <time>2021-08-21T13:52:51Z</time>
      </trkpt>
      <trkpt lat="46.20973" lon="6.49139">
        <ele>1102.11328125</ele>
        <time>2021-08-21T13:53:02Z</time>
      </trkpt>
      <trkpt lat="46.20943" lon="6.49144">
        <ele>1103.6484375</ele>
        <time>2021-08-21T13:53:14Z</time>
      </trkpt>
      <trkpt lat="46.20914" lon="6.49147">
        <ele>1104.02734375</ele>
        <time>2021-08-21T13:53:25Z</time>
      </trkpt>
      <trkpt lat="46.20882" lon="6.49144">
        <ele>1105.82421875</ele>
        <time>2021-08-21T13:53:39Z</time>
      </trkpt>
      <trkpt lat="46.20867" lon="6.49147">
        <ele>1104.58203125</ele>
        <time>2021-08-21T13:54:02Z</time>
      </trkpt>
      <trkpt lat="46.20838" lon="6.49133">
        <ele>1109.73046875</ele>
        <time>2021-08-21T13:54:14Z</time>
      </trkpt>
      <trkpt lat="46.20807" lon="6.49114">
        <ele>1119.1171875</ele>
        <time>2021-08-21T13:54:26Z</time>
      </trkpt>
      <trkpt lat="46.20781" lon="6.49106">
        <ele>1125.1171875</ele>
        <time>2021-08-21T13:54:37Z</time>
      </trkpt>
      <trkpt lat="46.20747" lon="6.49113">
        <ele>1125.27734375</ele>
        <time>2021-08-21T13:54:49Z</time>
      </trkpt>
      <trkpt lat="46.20744" lon="6.49114">
        <ele>1125.41015625</ele>
        <time>2021-08-21T13:54:50Z</time>
      </trkpt>
      <trkpt lat="46.20712" lon="6.49123">
        <ele>1122.82421875</ele>
        <time>2021-08-21T13:55:01Z</time>
      </trkpt>
      <trkpt lat="46.20675" lon="6.4912">
        <ele>1127.4921875</ele>
        <time>2021-08-21T13:55:14Z</time>
      </trkpt>
      <trkpt lat="46.20656" lon="6.49114">
        <ele>1131.8671875</ele>
        <time>2021-08-21T13:55:21Z</time>
      </trkpt>
      <trkpt lat="46.20633" lon="6.49113">
        <ele>1134.1171875</ele>
        <time>2021-08-21T13:55:30Z</time>
      </trkpt>
      <trkpt lat="46.20609" lon="6.49118">
        <ele>1133.03515625</ele>
        <time>2021-08-21T13:55:39Z</time>
      </trkpt>
      <trkpt lat="46.20572" lon="6.49122">
        <ele>1129.9921875</ele>
        <time>2021-08-21T13:55:53Z</time>
      </trkpt>
      <trkpt lat="46.20536" lon="6.49104">
        <ele>1131.2734375</ele>
        <time>2021-08-21T13:56:07Z</time>
      </trkpt>
      <trkpt lat="46.20521" lon="6.49081">
        <ele>1136.171875</ele>
        <time>2021-08-21T13:56:15Z</time>
      </trkpt>
      <trkpt lat="46.20495" lon="6.49041">
        <ele>1140.35546875</ele>
        <time>2021-08-21T13:56:29Z</time>
      </trkpt>
      <trkpt lat="46.20471" lon="6.49013">
        <ele>1142.734375</ele>
        <time>2021-08-21T13:56:41Z</time>
      </trkpt>
      <trkpt lat="46.20444" lon="6.49011">
        <ele>1138.31640625</ele>
        <time>2021-08-21T13:56:51Z</time>
      </trkpt>
      <trkpt lat="46.20414" lon="6.48983">
        <ele>1151.1875</ele>
        <time>2021-08-21T13:57:04Z</time>
      </trkpt>
      <trkpt lat="46.20386" lon="6.48939">
        <ele>1170.50390625</ele>
        <time>2021-08-21T13:57:17Z</time>
      </trkpt>
      <trkpt lat="46.20353" lon="6.48949">
        <ele>1172.921875</ele>
        <time>2021-08-21T13:57:29Z</time>
      </trkpt>
      <trkpt lat="46.2034" lon="6.48939">
        <ele>1177.7265625</ele>
        <time>2021-08-21T13:57:34Z</time>
      </trkpt>
      <trkpt lat="46.2034" lon="6.48935">
        <ele>1178.5234375</ele>
        <time>2021-08-21T13:57:35Z</time>
      </trkpt>
      <trkpt lat="46.2034" lon="6.48931">
        <ele>1179.1484375</ele>
        <time>2021-08-21T13:57:36Z</time>
      </trkpt>
      <trkpt lat="46.20341" lon="6.48926">
        <ele>1179.703125</ele>
        <time>2021-08-21T13:57:37Z</time>
      </trkpt>
      <trkpt lat="46.20342" lon="6.48922">
        <ele>1180.1875</ele>
        <time>2021-08-21T13:57:38Z</time>
      </trkpt>
      <trkpt lat="46.20343" lon="6.48919">
        <ele>1180.484375</ele>
        <time>2021-08-21T13:57:39Z</time>
      </trkpt>
      <trkpt lat="46.20345" lon="6.48917">
        <ele>1180.6171875</ele>
        <time>2021-08-21T13:57:40Z</time>
      </trkpt>
      <trkpt lat="46.20348" lon="6.48914">
        <ele>1180.70703125</ele>
        <time>2021-08-21T13:57:41Z</time>
      </trkpt>
      <trkpt lat="46.20379" lon="6.48898">
        <ele>1179.75</ele>
        <time>2021-08-21T13:57:54Z</time>
      </trkpt>
      <trkpt lat="46.20399" lon="6.48885">
        <ele>1180.76953125</ele>
        <time>2021-08-21T13:58:03Z</time>
      </trkpt>
      <trkpt lat="46.20425" lon="6.48873">
        <ele>1183.171875</ele>
        <time>2021-08-21T13:58:16Z</time>
      </trkpt>
      <trkpt lat="46.20442" lon="6.48883">
        <ele>1182.890625</ele>
        <time>2021-08-21T13:58:24Z</time>
      </trkpt>
      <trkpt lat="46.20468" lon="6.48919">
        <ele>1180.05078125</ele>
        <time>2021-08-21T13:58:38Z</time>
      </trkpt>
      <trkpt lat="46.2047" lon="6.48922">
        <ele>1179.79296875</ele>
        <time>2021-08-21T13:58:39Z</time>
      </trkpt>
      <trkpt lat="46.20494" lon="6.48949">
        <ele>1178.30859375</ele>
        <time>2021-08-21T13:58:52Z</time>
      </trkpt>
      <trkpt lat="46.20523" lon="6.48973">
        <ele>1178.72265625</ele>
        <time>2021-08-21T13:59:05Z</time>
      </trkpt>
      <trkpt lat="46.20551" lon="6.48985">
        <ele>1183.46484375</ele>
        <time>2021-08-21T13:59:17Z</time>
      </trkpt>
      <trkpt lat="46.20585" lon="6.48987">
        <ele>1191.7734375</ele>
        <time>2021-08-21T13:59:31Z</time>
      </trkpt>
      <trkpt lat="46.20591" lon="6.48986">
        <ele>1193.44140625</ele>
        <time>2021-08-21T13:59:33Z</time>
      </trkpt>
      <trkpt lat="46.20592" lon="6.48987">
        <ele>1193.734375</ele>
        <time>2021-08-21T13:59:34Z</time>
      </trkpt>
      <trkpt lat="46.20617" lon="6.48987">
        <ele>1196.53125</ele>
        <time>2021-08-21T13:59:44Z</time>
      </trkpt>
      <trkpt lat="46.2062" lon="6.48987">
        <ele>1196.671875</ele>
        <time>2021-08-21T13:59:45Z</time>
      </trkpt>
      <trkpt lat="46.20622" lon="6.48986">
        <ele>1197.14453125</ele>
        <time>2021-08-21T13:59:46Z</time>
      </trkpt>
      <trkpt lat="46.20625" lon="6.48986">
        <ele>1197.6171875</ele>
        <time>2021-08-21T13:59:47Z</time>
      </trkpt>
      <trkpt lat="46.20627" lon="6.48985">
        <ele>1197.98828125</ele>
        <time>2021-08-21T13:59:48Z</time>
      </trkpt>
      <trkpt lat="46.20629" lon="6.48984">
        <ele>1198.37890625</ele>
        <time>2021-08-21T13:59:49Z</time>
      </trkpt>
      <trkpt lat="46.20632" lon="6.48983">
        <ele>1198.8984375</ele>
        <time>2021-08-21T13:59:50Z</time>
      </trkpt>
      <trkpt lat="46.20649" lon="6.48967">
        <ele>1204.58984375</ele>
        <time>2021-08-21T13:59:58Z</time>
      </trkpt>
      <trkpt lat="46.20662" lon="6.48923">
        <ele>1218.2421875</ele>
        <time>2021-08-21T14:00:09Z</time>
      </trkpt>
      <trkpt lat="46.20681" lon="6.48908">
        <ele>1218.74609375</ele>
        <time>2021-08-21T14:00:17Z</time>
      </trkpt>
      <trkpt lat="46.20695" lon="6.48901">
        <ele>1218.3359375</ele>
        <time>2021-08-21T14:00:23Z</time>
      </trkpt>
      <trkpt lat="46.20723" lon="6.48897">
        <ele>1217.328125</ele>
        <time>2021-08-21T14:00:34Z</time>
      </trkpt>
      <trkpt lat="46.20755" lon="6.4889">
        <ele>1220.98828125</ele>
        <time>2021-08-21T14:00:47Z</time>
      </trkpt>
      <trkpt lat="46.20791" lon="6.48878">
        <ele>1228.1953125</ele>
        <time>2021-08-21T14:01:02Z</time>
      </trkpt>
      <trkpt lat="46.20803" lon="6.48875">
        <ele>1230.19140625</ele>
        <time>2021-08-21T14:01:07Z</time>
      </trkpt>
      <trkpt lat="46.20828" lon="6.48861">
        <ele>1234.3828125</ele>
        <time>2021-08-21T14:01:18Z</time>
      </trkpt>
      <trkpt lat="46.20857" lon="6.48823">
        <ele>1237.75</ele>
        <time>2021-08-21T14:01:30Z</time>
      </trkpt>
      <trkpt lat="46.20883" lon="6.48785">
        <ele>1238.578125</ele>
        <time>2021-08-21T14:01:43Z</time>
      </trkpt>
      <trkpt lat="46.20889" lon="6.48777">
        <ele>1238.8203125</ele>
        <time>2021-08-21T14:01:47Z</time>
      </trkpt>
      <trkpt lat="46.20908" lon="6.48753">
        <ele>1240.5</ele>
        <time>2021-08-21T14:01:59Z</time>
      </trkpt>
      <trkpt lat="46.20949" lon="6.48733">
        <ele>1239.19140625</ele>
        <time>2021-08-21T14:02:12Z</time>
      </trkpt>
      <trkpt lat="46.20997" lon="6.48716">
        <ele>1239.93359375</ele>
        <time>2021-08-21T14:02:24Z</time>
      </trkpt>
      <trkpt lat="46.21034" lon="6.48707">
        <ele>1242.17578125</ele>
        <time>2021-08-21T14:02:35Z</time>
      </trkpt>
      <trkpt lat="46.21051" lon="6.48672">
        <ele>1249.55078125</ele>
        <time>2021-08-21T14:02:45Z</time>
      </trkpt>
      <trkpt lat="46.21026" lon="6.48635">
        <ele>1257.3125</ele>
        <time>2021-08-21T14:02:56Z</time>
      </trkpt>
      <trkpt lat="46.20986" lon="6.48612">
        <ele>1265.66015625</ele>
        <time>2021-08-21T14:03:09Z</time>
      </trkpt>
      <trkpt lat="46.20964" lon="6.4858">
        <ele>1273.3203125</ele>
        <time>2021-08-21T14:03:20Z</time>
      </trkpt>
      <trkpt lat="46.2095" lon="6.48531">
        <ele>1271.9140625</ele>
        <time>2021-08-21T14:03:32Z</time>
      </trkpt>
      <trkpt lat="46.20969" lon="6.48472">
        <ele>1266.35546875</ele>
        <time>2021-08-21T14:03:47Z</time>
      </trkpt>
      <trkpt lat="46.21005" lon="6.48468">
        <ele>1261.6875</ele>
        <time>2021-08-21T14:03:58Z</time>
      </trkpt>
      <trkpt lat="46.2105" lon="6.48471">
        <ele>1259.140625</ele>
        <time>2021-08-21T14:04:12Z</time>
      </trkpt>
      <trkpt lat="46.2109" lon="6.48454">
        <ele>1262.93359375</ele>
        <time>2021-08-21T14:04:24Z</time>
      </trkpt>
      <trkpt lat="46.21115" lon="6.48425">
        <ele>1266.6953125</ele>
        <time>2021-08-21T14:04:36Z</time>
      </trkpt>
      <trkpt lat="46.21114" lon="6.48426">
        <ele>1266.609375</ele>
        <time>2021-08-21T14:04:57Z</time>
      </trkpt>
      <trkpt lat="46.21114" lon="6.48427">
        <ele>1266.609375</ele>
        <time>2021-08-21T14:05:09Z</time>
      </trkpt>
      <trkpt lat="46.21112" lon="6.48425">
        <ele>1266.8515625</ele>
        <time>2021-08-21T14:05:39Z</time>
      </trkpt>
      <trkpt lat="46.21113" lon="6.48425">
        <ele>1266.77734375</ele>
        <time>2021-08-21T14:06:03Z</time>
      </trkpt>
      <trkpt lat="46.21112" lon="6.48425">
        <ele>1266.7890625</ele>
        <time>2021-08-21T14:06:36Z</time>
      </trkpt>
      <trkpt lat="46.21111" lon="6.48425">
        <ele>1266.85546875</ele>
        <time>2021-08-21T14:07:01Z</time>
      </trkpt>
      <trkpt lat="46.21113" lon="6.48425">
        <ele>1266.8359375</ele>
        <time>2021-08-21T14:07:37Z</time>
      </trkpt>
      <trkpt lat="46.21112" lon="6.48426">
        <ele>1266.7109375</ele>
        <time>2021-08-21T14:08:11Z</time>
      </trkpt>
      <trkpt lat="46.21112" lon="6.48425">
        <ele>1266.8828125</ele>
        <time>2021-08-21T14:08:49Z</time>
      </trkpt>
      <trkpt lat="46.21113" lon="6.48424">
        <ele>1266.87109375</ele>
        <time>2021-08-21T14:09:29Z</time>
      </trkpt>
      <trkpt lat="46.21113" lon="6.48425">
        <ele>1266.8046875</ele>
        <time>2021-08-21T14:09:43Z</time>
      </trkpt>
      <trkpt lat="46.21112" lon="6.48428">
        <ele>1266.62109375</ele>
        <time>2021-08-21T14:09:47Z</time>
      </trkpt>
      <trkpt lat="46.21103" lon="6.48434">
        <ele>1266.36328125</ele>
        <time>2021-08-21T14:09:52Z</time>
      </trkpt>
      <trkpt lat="46.21101" lon="6.48434">
        <ele>1266.4375</ele>
        <time>2021-08-21T14:09:53Z</time>
      </trkpt>
      <trkpt lat="46.21099" lon="6.48435">
        <ele>1266.3515625</ele>
        <time>2021-08-21T14:09:54Z</time>
      </trkpt>
      <trkpt lat="46.21096" lon="6.48437">
        <ele>1266.1484375</ele>
        <time>2021-08-21T14:09:55Z</time>
      </trkpt>
      <trkpt lat="46.21095" lon="6.4844">
        <ele>1265.72265625</ele>
        <time>2021-08-21T14:09:56Z</time>
      </trkpt>
      <trkpt lat="46.21092" lon="6.48442">
        <ele>1265.35546875</ele>
        <time>2021-08-21T14:09:57Z</time>
      </trkpt>
      <trkpt lat="46.2109" lon="6.48443">
        <ele>1265.12890625</ele>
        <time>2021-08-21T14:09:58Z</time>
      </trkpt>
      <trkpt lat="46.21061" lon="6.48441">
        <ele>1265.296875</ele>
        <time>2021-08-21T14:10:09Z</time>
      </trkpt>
      <trkpt lat="46.21035" lon="6.48446">
        <ele>1264.6953125</ele>
        <time>2021-08-21T14:10:22Z</time>
      </trkpt>
      <trkpt lat="46.21036" lon="6.48447">
        <ele>1264.40625</ele>
        <time>2021-08-21T14:10:46Z</time>
      </trkpt>
      <trkpt lat="46.21035" lon="6.48446">
        <ele>1264.6015625</ele>
        <time>2021-08-21T14:11:16Z</time>
      </trkpt>
      <trkpt lat="46.21037" lon="6.48445">
        <ele>1264.8203125</ele>
        <time>2021-08-21T14:11:50Z</time>
      </trkpt>
      <trkpt lat="46.21014" lon="6.48443">
        <ele>1266.0546875</ele>
        <time>2021-08-21T14:12:02Z</time>
      </trkpt>
      <trkpt lat="46.2097" lon="6.48428">
        <ele>1273.87109375</ele>
        <time>2021-08-21T14:12:17Z</time>
      </trkpt>
      <trkpt lat="46.20935" lon="6.48422">
        <ele>1281.953125</ele>
        <time>2021-08-21T14:12:30Z</time>
      </trkpt>
      <trkpt lat="46.20909" lon="6.48425">
        <ele>1288.28515625</ele>
        <time>2021-08-21T14:12:41Z</time>
      </trkpt>
      <trkpt lat="46.2089" lon="6.4843">
        <ele>1291.89453125</ele>
        <time>2021-08-21T14:12:50Z</time>
      </trkpt>
      <trkpt lat="46.20879" lon="6.48435">
        <ele>1292.9765625</ele>
        <time>2021-08-21T14:12:56Z</time>
      </trkpt>
      <trkpt lat="46.20877" lon="6.48437">
        <ele>1292.89453125</ele>
        <time>2021-08-21T14:12:57Z</time>
      </trkpt>
      <trkpt lat="46.20876" lon="6.48438">
        <ele>1293.0234375</ele>
        <time>2021-08-21T14:12:58Z</time>
      </trkpt>
      <trkpt lat="46.20853" lon="6.48457">
        <ele>1298.0546875</ele>
        <time>2021-08-21T14:13:10Z</time>
      </trkpt>
      <trkpt lat="46.20832" lon="6.48485">
        <ele>1302.9765625</ele>
        <time>2021-08-21T14:13:22Z</time>
      </trkpt>
      <trkpt lat="46.20813" lon="6.48514">
        <ele>1308.9453125</ele>
        <time>2021-08-21T14:13:33Z</time>
      </trkpt>
      <trkpt lat="46.20793" lon="6.48531">
        <ele>1313.55859375</ele>
        <time>2021-08-21T14:13:48Z</time>
      </trkpt>
      <trkpt lat="46.20791" lon="6.48531">
        <ele>1313.5859375</ele>
        <time>2021-08-21T14:13:49Z</time>
      </trkpt>
      <trkpt lat="46.20789" lon="6.48532">
        <ele>1313.765625</ele>
        <time>2021-08-21T14:13:50Z</time>
      </trkpt>
      <trkpt lat="46.20786" lon="6.48532">
        <ele>1313.94140625</ele>
        <time>2021-08-21T14:13:51Z</time>
      </trkpt>
      <trkpt lat="46.20784" lon="6.48532">
        <ele>1314</ele>
        <time>2021-08-21T14:13:52Z</time>
      </trkpt>
      <trkpt lat="46.20781" lon="6.48533">
        <ele>1314.21484375</ele>
        <time>2021-08-21T14:13:53Z</time>
      </trkpt>
      <trkpt lat="46.20746" lon="6.48519">
        <ele>1313.98046875</ele>
        <time>2021-08-21T14:14:08Z</time>
      </trkpt>
      <trkpt lat="46.20712" lon="6.48495">
        <ele>1310.92578125</ele>
        <time>2021-08-21T14:14:24Z</time>
      </trkpt>
      <trkpt lat="46.2069" lon="6.4847">
        <ele>1306.375</ele>
        <time>2021-08-21T14:14:37Z</time>
      </trkpt>
      <trkpt lat="46.20674" lon="6.48442">
        <ele>1303.58203125</ele>
        <time>2021-08-21T14:14:51Z</time>
      </trkpt>
      <trkpt lat="46.20668" lon="6.48407">
        <ele>1305.1328125</ele>
        <time>2021-08-21T14:15:04Z</time>
      </trkpt>
      <trkpt lat="46.20677" lon="6.48372">
        <ele>1311.078125</ele>
        <time>2021-08-21T14:15:15Z</time>
      </trkpt>
      <trkpt lat="46.20709" lon="6.48344">
        <ele>1318.59765625</ele>
        <time>2021-08-21T14:15:29Z</time>
      </trkpt>
      <trkpt lat="46.20736" lon="6.48347">
        <ele>1320.81640625</ele>
        <time>2021-08-21T14:15:40Z</time>
      </trkpt>
      <trkpt lat="46.20768" lon="6.48351">
        <ele>1322.60546875</ele>
        <time>2021-08-21T14:15:54Z</time>
      </trkpt>
      <trkpt lat="46.20794" lon="6.48364">
        <ele>1321.7578125</ele>
        <time>2021-08-21T14:16:07Z</time>
      </trkpt>
      <trkpt lat="46.20823" lon="6.48367">
        <ele>1320.62109375</ele>
        <time>2021-08-21T14:16:19Z</time>
      </trkpt>
      <trkpt lat="46.20834" lon="6.48331">
        <ele>1328.50390625</ele>
        <time>2021-08-21T14:16:31Z</time>
      </trkpt>
      <trkpt lat="46.20817" lon="6.48282">
        <ele>1337.3984375</ele>
        <time>2021-08-21T14:16:45Z</time>
      </trkpt>
      <trkpt lat="46.20804" lon="6.48275">
        <ele>1339.5859375</ele>
        <time>2021-08-21T14:16:51Z</time>
      </trkpt>
      <trkpt lat="46.20774" lon="6.48272">
        <ele>1338.62890625</ele>
        <time>2021-08-21T14:17:04Z</time>
      </trkpt>
      <trkpt lat="46.20742" lon="6.48263">
        <ele>1337.27734375</ele>
        <time>2021-08-21T14:17:18Z</time>
      </trkpt>
      <trkpt lat="46.2072" lon="6.48243">
        <ele>1337.09375</ele>
        <time>2021-08-21T14:17:29Z</time>
      </trkpt>
      <trkpt lat="46.20705" lon="6.48206">
        <ele>1342.1015625</ele>
        <time>2021-08-21T14:17:42Z</time>
      </trkpt>
      <trkpt lat="46.20699" lon="6.48165">
        <ele>1349.21484375</ele>
        <time>2021-08-21T14:17:54Z</time>
      </trkpt>
      <trkpt lat="46.20689" lon="6.4813">
        <ele>1353.27734375</ele>
        <time>2021-08-21T14:18:05Z</time>
      </trkpt>
      <trkpt lat="46.20674" lon="6.48104">
        <ele>1355.203125</ele>
        <time>2021-08-21T14:18:15Z</time>
      </trkpt>
      <trkpt lat="46.2065" lon="6.48076">
        <ele>1355.5859375</ele>
        <time>2021-08-21T14:18:28Z</time>
      </trkpt>
      <trkpt lat="46.20627" lon="6.4805">
        <ele>1356.42578125</ele>
        <time>2021-08-21T14:18:42Z</time>
      </trkpt>
      <trkpt lat="46.20601" lon="6.48023">
        <ele>1357.7890625</ele>
        <time>2021-08-21T14:18:57Z</time>
      </trkpt>
      <trkpt lat="46.20586" lon="6.47986">
        <ele>1363.09375</ele>
        <time>2021-08-21T14:19:11Z</time>
      </trkpt>
      <trkpt lat="46.20585" lon="6.47983">
        <ele>1363.6640625</ele>
        <time>2021-08-21T14:19:12Z</time>
      </trkpt>
      <trkpt lat="46.20577" lon="6.47948">
        <ele>1370.96484375</ele>
        <time>2021-08-21T14:19:24Z</time>
      </trkpt>
      <trkpt lat="46.20569" lon="6.47906">
        <ele>1379.69140625</ele>
        <time>2021-08-21T14:19:38Z</time>
      </trkpt>
      <trkpt lat="46.20567" lon="6.47895">
        <ele>1381.76953125</ele>
        <time>2021-08-21T14:19:42Z</time>
      </trkpt>
      <trkpt lat="46.20562" lon="6.47857">
        <ele>1388.16796875</ele>
        <time>2021-08-21T14:19:55Z</time>
      </trkpt>
      <trkpt lat="46.20559" lon="6.47806">
        <ele>1394.9921875</ele>
        <time>2021-08-21T14:20:10Z</time>
      </trkpt>
      <trkpt lat="46.20563" lon="6.47761">
        <ele>1397.9296875</ele>
        <time>2021-08-21T14:20:23Z</time>
      </trkpt>
      <trkpt lat="46.20567" lon="6.47741">
        <ele>1398.63671875</ele>
        <time>2021-08-21T14:20:30Z</time>
      </trkpt>
      <trkpt lat="46.20566" lon="6.47741">
        <ele>1398.734375</ele>
        <time>2021-08-21T14:20:31Z</time>
      </trkpt>
      <trkpt lat="46.20564" lon="6.47748">
        <ele>1398.51953125</ele>
        <time>2021-08-21T14:20:34Z</time>
      </trkpt>
      <trkpt lat="46.20564" lon="6.47751">
        <ele>1398.35546875</ele>
        <time>2021-08-21T14:20:35Z</time>
      </trkpt>
      <trkpt lat="46.20564" lon="6.47755">
        <ele>1398.17578125</ele>
        <time>2021-08-21T14:20:36Z</time>
      </trkpt>
      <trkpt lat="46.20564" lon="6.47759">
        <ele>1397.984375</ele>
        <time>2021-08-21T14:20:37Z</time>
      </trkpt>
      <trkpt lat="46.20563" lon="6.47764">
        <ele>1397.7734375</ele>
        <time>2021-08-21T14:20:38Z</time>
      </trkpt>
      <trkpt lat="46.20563" lon="6.47768">
        <ele>1397.546875</ele>
        <time>2021-08-21T14:20:39Z</time>
      </trkpt>
      <trkpt lat="46.20564" lon="6.4778">
        <ele>1396.74609375</ele>
        <time>2021-08-21T14:20:42Z</time>
      </trkpt>
      <trkpt lat="46.20565" lon="6.47783">
        <ele>1396.515625</ele>
        <time>2021-08-21T14:20:43Z</time>
      </trkpt>
      <trkpt lat="46.20569" lon="6.47783">
        <ele>1396.34375</ele>
        <time>2021-08-21T14:20:53Z</time>
      </trkpt>
      <trkpt lat="46.2057" lon="6.47782">
        <ele>1396.39453125</ele>
        <time>2021-08-21T14:21:06Z</time>
      </trkpt>
      <trkpt lat="46.20571" lon="6.47781">
        <ele>1396.43359375</ele>
        <time>2021-08-21T14:21:07Z</time>
      </trkpt>
      <trkpt lat="46.20572" lon="6.4778">
        <ele>1396.51171875</ele>
        <time>2021-08-21T14:21:08Z</time>
      </trkpt>
      <trkpt lat="46.20573" lon="6.47778">
        <ele>1396.59765625</ele>
        <time>2021-08-21T14:21:09Z</time>
      </trkpt>
      <trkpt lat="46.20575" lon="6.47775">
        <ele>1396.75</ele>
        <time>2021-08-21T14:21:10Z</time>
      </trkpt>
      <trkpt lat="46.20576" lon="6.47773">
        <ele>1396.93359375</ele>
        <time>2021-08-21T14:21:11Z</time>
      </trkpt>
      <trkpt lat="46.20576" lon="6.4777">
        <ele>1397.0625</ele>
        <time>2021-08-21T14:21:12Z</time>
      </trkpt>
      <trkpt lat="46.20577" lon="6.47768">
        <ele>1397.15625</ele>
        <time>2021-08-21T14:21:13Z</time>
      </trkpt>
      <trkpt lat="46.20584" lon="6.47748">
        <ele>1397.84765625</ele>
        <time>2021-08-21T14:21:20Z</time>
      </trkpt>
      <trkpt lat="46.2059" lon="6.47714">
        <ele>1399.44140625</ele>
        <time>2021-08-21T14:21:31Z</time>
      </trkpt>
      <trkpt lat="46.20601" lon="6.47676">
        <ele>1400.0078125</ele>
        <time>2021-08-21T14:21:43Z</time>
      </trkpt>
      <trkpt lat="46.20617" lon="6.47628">
        <ele>1402.3046875</ele>
        <time>2021-08-21T14:21:59Z</time>
      </trkpt>
      <trkpt lat="46.20634" lon="6.4759">
        <ele>1404.796875</ele>
        <time>2021-08-21T14:22:14Z</time>
      </trkpt>
      <trkpt lat="46.20656" lon="6.47564">
        <ele>1407.8125</ele>
        <time>2021-08-21T14:22:28Z</time>
      </trkpt>
      <trkpt lat="46.20666" lon="6.47548">
        <ele>1409.125</ele>
        <time>2021-08-21T14:22:36Z</time>
      </trkpt>
      <trkpt lat="46.20668" lon="6.47544">
        <ele>1409.484375</ele>
        <time>2021-08-21T14:22:38Z</time>
      </trkpt>
      <trkpt lat="46.2067" lon="6.47544">
        <ele>1410.0078125</ele>
        <time>2021-08-21T14:22:39Z</time>
      </trkpt>
      <trkpt lat="46.20672" lon="6.47545">
        <ele>1410.5546875</ele>
        <time>2021-08-21T14:22:40Z</time>
      </trkpt>
      <trkpt lat="46.20674" lon="6.47546">
        <ele>1411.07421875</ele>
        <time>2021-08-21T14:22:41Z</time>
      </trkpt>
      <trkpt lat="46.20675" lon="6.47548">
        <ele>1411.58203125</ele>
        <time>2021-08-21T14:22:42Z</time>
      </trkpt>
      <trkpt lat="46.20677" lon="6.4755">
        <ele>1412.05078125</ele>
        <time>2021-08-21T14:22:43Z</time>
      </trkpt>
      <trkpt lat="46.20678" lon="6.47552">
        <ele>1412.4921875</ele>
        <time>2021-08-21T14:22:44Z</time>
      </trkpt>
      <trkpt lat="46.20684" lon="6.47559">
        <ele>1414.12109375</ele>
        <time>2021-08-21T14:22:48Z</time>
      </trkpt>
      <trkpt lat="46.20689" lon="6.47578">
        <ele>1415.77734375</ele>
        <time>2021-08-21T14:22:55Z</time>
      </trkpt>
      <trkpt lat="46.20693" lon="6.47599">
        <ele>1416.5546875</ele>
        <time>2021-08-21T14:23:03Z</time>
      </trkpt>
      <trkpt lat="46.20693" lon="6.4761">
        <ele>1416.51953125</ele>
        <time>2021-08-21T14:23:07Z</time>
      </trkpt>
      <trkpt lat="46.20693" lon="6.47612">
        <ele>1416.51171875</ele>
        <time>2021-08-21T14:23:08Z</time>
      </trkpt>
      <trkpt lat="46.20693" lon="6.47615">
        <ele>1416.46484375</ele>
        <time>2021-08-21T14:23:09Z</time>
      </trkpt>
      <trkpt lat="46.20693" lon="6.47617">
        <ele>1416.421875</ele>
        <time>2021-08-21T14:23:10Z</time>
      </trkpt>
      <trkpt lat="46.20692" lon="6.4762">
        <ele>1416.35546875</ele>
        <time>2021-08-21T14:23:11Z</time>
      </trkpt>
      <trkpt lat="46.20692" lon="6.47622">
        <ele>1416.2734375</ele>
        <time>2021-08-21T14:23:12Z</time>
      </trkpt>
      <trkpt lat="46.20691" lon="6.47625">
        <ele>1416.19921875</ele>
        <time>2021-08-21T14:23:13Z</time>
      </trkpt>
      <trkpt lat="46.20691" lon="6.47628">
        <ele>1416.171875</ele>
        <time>2021-08-21T14:23:14Z</time>
      </trkpt>
      <trkpt lat="46.20691" lon="6.4763">
        <ele>1416.17578125</ele>
        <time>2021-08-21T14:23:15Z</time>
      </trkpt>
      <trkpt lat="46.20691" lon="6.47653">
        <ele>1415.34765625</ele>
        <time>2021-08-21T14:23:24Z</time>
      </trkpt>
      <trkpt lat="46.20694" lon="6.47676">
        <ele>1415.16796875</ele>
        <time>2021-08-21T14:23:37Z</time>
      </trkpt>
      <trkpt lat="46.20691" lon="6.47674">
        <ele>1414.578125</ele>
        <time>2021-08-21T14:23:50Z</time>
      </trkpt>
      <trkpt lat="46.20691" lon="6.47673">
        <ele>1414.7265625</ele>
        <time>2021-08-21T14:24:15Z</time>
      </trkpt>
      <trkpt lat="46.2069" lon="6.47674">
        <ele>1414.546875</ele>
        <time>2021-08-21T14:25:06Z</time>
      </trkpt>
      <trkpt lat="46.2069" lon="6.47675">
        <ele>1414.51171875</ele>
        <time>2021-08-21T14:25:52Z</time>
      </trkpt>
      <trkpt lat="46.2069" lon="6.47676">
        <ele>1414.48828125</ele>
        <time>2021-08-21T14:26:39Z</time>
      </trkpt>
      <trkpt lat="46.20689" lon="6.47674">
        <ele>1414.36328125</ele>
        <time>2021-08-21T14:27:25Z</time>
      </trkpt>
      <trkpt lat="46.20691" lon="6.47668">
        <ele>1414.8515625</ele>
        <time>2021-08-21T14:27:39Z</time>
      </trkpt>
      <trkpt lat="46.20692" lon="6.47667">
        <ele>1415.03515625</ele>
        <time>2021-08-21T14:27:40Z</time>
      </trkpt>
      <trkpt lat="46.20693" lon="6.47666">
        <ele>1415.3203125</ele>
        <time>2021-08-21T14:27:41Z</time>
      </trkpt>
      <trkpt lat="46.20714" lon="6.47653">
        <ele>1419.67578125</ele>
        <time>2021-08-21T14:27:53Z</time>
      </trkpt>
      <trkpt lat="46.20729" lon="6.47625">
        <ele>1422.921875</ele>
        <time>2021-08-21T14:28:04Z</time>
      </trkpt>
      <trkpt lat="46.20713" lon="6.47611">
        <ele>1420.01953125</ele>
        <time>2021-08-21T14:28:11Z</time>
      </trkpt>
      <trkpt lat="46.20707" lon="6.47606">
        <ele>1419.046875</ele>
        <time>2021-08-21T14:28:13Z</time>
      </trkpt>
      <trkpt lat="46.20698" lon="6.47598">
        <ele>1417.4453125</ele>
        <time>2021-08-21T14:28:16Z</time>
      </trkpt>
      <trkpt lat="46.20693" lon="6.47589">
        <ele>1416.58203125</ele>
        <time>2021-08-21T14:28:19Z</time>
      </trkpt>
      <trkpt lat="46.20692" lon="6.47586">
        <ele>1416.2734375</ele>
        <time>2021-08-21T14:28:20Z</time>
      </trkpt>
      <trkpt lat="46.20683" lon="6.47562">
        <ele>1414.12890625</ele>
        <time>2021-08-21T14:28:25Z</time>
      </trkpt>
      <trkpt lat="46.20678" lon="6.47548">
        <ele>1412.359375</ele>
        <time>2021-08-21T14:28:28Z</time>
      </trkpt>
      <trkpt lat="46.20675" lon="6.47545">
        <ele>1411.4296875</ele>
        <time>2021-08-21T14:28:29Z</time>
      </trkpt>
      <trkpt lat="46.20671" lon="6.47543">
        <ele>1410.40625</ele>
        <time>2021-08-21T14:28:30Z</time>
      </trkpt>
      <trkpt lat="46.20667" lon="6.47543">
        <ele>1409.23828125</ele>
        <time>2021-08-21T14:28:31Z</time>
      </trkpt>
      <trkpt lat="46.20662" lon="6.47542">
        <ele>1407.98046875</ele>
        <time>2021-08-21T14:28:32Z</time>
      </trkpt>
      <trkpt lat="46.20651" lon="6.47539">
        <ele>1405.8671875</ele>
        <time>2021-08-21T14:28:35Z</time>
      </trkpt>
      <trkpt lat="46.20647" lon="6.47535">
        <ele>1405.28125</ele>
        <time>2021-08-21T14:28:36Z</time>
      </trkpt>
      <trkpt lat="46.20644" lon="6.47531">
        <ele>1404.75390625</ele>
        <time>2021-08-21T14:28:37Z</time>
      </trkpt>
      <trkpt lat="46.20641" lon="6.47526">
        <ele>1404.3359375</ele>
        <time>2021-08-21T14:28:38Z</time>
      </trkpt>
      <trkpt lat="46.20639" lon="6.4752">
        <ele>1404.0234375</ele>
        <time>2021-08-21T14:28:39Z</time>
      </trkpt>
      <trkpt lat="46.20634" lon="6.47508">
        <ele>1403.47265625</ele>
        <time>2021-08-21T14:28:41Z</time>
      </trkpt>
      <trkpt lat="46.20633" lon="6.47502">
        <ele>1403.29296875</ele>
        <time>2021-08-21T14:28:42Z</time>
      </trkpt>
      <trkpt lat="46.2063" lon="6.47495">
        <ele>1403.09375</ele>
        <time>2021-08-21T14:28:43Z</time>
      </trkpt>
      <trkpt lat="46.20627" lon="6.47487">
        <ele>1403.25</ele>
        <time>2021-08-21T14:28:44Z</time>
      </trkpt>
      <trkpt lat="46.20623" lon="6.47482">
        <ele>1403.46484375</ele>
        <time>2021-08-21T14:28:45Z</time>
      </trkpt>
      <trkpt lat="46.20618" lon="6.47477">
        <ele>1403.61328125</ele>
        <time>2021-08-21T14:28:46Z</time>
      </trkpt>
      <trkpt lat="46.20612" lon="6.47474">
        <ele>1403.7421875</ele>
        <time>2021-08-21T14:28:47Z</time>
      </trkpt>
      <trkpt lat="46.20608" lon="6.47471">
        <ele>1403.85546875</ele>
        <time>2021-08-21T14:28:48Z</time>
      </trkpt>
      <trkpt lat="46.20604" lon="6.47468">
        <ele>1403.93359375</ele>
        <time>2021-08-21T14:28:49Z</time>
      </trkpt>
      <trkpt lat="46.206" lon="6.47467">
        <ele>1404.265625</ele>
        <time>2021-08-21T14:28:50Z</time>
      </trkpt>
      <trkpt lat="46.20596" lon="6.47467">
        <ele>1404.921875</ele>
        <time>2021-08-21T14:28:51Z</time>
      </trkpt>
      <trkpt lat="46.20593" lon="6.47466">
        <ele>1405.5859375</ele>
        <time>2021-08-21T14:28:52Z</time>
      </trkpt>
      <trkpt lat="46.20589" lon="6.47466">
        <ele>1406.28125</ele>
        <time>2021-08-21T14:28:53Z</time>
      </trkpt>
      <trkpt lat="46.20585" lon="6.47465">
        <ele>1406.8984375</ele>
        <time>2021-08-21T14:28:54Z</time>
      </trkpt>
      <trkpt lat="46.20576" lon="6.47459">
        <ele>1408.65234375</ele>
        <time>2021-08-21T14:28:57Z</time>
      </trkpt>
      <trkpt lat="46.20555" lon="6.47408">
        <ele>1411.296875</ele>
        <time>2021-08-21T14:29:11Z</time>
      </trkpt>
      <trkpt lat="46.20552" lon="6.47402">
        <ele>1411.35546875</ele>
        <time>2021-08-21T14:29:13Z</time>
      </trkpt>
      <trkpt lat="46.20553" lon="6.47398">
        <ele>1411.28125</ele>
        <time>2021-08-21T14:29:14Z</time>
      </trkpt>
      <trkpt lat="46.20549" lon="6.47356">
        <ele>1410.875</ele>
        <time>2021-08-21T14:29:27Z</time>
      </trkpt>
      <trkpt lat="46.20551" lon="6.47349">
        <ele>1410.62109375</ele>
        <time>2021-08-21T14:29:30Z</time>
      </trkpt>
      <trkpt lat="46.20555" lon="6.47351">
        <ele>1410.5703125</ele>
        <time>2021-08-21T14:29:39Z</time>
      </trkpt>
      <trkpt lat="46.20553" lon="6.47349">
        <ele>1410.5625</ele>
        <time>2021-08-21T14:29:43Z</time>
      </trkpt>
      <trkpt lat="46.20551" lon="6.47334">
        <ele>1410.171875</ele>
        <time>2021-08-21T14:29:54Z</time>
      </trkpt>
      <trkpt lat="46.2055" lon="6.47332">
        <ele>1410.1328125</ele>
        <time>2021-08-21T14:29:55Z</time>
      </trkpt>
      <trkpt lat="46.20553" lon="6.47328">
        <ele>1409.9921875</ele>
        <time>2021-08-21T14:30:03Z</time>
      </trkpt>
      <trkpt lat="46.20552" lon="6.47327">
        <ele>1409.97265625</ele>
        <time>2021-08-21T14:30:15Z</time>
      </trkpt>
      <trkpt lat="46.20552" lon="6.47327">
        <ele>1409.98828125</ele>
        <time>2021-08-21T14:30:31Z</time>
      </trkpt>
      <trkpt lat="46.20528" lon="6.47316">
        <ele>1408.65625</ele>
        <time>2021-08-21T14:30:44Z</time>
      </trkpt>
      <trkpt lat="46.20508" lon="6.47339">
        <ele>1408.8828125</ele>
        <time>2021-08-21T14:30:54Z</time>
      </trkpt>
      <trkpt lat="46.20508" lon="6.47346">
        <ele>1409.4375</ele>
        <time>2021-08-21T14:30:56Z</time>
      </trkpt>
      <trkpt lat="46.20506" lon="6.47348">
        <ele>1409.48828125</ele>
        <time>2021-08-21T14:30:57Z</time>
      </trkpt>
      <trkpt lat="46.20503" lon="6.47351">
        <ele>1409.50390625</ele>
        <time>2021-08-21T14:31:08Z</time>
      </trkpt>
      <trkpt lat="46.20505" lon="6.47351">
        <ele>1409.63671875</ele>
        <time>2021-08-21T14:31:45Z</time>
      </trkpt>
      <trkpt lat="46.20507" lon="6.47352">
        <ele>1409.8359375</ele>
        <time>2021-08-21T14:31:55Z</time>
      </trkpt>
      <trkpt lat="46.20511" lon="6.47351">
        <ele>1410.1328125</ele>
        <time>2021-08-21T14:31:58Z</time>
      </trkpt>
      <trkpt lat="46.20513" lon="6.47353">
        <ele>1410.46484375</ele>
        <time>2021-08-21T14:31:59Z</time>
      </trkpt>
      <trkpt lat="46.20514" lon="6.47357">
        <ele>1410.82421875</ele>
        <time>2021-08-21T14:32:00Z</time>
      </trkpt>
      <trkpt lat="46.20515" lon="6.47361">
        <ele>1411.16796875</ele>
        <time>2021-08-21T14:32:01Z</time>
      </trkpt>
      <trkpt lat="46.20516" lon="6.47365">
        <ele>1411.515625</ele>
        <time>2021-08-21T14:32:02Z</time>
      </trkpt>
      <trkpt lat="46.20517" lon="6.47369">
        <ele>1411.87890625</ele>
        <time>2021-08-21T14:32:03Z</time>
      </trkpt>
      <trkpt lat="46.20519" lon="6.47372">
        <ele>1412.1796875</ele>
        <time>2021-08-21T14:32:04Z</time>
      </trkpt>
      <trkpt lat="46.20536" lon="6.47412">
        <ele>1413.13671875</ele>
        <time>2021-08-21T14:32:16Z</time>
      </trkpt>
      <trkpt lat="46.20541" lon="6.47428">
        <ele>1413.85546875</ele>
        <time>2021-08-21T14:32:20Z</time>
      </trkpt>
      <trkpt lat="46.20543" lon="6.47434">
        <ele>1414.078125</ele>
        <time>2021-08-21T14:32:21Z</time>
      </trkpt>
      <trkpt lat="46.2057" lon="6.47509">
        <ele>1408.17578125</ele>
        <time>2021-08-21T14:32:30Z</time>
      </trkpt>
      <trkpt lat="46.2058" lon="6.47566">
        <ele>1403.95703125</ele>
        <time>2021-08-21T14:32:36Z</time>
      </trkpt>
      <trkpt lat="46.2058" lon="6.47572">
        <ele>1403.640625</ele>
        <time>2021-08-21T14:32:37Z</time>
      </trkpt>
      <trkpt lat="46.20579" lon="6.47584">
        <ele>1403.125</ele>
        <time>2021-08-21T14:32:39Z</time>
      </trkpt>
      <trkpt lat="46.20571" lon="6.47665">
        <ele>1401.05859375</ele>
        <time>2021-08-21T14:32:48Z</time>
      </trkpt>
      <trkpt lat="46.20568" lon="6.477">
        <ele>1400.296875</ele>
        <time>2021-08-21T14:32:51Z</time>
      </trkpt>
      <trkpt lat="46.20564" lon="6.47767">
        <ele>1397.59375</ele>
        <time>2021-08-21T14:32:57Z</time>
      </trkpt>
      <trkpt lat="46.20561" lon="6.47789">
        <ele>1396.22265625</ele>
        <time>2021-08-21T14:32:59Z</time>
      </trkpt>
      <trkpt lat="46.20563" lon="6.47865">
        <ele>1386.8203125</ele>
        <time>2021-08-21T14:33:05Z</time>
      </trkpt>
      <trkpt lat="46.20569" lon="6.47902">
        <ele>1380.44921875</ele>
        <time>2021-08-21T14:33:08Z</time>
      </trkpt>
      <trkpt lat="46.20575" lon="6.47937">
        <ele>1373.39453125</ele>
        <time>2021-08-21T14:33:12Z</time>
      </trkpt>
      <trkpt lat="46.20575" lon="6.47941">
        <ele>1372.62109375</ele>
        <time>2021-08-21T14:33:13Z</time>
      </trkpt>
      <trkpt lat="46.20574" lon="6.47942">
        <ele>1372.109375</ele>
        <time>2021-08-21T14:33:14Z</time>
      </trkpt>
      <trkpt lat="46.20572" lon="6.47942">
        <ele>1372.0703125</ele>
        <time>2021-08-21T14:33:15Z</time>
      </trkpt>
      <trkpt lat="46.2057" lon="6.47939">
        <ele>1372.5234375</ele>
        <time>2021-08-21T14:33:16Z</time>
      </trkpt>
      <trkpt lat="46.20565" lon="6.47931">
        <ele>1374.078125</ele>
        <time>2021-08-21T14:33:18Z</time>
      </trkpt>
      <trkpt lat="46.20562" lon="6.47928">
        <ele>1374.6640625</ele>
        <time>2021-08-21T14:33:19Z</time>
      </trkpt>
      <trkpt lat="46.20558" lon="6.47926">
        <ele>1374.87109375</ele>
        <time>2021-08-21T14:33:20Z</time>
      </trkpt>
      <trkpt lat="46.20554" lon="6.47925">
        <ele>1374.80078125</ele>
        <time>2021-08-21T14:33:21Z</time>
      </trkpt>
      <trkpt lat="46.20551" lon="6.47926">
        <ele>1374.49609375</ele>
        <time>2021-08-21T14:33:22Z</time>
      </trkpt>
      <trkpt lat="46.20547" lon="6.47926">
        <ele>1374.15625</ele>
        <time>2021-08-21T14:33:23Z</time>
      </trkpt>
      <trkpt lat="46.20534" lon="6.47927">
        <ele>1374.33984375</ele>
        <time>2021-08-21T14:33:26Z</time>
      </trkpt>
      <trkpt lat="46.20529" lon="6.47928">
        <ele>1374.3828125</ele>
        <time>2021-08-21T14:33:27Z</time>
      </trkpt>
      <trkpt lat="46.20461" lon="6.47936">
        <ele>1377.921875</ele>
        <time>2021-08-21T14:33:41Z</time>
      </trkpt>
      <trkpt lat="46.2045" lon="6.47935">
        <ele>1379.578125</ele>
        <time>2021-08-21T14:33:43Z</time>
      </trkpt>
      <trkpt lat="46.20444" lon="6.47937">
        <ele>1380.078125</ele>
        <time>2021-08-21T14:33:44Z</time>
      </trkpt>
      <trkpt lat="46.20438" lon="6.4794">
        <ele>1380.32421875</ele>
        <time>2021-08-21T14:33:45Z</time>
      </trkpt>
      <trkpt lat="46.20434" lon="6.47943">
        <ele>1380.44140625</ele>
        <time>2021-08-21T14:33:46Z</time>
      </trkpt>
      <trkpt lat="46.2043" lon="6.47947">
        <ele>1380.35546875</ele>
        <time>2021-08-21T14:33:47Z</time>
      </trkpt>
      <trkpt lat="46.20426" lon="6.47952">
        <ele>1380.18359375</ele>
        <time>2021-08-21T14:33:48Z</time>
      </trkpt>
      <trkpt lat="46.20424" lon="6.47956">
        <ele>1379.96875</ele>
        <time>2021-08-21T14:33:49Z</time>
      </trkpt>
      <trkpt lat="46.20422" lon="6.4796">
        <ele>1379.6875</ele>
        <time>2021-08-21T14:33:50Z</time>
      </trkpt>
      <trkpt lat="46.20419" lon="6.47965">
        <ele>1379.40625</ele>
        <time>2021-08-21T14:33:51Z</time>
      </trkpt>
      <trkpt lat="46.20416" lon="6.4797">
        <ele>1379.328125</ele>
        <time>2021-08-21T14:33:52Z</time>
      </trkpt>
      <trkpt lat="46.20412" lon="6.47973">
        <ele>1379.48046875</ele>
        <time>2021-08-21T14:33:53Z</time>
      </trkpt>
      <trkpt lat="46.20408" lon="6.47976">
        <ele>1379.8125</ele>
        <time>2021-08-21T14:33:54Z</time>
      </trkpt>
      <trkpt lat="46.20399" lon="6.47981">
        <ele>1379.66796875</ele>
        <time>2021-08-21T14:33:56Z</time>
      </trkpt>
      <trkpt lat="46.20394" lon="6.47982">
        <ele>1379.7265625</ele>
        <time>2021-08-21T14:33:57Z</time>
      </trkpt>
      <trkpt lat="46.2039" lon="6.47982">
        <ele>1379.87109375</ele>
        <time>2021-08-21T14:33:58Z</time>
      </trkpt>
      <trkpt lat="46.20387" lon="6.47981">
        <ele>1380.10546875</ele>
        <time>2021-08-21T14:33:59Z</time>
      </trkpt>
      <trkpt lat="46.20383" lon="6.4798">
        <ele>1380.42578125</ele>
        <time>2021-08-21T14:34:00Z</time>
      </trkpt>
      <trkpt lat="46.2038" lon="6.47977">
        <ele>1380.80078125</ele>
        <time>2021-08-21T14:34:01Z</time>
      </trkpt>
      <trkpt lat="46.20377" lon="6.47975">
        <ele>1381.07421875</ele>
        <time>2021-08-21T14:34:02Z</time>
      </trkpt>
      <trkpt lat="46.20364" lon="6.47969">
        <ele>1381.69140625</ele>
        <time>2021-08-21T14:34:11Z</time>
      </trkpt>
      <trkpt lat="46.20364" lon="6.47968">
        <ele>1381.83203125</ele>
        <time>2021-08-21T14:34:23Z</time>
      </trkpt>
      <trkpt lat="46.20363" lon="6.4797">
        <ele>1381.5859375</ele>
        <time>2021-08-21T14:34:31Z</time>
      </trkpt>
      <trkpt lat="46.20362" lon="6.47972">
        <ele>1381.30078125</ele>
        <time>2021-08-21T14:34:32Z</time>
      </trkpt>
      <trkpt lat="46.2036" lon="6.47975">
        <ele>1380.84765625</ele>
        <time>2021-08-21T14:34:33Z</time>
      </trkpt>
      <trkpt lat="46.20358" lon="6.47978">
        <ele>1380.35546875</ele>
        <time>2021-08-21T14:34:34Z</time>
      </trkpt>
      <trkpt lat="46.20355" lon="6.4798">
        <ele>1380.02734375</ele>
        <time>2021-08-21T14:34:35Z</time>
      </trkpt>
      <trkpt lat="46.20352" lon="6.47981">
        <ele>1379.953125</ele>
        <time>2021-08-21T14:34:36Z</time>
      </trkpt>
      <trkpt lat="46.20348" lon="6.47979">
        <ele>1379.99609375</ele>
        <time>2021-08-21T14:34:37Z</time>
      </trkpt>
      <trkpt lat="46.20345" lon="6.47978">
        <ele>1380.10546875</ele>
        <time>2021-08-21T14:34:38Z</time>
      </trkpt>
      <trkpt lat="46.20319" lon="6.47989">
        <ele>1376.91796875</ele>
        <time>2021-08-21T14:34:48Z</time>
      </trkpt>
      <trkpt lat="46.20318" lon="6.47988">
        <ele>1377.12109375</ele>
        <time>2021-08-21T14:34:55Z</time>
      </trkpt>
      <trkpt lat="46.20316" lon="6.47986">
        <ele>1377.359375</ele>
        <time>2021-08-21T14:34:56Z</time>
      </trkpt>
      <trkpt lat="46.20313" lon="6.47981">
        <ele>1378.28515625</ele>
        <time>2021-08-21T14:35:00Z</time>
      </trkpt>
      <trkpt lat="46.2031" lon="6.47978">
        <ele>1378.62890625</ele>
        <time>2021-08-21T14:35:05Z</time>
      </trkpt>
      <trkpt lat="46.20282" lon="6.47987">
        <ele>1375.67578125</ele>
        <time>2021-08-21T14:35:17Z</time>
      </trkpt>
      <trkpt lat="46.20268" lon="6.47987">
        <ele>1374.96484375</ele>
        <time>2021-08-21T14:35:22Z</time>
      </trkpt>
      <trkpt lat="46.20237" lon="6.48001">
        <ele>1369.86328125</ele>
        <time>2021-08-21T14:35:29Z</time>
      </trkpt>
      <trkpt lat="46.2022" lon="6.48018">
        <ele>1366.27734375</ele>
        <time>2021-08-21T14:35:34Z</time>
      </trkpt>
      <trkpt lat="46.20216" lon="6.48031">
        <ele>1364.31640625</ele>
        <time>2021-08-21T14:35:37Z</time>
      </trkpt>
      <trkpt lat="46.20217" lon="6.48049">
        <ele>1362.4140625</ele>
        <time>2021-08-21T14:35:42Z</time>
      </trkpt>
      <trkpt lat="46.20218" lon="6.48052">
        <ele>1362.07421875</ele>
        <time>2021-08-21T14:35:43Z</time>
      </trkpt>
      <trkpt lat="46.20221" lon="6.4806">
        <ele>1361.35546875</ele>
        <time>2021-08-21T14:35:45Z</time>
      </trkpt>
      <trkpt lat="46.20224" lon="6.48063">
        <ele>1361.18359375</ele>
        <time>2021-08-21T14:35:46Z</time>
      </trkpt>
      <trkpt lat="46.2023" lon="6.48069">
        <ele>1360.7578125</ele>
        <time>2021-08-21T14:35:48Z</time>
      </trkpt>
      <trkpt lat="46.20234" lon="6.48071">
        <ele>1360.6171875</ele>
        <time>2021-08-21T14:35:49Z</time>
      </trkpt>
      <trkpt lat="46.20237" lon="6.48073">
        <ele>1360.44140625</ele>
        <time>2021-08-21T14:35:50Z</time>
      </trkpt>
      <trkpt lat="46.20244" lon="6.48084">
        <ele>1358.6484375</ele>
        <time>2021-08-21T14:35:54Z</time>
      </trkpt>
      <trkpt lat="46.20244" lon="6.48087">
        <ele>1358.03125</ele>
        <time>2021-08-21T14:35:55Z</time>
      </trkpt>
      <trkpt lat="46.20244" lon="6.48091">
        <ele>1357.4453125</ele>
        <time>2021-08-21T14:35:56Z</time>
      </trkpt>
      <trkpt lat="46.20244" lon="6.48094">
        <ele>1356.8359375</ele>
        <time>2021-08-21T14:35:57Z</time>
      </trkpt>
      <trkpt lat="46.20243" lon="6.48098">
        <ele>1356.21484375</ele>
        <time>2021-08-21T14:35:58Z</time>
      </trkpt>
      <trkpt lat="46.20239" lon="6.48119">
        <ele>1352.5234375</ele>
        <time>2021-08-21T14:36:03Z</time>
      </trkpt>
      <trkpt lat="46.2024" lon="6.48122">
        <ele>1352.03515625</ele>
        <time>2021-08-21T14:36:15Z</time>
      </trkpt>
      <trkpt lat="46.20238" lon="6.48125">
        <ele>1351.55859375</ele>
        <time>2021-08-21T14:36:28Z</time>
      </trkpt>
      <trkpt lat="46.20237" lon="6.48127">
        <ele>1351.16015625</ele>
        <time>2021-08-21T14:36:31Z</time>
      </trkpt>
      <trkpt lat="46.20236" lon="6.4813">
        <ele>1350.640625</ele>
        <time>2021-08-21T14:36:32Z</time>
      </trkpt>
      <trkpt lat="46.20223" lon="6.4815">
        <ele>1347.7578125</ele>
        <time>2021-08-21T14:36:40Z</time>
      </trkpt>
      <trkpt lat="46.20218" lon="6.48152">
        <ele>1347.484375</ele>
        <time>2021-08-21T14:36:41Z</time>
      </trkpt>
      <trkpt lat="46.20208" lon="6.48155">
        <ele>1346.8671875</ele>
        <time>2021-08-21T14:36:43Z</time>
      </trkpt>
      <trkpt lat="46.20196" lon="6.48162">
        <ele>1345.87890625</ele>
        <time>2021-08-21T14:36:45Z</time>
      </trkpt>
      <trkpt lat="46.20191" lon="6.48168">
        <ele>1345.14453125</ele>
        <time>2021-08-21T14:36:46Z</time>
      </trkpt>
      <trkpt lat="46.20188" lon="6.48176">
        <ele>1344.26953125</ele>
        <time>2021-08-21T14:36:47Z</time>
      </trkpt>
      <trkpt lat="46.20175" lon="6.48211">
        <ele>1340.34375</ele>
        <time>2021-08-21T14:36:51Z</time>
      </trkpt>
      <trkpt lat="46.20173" lon="6.48217">
        <ele>1339.98828125</ele>
        <time>2021-08-21T14:36:52Z</time>
      </trkpt>
      <trkpt lat="46.20169" lon="6.48221">
        <ele>1339.94140625</ele>
        <time>2021-08-21T14:36:53Z</time>
      </trkpt>
      <trkpt lat="46.20165" lon="6.48225">
        <ele>1340.0390625</ele>
        <time>2021-08-21T14:36:54Z</time>
      </trkpt>
      <trkpt lat="46.20161" lon="6.48229">
        <ele>1340.2421875</ele>
        <time>2021-08-21T14:36:55Z</time>
      </trkpt>
      <trkpt lat="46.20157" lon="6.48231">
        <ele>1340.5234375</ele>
        <time>2021-08-21T14:36:56Z</time>
      </trkpt>
      <trkpt lat="46.20154" lon="6.48233">
        <ele>1340.7890625</ele>
        <time>2021-08-21T14:36:57Z</time>
      </trkpt>
      <trkpt lat="46.2015" lon="6.48236">
        <ele>1341.09765625</ele>
        <time>2021-08-21T14:36:58Z</time>
      </trkpt>
      <trkpt lat="46.20134" lon="6.4825">
        <ele>1343.25</ele>
        <time>2021-08-21T14:37:03Z</time>
      </trkpt>
      <trkpt lat="46.20131" lon="6.4825">
        <ele>1343.5625</ele>
        <time>2021-08-21T14:37:04Z</time>
      </trkpt>
      <trkpt lat="46.20127" lon="6.48249">
        <ele>1343.65625</ele>
        <time>2021-08-21T14:37:05Z</time>
      </trkpt>
      <trkpt lat="46.20122" lon="6.48247">
        <ele>1343.62890625</ele>
        <time>2021-08-21T14:37:06Z</time>
      </trkpt>
      <trkpt lat="46.20105" lon="6.48237">
        <ele>1342.96875</ele>
        <time>2021-08-21T14:37:09Z</time>
      </trkpt>
      <trkpt lat="46.20099" lon="6.48233">
        <ele>1342.51953125</ele>
        <time>2021-08-21T14:37:10Z</time>
      </trkpt>
      <trkpt lat="46.20093" lon="6.48229">
        <ele>1341.83203125</ele>
        <time>2021-08-21T14:37:11Z</time>
      </trkpt>
      <trkpt lat="46.20081" lon="6.48219">
        <ele>1339.76953125</ele>
        <time>2021-08-21T14:37:13Z</time>
      </trkpt>
      <trkpt lat="46.20071" lon="6.48207">
        <ele>1337.40625</ele>
        <time>2021-08-21T14:37:15Z</time>
      </trkpt>
      <trkpt lat="46.20066" lon="6.48202">
        <ele>1336.3203125</ele>
        <time>2021-08-21T14:37:16Z</time>
      </trkpt>
      <trkpt lat="46.20057" lon="6.48192">
        <ele>1334.1953125</ele>
        <time>2021-08-21T14:37:18Z</time>
      </trkpt>
      <trkpt lat="46.20047" lon="6.48183">
        <ele>1332.4765625</ele>
        <time>2021-08-21T14:37:20Z</time>
      </trkpt>
      <trkpt lat="46.20042" lon="6.48179">
        <ele>1331.84765625</ele>
        <time>2021-08-21T14:37:21Z</time>
      </trkpt>
      <trkpt lat="46.20031" lon="6.48171">
        <ele>1330.421875</ele>
        <time>2021-08-21T14:37:23Z</time>
      </trkpt>
      <trkpt lat="46.20026" lon="6.48167">
        <ele>1329.59765625</ele>
        <time>2021-08-21T14:37:24Z</time>
      </trkpt>
      <trkpt lat="46.20002" lon="6.48147">
        <ele>1325.4296875</ele>
        <time>2021-08-21T14:37:28Z</time>
      </trkpt>
      <trkpt lat="46.19987" lon="6.48137">
        <ele>1322.75390625</ele>
        <time>2021-08-21T14:37:30Z</time>
      </trkpt>
      <trkpt lat="46.19978" lon="6.48134">
        <ele>1321.86328125</ele>
        <time>2021-08-21T14:37:31Z</time>
      </trkpt>
      <trkpt lat="46.19971" lon="6.48131">
        <ele>1321.078125</ele>
        <time>2021-08-21T14:37:32Z</time>
      </trkpt>
      <trkpt lat="46.19965" lon="6.48126">
        <ele>1320.171875</ele>
        <time>2021-08-21T14:37:33Z</time>
      </trkpt>
      <trkpt lat="46.19961" lon="6.48119">
        <ele>1319.01953125</ele>
        <time>2021-08-21T14:37:34Z</time>
      </trkpt>
      <trkpt lat="46.19958" lon="6.48111">
        <ele>1317.74609375</ele>
        <time>2021-08-21T14:37:35Z</time>
      </trkpt>
      <trkpt lat="46.19941" lon="6.48068">
        <ele>1313.43359375</ele>
        <time>2021-08-21T14:37:40Z</time>
      </trkpt>
      <trkpt lat="46.19936" lon="6.48055">
        <ele>1312.40625</ele>
        <time>2021-08-21T14:37:42Z</time>
      </trkpt>
      <trkpt lat="46.19934" lon="6.48047">
        <ele>1311.8046875</ele>
        <time>2021-08-21T14:37:43Z</time>
      </trkpt>
      <trkpt lat="46.19921" lon="6.47997">
        <ele>1308.65625</ele>
        <time>2021-08-21T14:37:51Z</time>
      </trkpt>
      <trkpt lat="46.19914" lon="6.47977">
        <ele>1307.16796875</ele>
        <time>2021-08-21T14:38:04Z</time>
      </trkpt>
      <trkpt lat="46.19914" lon="6.47978">
        <ele>1307.25390625</ele>
        <time>2021-08-21T14:38:32Z</time>
      </trkpt>
      <trkpt lat="46.19914" lon="6.47977">
        <ele>1307.125</ele>
        <time>2021-08-21T14:38:58Z</time>
      </trkpt>
      <trkpt lat="46.19915" lon="6.47977">
        <ele>1307.1796875</ele>
        <time>2021-08-21T14:39:27Z</time>
      </trkpt>
      <trkpt lat="46.19915" lon="6.47977">
        <ele>1307.19921875</ele>
        <time>2021-08-21T14:39:58Z</time>
      </trkpt>
      <trkpt lat="46.19914" lon="6.47977">
        <ele>1307.140625</ele>
        <time>2021-08-21T14:40:36Z</time>
      </trkpt>
      <trkpt lat="46.19915" lon="6.47976">
        <ele>1307.19921875</ele>
        <time>2021-08-21T14:40:59Z</time>
      </trkpt>
      <trkpt lat="46.19916" lon="6.47977">
        <ele>1307.23828125</ele>
        <time>2021-08-21T14:41:12Z</time>
      </trkpt>
      <trkpt lat="46.19916" lon="6.47977">
        <ele>1307.25</ele>
        <time>2021-08-21T14:41:48Z</time>
      </trkpt>
      <trkpt lat="46.19915" lon="6.47976">
        <ele>1307.1953125</ele>
        <time>2021-08-21T14:42:22Z</time>
      </trkpt>
      <trkpt lat="46.19917" lon="6.47977">
        <ele>1307.3125</ele>
        <time>2021-08-21T14:43:11Z</time>
      </trkpt>
      <trkpt lat="46.19916" lon="6.47977">
        <ele>1307.2734375</ele>
        <time>2021-08-21T14:43:46Z</time>
      </trkpt>
      <trkpt lat="46.19914" lon="6.47978">
        <ele>1307.2421875</ele>
        <time>2021-08-21T14:44:02Z</time>
      </trkpt>
      <trkpt lat="46.19914" lon="6.47978">
        <ele>1307.22265625</ele>
        <time>2021-08-21T14:44:28Z</time>
      </trkpt>
      <trkpt lat="46.19914" lon="6.47977">
        <ele>1307.16015625</ele>
        <time>2021-08-21T14:44:54Z</time>
      </trkpt>
      <trkpt lat="46.19912" lon="6.47975">
        <ele>1306.93359375</ele>
        <time>2021-08-21T14:45:18Z</time>
      </trkpt>
      <trkpt lat="46.19906" lon="6.47954">
        <ele>1305.46875</ele>
        <time>2021-08-21T14:45:26Z</time>
      </trkpt>
      <trkpt lat="46.199" lon="6.47941">
        <ele>1304.546875</ele>
        <time>2021-08-21T14:45:36Z</time>
      </trkpt>
      <trkpt lat="46.19895" lon="6.47931">
        <ele>1303.765625</ele>
        <time>2021-08-21T14:45:38Z</time>
      </trkpt>
      <trkpt lat="46.19894" lon="6.47925">
        <ele>1303.28515625</ele>
        <time>2021-08-21T14:45:39Z</time>
      </trkpt>
      <trkpt lat="46.19891" lon="6.47918">
        <ele>1302.67578125</ele>
        <time>2021-08-21T14:45:40Z</time>
      </trkpt>
      <trkpt lat="46.19875" lon="6.47888">
        <ele>1301.51171875</ele>
        <time>2021-08-21T14:45:44Z</time>
      </trkpt>
      <trkpt lat="46.19873" lon="6.4788">
        <ele>1301.60546875</ele>
        <time>2021-08-21T14:45:45Z</time>
      </trkpt>
      <trkpt lat="46.1987" lon="6.47872">
        <ele>1301.73828125</ele>
        <time>2021-08-21T14:45:46Z</time>
      </trkpt>
      <trkpt lat="46.19868" lon="6.47865">
        <ele>1301.8359375</ele>
        <time>2021-08-21T14:45:47Z</time>
      </trkpt>
      <trkpt lat="46.19865" lon="6.47859">
        <ele>1301.80859375</ele>
        <time>2021-08-21T14:45:48Z</time>
      </trkpt>
      <trkpt lat="46.1986" lon="6.47854">
        <ele>1301.65234375</ele>
        <time>2021-08-21T14:45:49Z</time>
      </trkpt>
      <trkpt lat="46.19854" lon="6.47849">
        <ele>1301.4140625</ele>
        <time>2021-08-21T14:45:50Z</time>
      </trkpt>
      <trkpt lat="46.19848" lon="6.47845">
        <ele>1301.0859375</ele>
        <time>2021-08-21T14:45:51Z</time>
      </trkpt>
      <trkpt lat="46.19825" lon="6.47832">
        <ele>1299.90234375</ele>
        <time>2021-08-21T14:45:55Z</time>
      </trkpt>
      <trkpt lat="46.19821" lon="6.47827">
        <ele>1299.9375</ele>
        <time>2021-08-21T14:45:56Z</time>
      </trkpt>
      <trkpt lat="46.19809" lon="6.47811">
        <ele>1300.91796875</ele>
        <time>2021-08-21T14:45:59Z</time>
      </trkpt>
      <trkpt lat="46.19801" lon="6.47802">
        <ele>1301.11328125</ele>
        <time>2021-08-21T14:46:01Z</time>
      </trkpt>
      <trkpt lat="46.19797" lon="6.47799">
        <ele>1301.0859375</ele>
        <time>2021-08-21T14:46:02Z</time>
      </trkpt>
      <trkpt lat="46.19762" lon="6.47772">
        <ele>1301.23828125</ele>
        <time>2021-08-21T14:46:14Z</time>
      </trkpt>
      <trkpt lat="46.19752" lon="6.47762">
        <ele>1301.265625</ele>
        <time>2021-08-21T14:46:17Z</time>
      </trkpt>
      <trkpt lat="46.19749" lon="6.47757">
        <ele>1301.4453125</ele>
        <time>2021-08-21T14:46:18Z</time>
      </trkpt>
      <trkpt lat="46.19738" lon="6.4774">
        <ele>1302.16015625</ele>
        <time>2021-08-21T14:46:21Z</time>
      </trkpt>
      <trkpt lat="46.19729" lon="6.4773">
        <ele>1302.08203125</ele>
        <time>2021-08-21T14:46:23Z</time>
      </trkpt>
      <trkpt lat="46.19724" lon="6.47725">
        <ele>1301.83984375</ele>
        <time>2021-08-21T14:46:24Z</time>
      </trkpt>
      <trkpt lat="46.19719" lon="6.47723">
        <ele>1301.3671875</ele>
        <time>2021-08-21T14:46:25Z</time>
      </trkpt>
      <trkpt lat="46.19714" lon="6.47723">
        <ele>1300.6640625</ele>
        <time>2021-08-21T14:46:26Z</time>
      </trkpt>
      <trkpt lat="46.19709" lon="6.47725">
        <ele>1299.82421875</ele>
        <time>2021-08-21T14:46:27Z</time>
      </trkpt>
      <trkpt lat="46.197" lon="6.4773">
        <ele>1298.16015625</ele>
        <time>2021-08-21T14:46:29Z</time>
      </trkpt>
      <trkpt lat="46.19697" lon="6.4773">
        <ele>1297.68359375</ele>
        <time>2021-08-21T14:46:30Z</time>
      </trkpt>
      <trkpt lat="46.19694" lon="6.47728">
        <ele>1297.44921875</ele>
        <time>2021-08-21T14:46:31Z</time>
      </trkpt>
      <trkpt lat="46.19692" lon="6.47727">
        <ele>1297.2265625</ele>
        <time>2021-08-21T14:46:32Z</time>
      </trkpt>
      <trkpt lat="46.19688" lon="6.4773">
        <ele>1296.3515625</ele>
        <time>2021-08-21T14:46:40Z</time>
      </trkpt>
      <trkpt lat="46.19688" lon="6.4773">
        <ele>1296.4140625</ele>
        <time>2021-08-21T14:47:11Z</time>
      </trkpt>
      <trkpt lat="46.19689" lon="6.4773">
        <ele>1296.56640625</ele>
        <time>2021-08-21T14:47:48Z</time>
      </trkpt>
      <trkpt lat="46.19689" lon="6.4773">
        <ele>1296.6171875</ele>
        <time>2021-08-21T14:48:40Z</time>
      </trkpt>
      <trkpt lat="46.19688" lon="6.47729">
        <ele>1296.52734375</ele>
        <time>2021-08-21T14:49:24Z</time>
      </trkpt>
      <trkpt lat="46.1969" lon="6.47729">
        <ele>1296.69140625</ele>
        <time>2021-08-21T14:49:40Z</time>
      </trkpt>
      <trkpt lat="46.1969" lon="6.4773">
        <ele>1296.72265625</ele>
        <time>2021-08-21T14:49:58Z</time>
      </trkpt>
      <trkpt lat="46.19697" lon="6.47731">
        <ele>1297.65625</ele>
        <time>2021-08-21T14:50:03Z</time>
      </trkpt>
      <trkpt lat="46.19708" lon="6.47723">
        <ele>1299.79296875</ele>
        <time>2021-08-21T14:50:07Z</time>
      </trkpt>
      <trkpt lat="46.19712" lon="6.47723">
        <ele>1300.3359375</ele>
        <time>2021-08-21T14:50:08Z</time>
      </trkpt>
      <trkpt lat="46.19715" lon="6.47725">
        <ele>1300.671875</ele>
        <time>2021-08-21T14:50:09Z</time>
      </trkpt>
      <trkpt lat="46.19718" lon="6.47728">
        <ele>1300.87890625</ele>
        <time>2021-08-21T14:50:10Z</time>
      </trkpt>
      <trkpt lat="46.19722" lon="6.47729">
        <ele>1301.1875</ele>
        <time>2021-08-21T14:50:11Z</time>
      </trkpt>
      <trkpt lat="46.19725" lon="6.47731">
        <ele>1301.52734375</ele>
        <time>2021-08-21T14:50:12Z</time>
      </trkpt>
      <trkpt lat="46.19741" lon="6.47739">
        <ele>1302.515625</ele>
        <time>2021-08-21T14:50:16Z</time>
      </trkpt>
      <trkpt lat="46.19744" lon="6.47743">
        <ele>1302.44921875</ele>
        <time>2021-08-21T14:50:17Z</time>
      </trkpt>
      <trkpt lat="46.19747" lon="6.47748">
        <ele>1302.21875</ele>
        <time>2021-08-21T14:50:18Z</time>
      </trkpt>
      <trkpt lat="46.19766" lon="6.47774">
        <ele>1301.50390625</ele>
        <time>2021-08-21T14:50:25Z</time>
      </trkpt>
      <trkpt lat="46.19768" lon="6.47777">
        <ele>1301.453125</ele>
        <time>2021-08-21T14:50:26Z</time>
      </trkpt>
      <trkpt lat="46.19771" lon="6.4778">
        <ele>1301.30078125</ele>
        <time>2021-08-21T14:50:27Z</time>
      </trkpt>
      <trkpt lat="46.19804" lon="6.47804">
        <ele>1301.21484375</ele>
        <time>2021-08-21T14:50:34Z</time>
      </trkpt>
      <trkpt lat="46.19867" lon="6.4786">
        <ele>1301.88671875</ele>
        <time>2021-08-21T14:50:45Z</time>
      </trkpt>
      <trkpt lat="46.19871" lon="6.47864">
        <ele>1302.04296875</ele>
        <time>2021-08-21T14:50:46Z</time>
      </trkpt>
      <trkpt lat="46.19874" lon="6.4787">
        <ele>1302.05859375</ele>
        <time>2021-08-21T14:50:47Z</time>
      </trkpt>
      <trkpt lat="46.19875" lon="6.47876">
        <ele>1301.96875</ele>
        <time>2021-08-21T14:50:48Z</time>
      </trkpt>
      <trkpt lat="46.19879" lon="6.47889">
        <ele>1301.73828125</ele>
        <time>2021-08-21T14:50:50Z</time>
      </trkpt>
      <trkpt lat="46.19882" lon="6.47895">
        <ele>1301.765625</ele>
        <time>2021-08-21T14:50:51Z</time>
      </trkpt>
      <trkpt lat="46.19904" lon="6.47947">
        <ele>1305.03515625</ele>
        <time>2021-08-21T14:51:02Z</time>
      </trkpt>
      <trkpt lat="46.19901" lon="6.47959">
        <ele>1305.265625</ele>
        <time>2021-08-21T14:51:05Z</time>
      </trkpt>
      <trkpt lat="46.19897" lon="6.47962">
        <ele>1305.11328125</ele>
        <time>2021-08-21T14:51:06Z</time>
      </trkpt>
      <trkpt lat="46.19894" lon="6.47964">
        <ele>1304.91796875</ele>
        <time>2021-08-21T14:51:07Z</time>
      </trkpt>
      <trkpt lat="46.19863" lon="6.47978">
        <ele>1304.375</ele>
        <time>2021-08-21T14:51:19Z</time>
      </trkpt>
      <trkpt lat="46.19847" lon="6.47987">
        <ele>1304.875</ele>
        <time>2021-08-21T14:51:24Z</time>
      </trkpt>
      <trkpt lat="46.19833" lon="6.47995">
        <ele>1305.4921875</ele>
        <time>2021-08-21T14:51:27Z</time>
      </trkpt>
      <trkpt lat="46.19788" lon="6.48016">
        <ele>1304.53125</ele>
        <time>2021-08-21T14:51:40Z</time>
      </trkpt>
      <trkpt lat="46.19785" lon="6.48017">
        <ele>1304.0859375</ele>
        <time>2021-08-21T14:51:42Z</time>
      </trkpt>
      <trkpt lat="46.19769" lon="6.48045">
        <ele>1303.61328125</ele>
        <time>2021-08-21T14:51:53Z</time>
      </trkpt>
      <trkpt lat="46.19749" lon="6.48072">
        <ele>1300.58984375</ele>
        <time>2021-08-21T14:52:05Z</time>
      </trkpt>
      <trkpt lat="46.19744" lon="6.48093">
        <ele>1299.8203125</ele>
        <time>2021-08-21T14:52:19Z</time>
      </trkpt>
      <trkpt lat="46.19748" lon="6.48092">
        <ele>1300.71484375</ele>
        <time>2021-08-21T14:52:31Z</time>
      </trkpt>
      <trkpt lat="46.19748" lon="6.48089">
        <ele>1300.80859375</ele>
        <time>2021-08-21T14:52:33Z</time>
      </trkpt>
      <trkpt lat="46.19751" lon="6.4809">
        <ele>1301.46484375</ele>
        <time>2021-08-21T14:52:39Z</time>
      </trkpt>
      <trkpt lat="46.1975" lon="6.48095">
        <ele>1301.40625</ele>
        <time>2021-08-21T14:52:42Z</time>
      </trkpt>
      <trkpt lat="46.1975" lon="6.48099">
        <ele>1301.56640625</ele>
        <time>2021-08-21T14:52:45Z</time>
      </trkpt>
      <trkpt lat="46.1975" lon="6.48112">
        <ele>1301.42578125</ele>
        <time>2021-08-21T14:52:56Z</time>
      </trkpt>
      <trkpt lat="46.19751" lon="6.48122">
        <ele>1301.26171875</ele>
        <time>2021-08-21T14:53:02Z</time>
      </trkpt>
      <trkpt lat="46.19751" lon="6.48129">
        <ele>1300.81640625</ele>
        <time>2021-08-21T14:53:04Z</time>
      </trkpt>
      <trkpt lat="46.19752" lon="6.48134">
        <ele>1300.90234375</ele>
        <time>2021-08-21T14:53:05Z</time>
      </trkpt>
      <trkpt lat="46.19754" lon="6.48139">
        <ele>1301.09375</ele>
        <time>2021-08-21T14:53:06Z</time>
      </trkpt>
      <trkpt lat="46.19756" lon="6.48144">
        <ele>1301.33203125</ele>
        <time>2021-08-21T14:53:07Z</time>
      </trkpt>
      <trkpt lat="46.19757" lon="6.48149">
        <ele>1301.62109375</ele>
        <time>2021-08-21T14:53:08Z</time>
      </trkpt>
      <trkpt lat="46.19759" lon="6.48155">
        <ele>1301.78515625</ele>
        <time>2021-08-21T14:53:09Z</time>
      </trkpt>
      <trkpt lat="46.1976" lon="6.48161">
        <ele>1301.83203125</ele>
        <time>2021-08-21T14:53:10Z</time>
      </trkpt>
      <trkpt lat="46.19761" lon="6.48167">
        <ele>1301.90234375</ele>
        <time>2021-08-21T14:53:11Z</time>
      </trkpt>
      <trkpt lat="46.19766" lon="6.48187">
        <ele>1302.5078125</ele>
        <time>2021-08-21T14:53:15Z</time>
      </trkpt>
      <trkpt lat="46.19767" lon="6.48193">
        <ele>1302.69921875</ele>
        <time>2021-08-21T14:53:16Z</time>
      </trkpt>
      <trkpt lat="46.19768" lon="6.48217">
        <ele>1302.74609375</ele>
        <time>2021-08-21T14:53:20Z</time>
      </trkpt>
      <trkpt lat="46.19763" lon="6.48238">
        <ele>1301.66796875</ele>
        <time>2021-08-21T14:53:23Z</time>
      </trkpt>
      <trkpt lat="46.19762" lon="6.48254">
        <ele>1302.0703125</ele>
        <time>2021-08-21T14:53:25Z</time>
      </trkpt>
      <trkpt lat="46.19763" lon="6.48261">
        <ele>1302.75</ele>
        <time>2021-08-21T14:53:26Z</time>
      </trkpt>
      <trkpt lat="46.19763" lon="6.48268">
        <ele>1303.34375</ele>
        <time>2021-08-21T14:53:27Z</time>
      </trkpt>
      <trkpt lat="46.19763" lon="6.48274">
        <ele>1303.79296875</ele>
        <time>2021-08-21T14:53:28Z</time>
      </trkpt>
      <trkpt lat="46.19763" lon="6.48281">
        <ele>1304.17578125</ele>
        <time>2021-08-21T14:53:29Z</time>
      </trkpt>
      <trkpt lat="46.19763" lon="6.48288">
        <ele>1304.5390625</ele>
        <time>2021-08-21T14:53:30Z</time>
      </trkpt>
      <trkpt lat="46.19763" lon="6.48325">
        <ele>1305.35546875</ele>
        <time>2021-08-21T14:53:39Z</time>
      </trkpt>
      <trkpt lat="46.19763" lon="6.48343">
        <ele>1304.72265625</ele>
        <time>2021-08-21T14:53:44Z</time>
      </trkpt>
      <trkpt lat="46.19763" lon="6.48346">
        <ele>1304.56640625</ele>
        <time>2021-08-21T14:53:45Z</time>
      </trkpt>
      <trkpt lat="46.19762" lon="6.48349">
        <ele>1304.1953125</ele>
        <time>2021-08-21T14:53:46Z</time>
      </trkpt>
      <trkpt lat="46.19761" lon="6.48352">
        <ele>1303.83984375</ele>
        <time>2021-08-21T14:53:47Z</time>
      </trkpt>
      <trkpt lat="46.19768" lon="6.48394">
        <ele>1300.3359375</ele>
        <time>2021-08-21T14:53:58Z</time>
      </trkpt>
      <trkpt lat="46.19771" lon="6.48407">
        <ele>1298.6328125</ele>
        <time>2021-08-21T14:54:09Z</time>
      </trkpt>
      <trkpt lat="46.19772" lon="6.48408">
        <ele>1298.44140625</ele>
        <time>2021-08-21T14:54:19Z</time>
      </trkpt>
      <trkpt lat="46.1977" lon="6.48406">
        <ele>1298.45703125</ele>
        <time>2021-08-21T14:58:38Z</time>
      </trkpt>
      <trkpt lat="46.19777" lon="6.48413">
        <ele>1298.76953125</ele>
        <time>2021-08-21T14:58:39Z</time>
      </trkpt>
      <trkpt lat="46.19775" lon="6.48413">
        <ele>1298.234375</ele>
        <time>2021-08-21T14:58:49Z</time>
      </trkpt>
      <trkpt lat="46.19776" lon="6.48414">
        <ele>1298.390625</ele>
        <time>2021-08-21T14:58:57Z</time>
      </trkpt>
      <trkpt lat="46.19776" lon="6.48414">
        <ele>1298.26171875</ele>
        <time>2021-08-21T14:59:08Z</time>
      </trkpt>
      <trkpt lat="46.19777" lon="6.48412">
        <ele>1298.98828125</ele>
        <time>2021-08-21T14:59:43Z</time>
      </trkpt>
      <trkpt lat="46.19776" lon="6.48411">
        <ele>1299.0234375</ele>
        <time>2021-08-21T14:59:58Z</time>
      </trkpt>
      <trkpt lat="46.19782" lon="6.48427">
        <ele>1296.7109375</ele>
        <time>2021-08-21T15:00:04Z</time>
      </trkpt>
      <trkpt lat="46.19784" lon="6.4843">
        <ele>1296.68359375</ele>
        <time>2021-08-21T15:00:05Z</time>
      </trkpt>
      <trkpt lat="46.19787" lon="6.48432">
        <ele>1296.58203125</ele>
        <time>2021-08-21T15:00:06Z</time>
      </trkpt>
      <trkpt lat="46.1979" lon="6.48435">
        <ele>1296.5078125</ele>
        <time>2021-08-21T15:00:07Z</time>
      </trkpt>
      <trkpt lat="46.19797" lon="6.48443">
        <ele>1295.40234375</ele>
        <time>2021-08-21T15:00:10Z</time>
      </trkpt>
      <trkpt lat="46.19801" lon="6.48444">
        <ele>1294.546875</ele>
        <time>2021-08-21T15:00:11Z</time>
      </trkpt>
      <trkpt lat="46.19805" lon="6.48444">
        <ele>1293.9375</ele>
        <time>2021-08-21T15:00:12Z</time>
      </trkpt>
      <trkpt lat="46.1981" lon="6.48444">
        <ele>1293.48828125</ele>
        <time>2021-08-21T15:00:13Z</time>
      </trkpt>
      <trkpt lat="46.19822" lon="6.4844">
        <ele>1293.37890625</ele>
        <time>2021-08-21T15:00:17Z</time>
      </trkpt>
      <trkpt lat="46.19826" lon="6.48439">
        <ele>1293.43359375</ele>
        <time>2021-08-21T15:00:18Z</time>
      </trkpt>
      <trkpt lat="46.19828" lon="6.48437">
        <ele>1293.7265625</ele>
        <time>2021-08-21T15:00:19Z</time>
      </trkpt>
      <trkpt lat="46.19831" lon="6.48435">
        <ele>1294.05078125</ele>
        <time>2021-08-21T15:00:20Z</time>
      </trkpt>
      <trkpt lat="46.19833" lon="6.48434">
        <ele>1294.28515625</ele>
        <time>2021-08-21T15:00:21Z</time>
      </trkpt>
      <trkpt lat="46.19834" lon="6.48433">
        <ele>1294.65234375</ele>
        <time>2021-08-21T15:00:22Z</time>
      </trkpt>
      <trkpt lat="46.19835" lon="6.48431">
        <ele>1294.9453125</ele>
        <time>2021-08-21T15:00:23Z</time>
      </trkpt>
      <trkpt lat="46.19838" lon="6.48427">
        <ele>1296.34765625</ele>
        <time>2021-08-21T15:00:26Z</time>
      </trkpt>
      <trkpt lat="46.19843" lon="6.48423">
        <ele>1297.77734375</ele>
        <time>2021-08-21T15:00:41Z</time>
      </trkpt>
      <trkpt lat="46.1985" lon="6.48425">
        <ele>1295.8203125</ele>
        <time>2021-08-21T15:00:57Z</time>
      </trkpt>
      <trkpt lat="46.19856" lon="6.48425">
        <ele>1294.3828125</ele>
        <time>2021-08-21T15:00:59Z</time>
      </trkpt>
      <trkpt lat="46.1986" lon="6.48424">
        <ele>1293.4765625</ele>
        <time>2021-08-21T15:01:00Z</time>
      </trkpt>
      <trkpt lat="46.19862" lon="6.48424">
        <ele>1292.71484375</ele>
        <time>2021-08-21T15:01:01Z</time>
      </trkpt>
      <trkpt lat="46.19865" lon="6.48425">
        <ele>1291.32421875</ele>
        <time>2021-08-21T15:01:02Z</time>
      </trkpt>
      <trkpt lat="46.19868" lon="6.48426">
        <ele>1290.01171875</ele>
        <time>2021-08-21T15:01:03Z</time>
      </trkpt>
      <trkpt lat="46.19876" lon="6.48429">
        <ele>1285.69140625</ele>
        <time>2021-08-21T15:01:06Z</time>
      </trkpt>
      <trkpt lat="46.19887" lon="6.48435">
        <ele>1279.04296875</ele>
        <time>2021-08-21T15:01:10Z</time>
      </trkpt>
      <trkpt lat="46.19894" lon="6.48443">
        <ele>1273.80859375</ele>
        <time>2021-08-21T15:01:14Z</time>
      </trkpt>
      <trkpt lat="46.19902" lon="6.4845">
        <ele>1268.53125</ele>
        <time>2021-08-21T15:01:18Z</time>
      </trkpt>
      <trkpt lat="46.19906" lon="6.48453">
        <ele>1266.5078125</ele>
        <time>2021-08-21T15:01:20Z</time>
      </trkpt>
      <trkpt lat="46.19918" lon="6.48459">
        <ele>1262.60546875</ele>
        <time>2021-08-21T15:01:24Z</time>
      </trkpt>
      <trkpt lat="46.19929" lon="6.48464">
        <ele>1259.9140625</ele>
        <time>2021-08-21T15:01:27Z</time>
      </trkpt>
      <trkpt lat="46.19989" lon="6.48486">
        <ele>1255.87109375</ele>
        <time>2021-08-21T15:01:39Z</time>
      </trkpt>
      <trkpt lat="46.20026" lon="6.4851">
        <ele>1250.5</ele>
        <time>2021-08-21T15:01:44Z</time>
      </trkpt>
      <trkpt lat="46.20062" lon="6.48531">
        <ele>1245.796875</ele>
        <time>2021-08-21T15:01:50Z</time>
      </trkpt>
      <trkpt lat="46.20097" lon="6.48556">
        <ele>1240.0625</ele>
        <time>2021-08-21T15:01:57Z</time>
      </trkpt>
      <trkpt lat="46.20116" lon="6.48569">
        <ele>1238.10546875</ele>
        <time>2021-08-21T15:02:02Z</time>
      </trkpt>
      <trkpt lat="46.20137" lon="6.48585">
        <ele>1235.8984375</ele>
        <time>2021-08-21T15:02:07Z</time>
      </trkpt>
      <trkpt lat="46.20142" lon="6.48588">
        <ele>1235.99609375</ele>
        <time>2021-08-21T15:02:08Z</time>
      </trkpt>
      <trkpt lat="46.2017" lon="6.48604">
        <ele>1235.19921875</ele>
        <time>2021-08-21T15:02:13Z</time>
      </trkpt>
      <trkpt lat="46.20191" lon="6.48618">
        <ele>1233.2578125</ele>
        <time>2021-08-21T15:02:18Z</time>
      </trkpt>
      <trkpt lat="46.20195" lon="6.48623">
        <ele>1232.05859375</ele>
        <time>2021-08-21T15:02:19Z</time>
      </trkpt>
      <trkpt lat="46.20198" lon="6.48626">
        <ele>1231.2109375</ele>
        <time>2021-08-21T15:02:20Z</time>
      </trkpt>
      <trkpt lat="46.20201" lon="6.48629">
        <ele>1230.48828125</ele>
        <time>2021-08-21T15:02:21Z</time>
      </trkpt>
      <trkpt lat="46.20216" lon="6.48641">
        <ele>1227.4453125</ele>
        <time>2021-08-21T15:02:26Z</time>
      </trkpt>
      <trkpt lat="46.20222" lon="6.48642">
        <ele>1227.10546875</ele>
        <time>2021-08-21T15:02:27Z</time>
      </trkpt>
      <trkpt lat="46.20228" lon="6.48644">
        <ele>1226.953125</ele>
        <time>2021-08-21T15:02:28Z</time>
      </trkpt>
      <trkpt lat="46.20234" lon="6.48645">
        <ele>1226.828125</ele>
        <time>2021-08-21T15:02:29Z</time>
      </trkpt>
      <trkpt lat="46.2024" lon="6.48645">
        <ele>1226.87890625</ele>
        <time>2021-08-21T15:02:30Z</time>
      </trkpt>
      <trkpt lat="46.20246" lon="6.48647">
        <ele>1226.56640625</ele>
        <time>2021-08-21T15:02:31Z</time>
      </trkpt>
      <trkpt lat="46.20252" lon="6.48649">
        <ele>1226.12890625</ele>
        <time>2021-08-21T15:02:32Z</time>
      </trkpt>
      <trkpt lat="46.20276" lon="6.48653">
        <ele>1225.78125</ele>
        <time>2021-08-21T15:02:36Z</time>
      </trkpt>
      <trkpt lat="46.20292" lon="6.48653">
        <ele>1226.484375</ele>
        <time>2021-08-21T15:02:39Z</time>
      </trkpt>
      <trkpt lat="46.20317" lon="6.48654">
        <ele>1226.9921875</ele>
        <time>2021-08-21T15:02:45Z</time>
      </trkpt>
      <trkpt lat="46.20323" lon="6.48654">
        <ele>1227.23828125</ele>
        <time>2021-08-21T15:02:46Z</time>
      </trkpt>
      <trkpt lat="46.20337" lon="6.48653">
        <ele>1225.88671875</ele>
        <time>2021-08-21T15:02:49Z</time>
      </trkpt>
      <trkpt lat="46.20353" lon="6.48653">
        <ele>1223.91015625</ele>
        <time>2021-08-21T15:02:55Z</time>
      </trkpt>
      <trkpt lat="46.20354" lon="6.48653">
        <ele>1223.7265625</ele>
        <time>2021-08-21T15:02:56Z</time>
      </trkpt>
      <trkpt lat="46.20354" lon="6.48655">
        <ele>1222.9609375</ele>
        <time>2021-08-21T15:02:57Z</time>
      </trkpt>
      <trkpt lat="46.20355" lon="6.48658">
        <ele>1221.62109375</ele>
        <time>2021-08-21T15:02:59Z</time>
      </trkpt>
      <trkpt lat="46.2037" lon="6.48662">
        <ele>1219.34375</ele>
        <time>2021-08-21T15:03:15Z</time>
      </trkpt>
      <trkpt lat="46.20371" lon="6.48665">
        <ele>1218.6171875</ele>
        <time>2021-08-21T15:03:20Z</time>
      </trkpt>
      <trkpt lat="46.20371" lon="6.48669">
        <ele>1217.8125</ele>
        <time>2021-08-21T15:03:22Z</time>
      </trkpt>
      <trkpt lat="46.20371" lon="6.4867">
        <ele>1217.48046875</ele>
        <time>2021-08-21T15:03:23Z</time>
      </trkpt>
      <trkpt lat="46.2037" lon="6.48672">
        <ele>1217.12890625</ele>
        <time>2021-08-21T15:03:24Z</time>
      </trkpt>
      <trkpt lat="46.2037" lon="6.48674">
        <ele>1216.63671875</ele>
        <time>2021-08-21T15:03:25Z</time>
      </trkpt>
      <trkpt lat="46.2037" lon="6.48678">
        <ele>1215.80078125</ele>
        <time>2021-08-21T15:03:26Z</time>
      </trkpt>
      <trkpt lat="46.20371" lon="6.48683">
        <ele>1214.70703125</ele>
        <time>2021-08-21T15:03:27Z</time>
      </trkpt>
      <trkpt lat="46.20372" lon="6.48689">
        <ele>1213.3984375</ele>
        <time>2021-08-21T15:03:28Z</time>
      </trkpt>
      <trkpt lat="46.20371" lon="6.48695">
        <ele>1212.26171875</ele>
        <time>2021-08-21T15:03:29Z</time>
      </trkpt>
      <trkpt lat="46.2037" lon="6.48702">
        <ele>1211.07421875</ele>
        <time>2021-08-21T15:03:30Z</time>
      </trkpt>
      <trkpt lat="46.20368" lon="6.48711">
        <ele>1209.6953125</ele>
        <time>2021-08-21T15:03:31Z</time>
      </trkpt>
      <trkpt lat="46.20366" lon="6.48721">
        <ele>1208.21875</ele>
        <time>2021-08-21T15:03:32Z</time>
      </trkpt>
      <trkpt lat="46.20366" lon="6.48731">
        <ele>1206.83203125</ele>
        <time>2021-08-21T15:03:33Z</time>
      </trkpt>
      <trkpt lat="46.20367" lon="6.48761">
        <ele>1202.0703125</ele>
        <time>2021-08-21T15:03:36Z</time>
      </trkpt>
      <trkpt lat="46.20368" lon="6.48771">
        <ele>1200.48046875</ele>
        <time>2021-08-21T15:03:37Z</time>
      </trkpt>
      <trkpt lat="46.2037" lon="6.48797">
        <ele>1196.59765625</ele>
        <time>2021-08-21T15:03:40Z</time>
      </trkpt>
      <trkpt lat="46.20371" lon="6.4881">
        <ele>1194.40625</ele>
        <time>2021-08-21T15:03:41Z</time>
      </trkpt>
      <trkpt lat="46.20372" lon="6.48834">
        <ele>1189.984375</ele>
        <time>2021-08-21T15:03:44Z</time>
      </trkpt>
      <trkpt lat="46.20371" lon="6.48854">
        <ele>1186.4453125</ele>
        <time>2021-08-21T15:03:46Z</time>
      </trkpt>
      <trkpt lat="46.2037" lon="6.48862">
        <ele>1185.3125</ele>
        <time>2021-08-21T15:03:47Z</time>
      </trkpt>
      <trkpt lat="46.20368" lon="6.4887">
        <ele>1184.4609375</ele>
        <time>2021-08-21T15:03:48Z</time>
      </trkpt>
      <trkpt lat="46.20366" lon="6.48876">
        <ele>1183.76953125</ele>
        <time>2021-08-21T15:03:49Z</time>
      </trkpt>
      <trkpt lat="46.20362" lon="6.48882">
        <ele>1183.37109375</ele>
        <time>2021-08-21T15:03:50Z</time>
      </trkpt>
      <trkpt lat="46.20358" lon="6.48886">
        <ele>1183.1953125</ele>
        <time>2021-08-21T15:03:51Z</time>
      </trkpt>
      <trkpt lat="46.20353" lon="6.48891">
        <ele>1182.96484375</ele>
        <time>2021-08-21T15:03:52Z</time>
      </trkpt>
      <trkpt lat="46.20338" lon="6.48902">
        <ele>1183.21875</ele>
        <time>2021-08-21T15:03:55Z</time>
      </trkpt>
      <trkpt lat="46.20334" lon="6.48905">
        <ele>1183.35546875</ele>
        <time>2021-08-21T15:03:56Z</time>
      </trkpt>
      <trkpt lat="46.20329" lon="6.4891">
        <ele>1183.37890625</ele>
        <time>2021-08-21T15:03:57Z</time>
      </trkpt>
      <trkpt lat="46.20313" lon="6.4893">
        <ele>1181.734375</ele>
        <time>2021-08-21T15:04:01Z</time>
      </trkpt>
      <trkpt lat="46.20308" lon="6.48933">
        <ele>1181.4765625</ele>
        <time>2021-08-21T15:04:02Z</time>
      </trkpt>
      <trkpt lat="46.20303" lon="6.48934">
        <ele>1181.34375</ele>
        <time>2021-08-21T15:04:03Z</time>
      </trkpt>
      <trkpt lat="46.20298" lon="6.48934">
        <ele>1181.30859375</ele>
        <time>2021-08-21T15:04:04Z</time>
      </trkpt>
      <trkpt lat="46.20294" lon="6.48933">
        <ele>1181.23828125</ele>
        <time>2021-08-21T15:04:05Z</time>
      </trkpt>
      <trkpt lat="46.20289" lon="6.48933">
        <ele>1181.046875</ele>
        <time>2021-08-21T15:04:06Z</time>
      </trkpt>
      <trkpt lat="46.20266" lon="6.48939">
        <ele>1179.578125</ele>
        <time>2021-08-21T15:04:15Z</time>
      </trkpt>
      <trkpt lat="46.20255" lon="6.48937">
        <ele>1178.56640625</ele>
        <time>2021-08-21T15:04:18Z</time>
      </trkpt>
      <trkpt lat="46.20246" lon="6.48937">
        <ele>1177.609375</ele>
        <time>2021-08-21T15:04:20Z</time>
      </trkpt>
      <trkpt lat="46.20241" lon="6.48939">
        <ele>1177.0234375</ele>
        <time>2021-08-21T15:04:21Z</time>
      </trkpt>
      <trkpt lat="46.20235" lon="6.48941">
        <ele>1176.2578125</ele>
        <time>2021-08-21T15:04:22Z</time>
      </trkpt>
      <trkpt lat="46.20213" lon="6.48949">
        <ele>1173.609375</ele>
        <time>2021-08-21T15:04:25Z</time>
      </trkpt>
      <trkpt lat="46.20206" lon="6.48951">
        <ele>1172.23046875</ele>
        <time>2021-08-21T15:04:26Z</time>
      </trkpt>
      <trkpt lat="46.20186" lon="6.48959">
        <ele>1168.1875</ele>
        <time>2021-08-21T15:04:29Z</time>
      </trkpt>
      <trkpt lat="46.20181" lon="6.48962">
        <ele>1167.01171875</ele>
        <time>2021-08-21T15:04:30Z</time>
      </trkpt>
      <trkpt lat="46.20168" lon="6.4897">
        <ele>1163.375</ele>
        <time>2021-08-21T15:04:33Z</time>
      </trkpt>
      <trkpt lat="46.20163" lon="6.48973">
        <ele>1161.953125</ele>
        <time>2021-08-21T15:04:34Z</time>
      </trkpt>
      <trkpt lat="46.20156" lon="6.48977">
        <ele>1159.89453125</ele>
        <time>2021-08-21T15:04:35Z</time>
      </trkpt>
      <trkpt lat="46.20148" lon="6.48981">
        <ele>1157.47265625</ele>
        <time>2021-08-21T15:04:36Z</time>
      </trkpt>
      <trkpt lat="46.2014" lon="6.48985">
        <ele>1154.8125</ele>
        <time>2021-08-21T15:04:37Z</time>
      </trkpt>
      <trkpt lat="46.20131" lon="6.48989">
        <ele>1152.01171875</ele>
        <time>2021-08-21T15:04:38Z</time>
      </trkpt>
      <trkpt lat="46.20123" lon="6.48991">
        <ele>1150.35546875</ele>
        <time>2021-08-21T15:04:39Z</time>
      </trkpt>
      <trkpt lat="46.20107" lon="6.48994">
        <ele>1147.63671875</ele>
        <time>2021-08-21T15:04:41Z</time>
      </trkpt>
      <trkpt lat="46.2009" lon="6.48996">
        <ele>1146.32421875</ele>
        <time>2021-08-21T15:04:43Z</time>
      </trkpt>
      <trkpt lat="46.20069" lon="6.48997">
        <ele>1146.2890625</ele>
        <time>2021-08-21T15:04:46Z</time>
      </trkpt>
      <trkpt lat="46.20048" lon="6.48999">
        <ele>1147.62890625</ele>
        <time>2021-08-21T15:04:49Z</time>
      </trkpt>
      <trkpt lat="46.20043" lon="6.48997">
        <ele>1148.2890625</ele>
        <time>2021-08-21T15:04:50Z</time>
      </trkpt>
      <trkpt lat="46.20038" lon="6.48996">
        <ele>1148.875</ele>
        <time>2021-08-21T15:04:51Z</time>
      </trkpt>
      <trkpt lat="46.20029" lon="6.4899">
        <ele>1149.66796875</ele>
        <time>2021-08-21T15:04:53Z</time>
      </trkpt>
      <trkpt lat="46.20025" lon="6.48989">
        <ele>1149.8046875</ele>
        <time>2021-08-21T15:04:54Z</time>
      </trkpt>
      <trkpt lat="46.20006" lon="6.4898">
        <ele>1150</ele>
        <time>2021-08-21T15:04:59Z</time>
      </trkpt>
      <trkpt lat="46.20002" lon="6.48978">
        <ele>1149.94140625</ele>
        <time>2021-08-21T15:05:00Z</time>
      </trkpt>
      <trkpt lat="46.19997" lon="6.48977">
        <ele>1149.875</ele>
        <time>2021-08-21T15:05:01Z</time>
      </trkpt>
      <trkpt lat="46.19993" lon="6.48976">
        <ele>1149.79296875</ele>
        <time>2021-08-21T15:05:02Z</time>
      </trkpt>
      <trkpt lat="46.19989" lon="6.48975">
        <ele>1149.7734375</ele>
        <time>2021-08-21T15:05:03Z</time>
      </trkpt>
      <trkpt lat="46.19986" lon="6.48974">
        <ele>1149.91015625</ele>
        <time>2021-08-21T15:05:04Z</time>
      </trkpt>
      <trkpt lat="46.19983" lon="6.48973">
        <ele>1150.078125</ele>
        <time>2021-08-21T15:05:05Z</time>
      </trkpt>
      <trkpt lat="46.19969" lon="6.48963">
        <ele>1150.22265625</ele>
        <time>2021-08-21T15:05:09Z</time>
      </trkpt>
      <trkpt lat="46.19937" lon="6.4894">
        <ele>1149.140625</ele>
        <time>2021-08-21T15:05:19Z</time>
      </trkpt>
      <trkpt lat="46.19918" lon="6.48938">
        <ele>1149.6640625</ele>
        <time>2021-08-21T15:05:24Z</time>
      </trkpt>
      <trkpt lat="46.19913" lon="6.48939">
        <ele>1149.95703125</ele>
        <time>2021-08-21T15:05:25Z</time>
      </trkpt>
      <trkpt lat="46.19909" lon="6.48942">
        <ele>1150.41796875</ele>
        <time>2021-08-21T15:05:26Z</time>
      </trkpt>
      <trkpt lat="46.19905" lon="6.48946">
        <ele>1150.75</ele>
        <time>2021-08-21T15:05:27Z</time>
      </trkpt>
      <trkpt lat="46.19902" lon="6.48948">
        <ele>1150.82421875</ele>
        <time>2021-08-21T15:05:28Z</time>
      </trkpt>
      <trkpt lat="46.199" lon="6.48948">
        <ele>1150.78515625</ele>
        <time>2021-08-21T15:05:29Z</time>
      </trkpt>
      <trkpt lat="46.19898" lon="6.48949">
        <ele>1150.73828125</ele>
        <time>2021-08-21T15:05:30Z</time>
      </trkpt>
      <trkpt lat="46.19865" lon="6.48951">
        <ele>1149.17578125</ele>
        <time>2021-08-21T15:05:40Z</time>
      </trkpt>
      <trkpt lat="46.19852" lon="6.4895">
        <ele>1148.46875</ele>
        <time>2021-08-21T15:05:47Z</time>
      </trkpt>
      <trkpt lat="46.19838" lon="6.48942">
        <ele>1145.65625</ele>
        <time>2021-08-21T15:05:51Z</time>
      </trkpt>
      <trkpt lat="46.19833" lon="6.4894">
        <ele>1144.640625</ele>
        <time>2021-08-21T15:05:52Z</time>
      </trkpt>
      <trkpt lat="46.19826" lon="6.48935">
        <ele>1142.9140625</ele>
        <time>2021-08-21T15:05:53Z</time>
      </trkpt>
      <trkpt lat="46.19819" lon="6.48931">
        <ele>1140.8515625</ele>
        <time>2021-08-21T15:05:54Z</time>
      </trkpt>
      <trkpt lat="46.19812" lon="6.48928">
        <ele>1139.125</ele>
        <time>2021-08-21T15:05:55Z</time>
      </trkpt>
      <trkpt lat="46.19806" lon="6.48925">
        <ele>1137.6796875</ele>
        <time>2021-08-21T15:05:56Z</time>
      </trkpt>
      <trkpt lat="46.19799" lon="6.48924">
        <ele>1136.46484375</ele>
        <time>2021-08-21T15:05:57Z</time>
      </trkpt>
      <trkpt lat="46.1979" lon="6.48923">
        <ele>1134.25</ele>
        <time>2021-08-21T15:05:59Z</time>
      </trkpt>
      <trkpt lat="46.19786" lon="6.48924">
        <ele>1133.2890625</ele>
        <time>2021-08-21T15:06:00Z</time>
      </trkpt>
      <trkpt lat="46.19773" lon="6.48929">
        <ele>1130.30859375</ele>
        <time>2021-08-21T15:06:03Z</time>
      </trkpt>
      <trkpt lat="46.19767" lon="6.48929">
        <ele>1128.64453125</ele>
        <time>2021-08-21T15:06:04Z</time>
      </trkpt>
      <trkpt lat="46.1976" lon="6.4893">
        <ele>1126.51171875</ele>
        <time>2021-08-21T15:06:05Z</time>
      </trkpt>
      <trkpt lat="46.19745" lon="6.48932">
        <ele>1122.2109375</ele>
        <time>2021-08-21T15:06:07Z</time>
      </trkpt>
      <trkpt lat="46.19727" lon="6.48936">
        <ele>1116</ele>
        <time>2021-08-21T15:06:10Z</time>
      </trkpt>
      <trkpt lat="46.19706" lon="6.48942">
        <ele>1107.61328125</ele>
        <time>2021-08-21T15:06:13Z</time>
      </trkpt>
      <trkpt lat="46.19687" lon="6.48944">
        <ele>1100.32421875</ele>
        <time>2021-08-21T15:06:16Z</time>
      </trkpt>
      <trkpt lat="46.1968" lon="6.48947">
        <ele>1097.515625</ele>
        <time>2021-08-21T15:06:17Z</time>
      </trkpt>
      <trkpt lat="46.19673" lon="6.48951">
        <ele>1094.4921875</ele>
        <time>2021-08-21T15:06:18Z</time>
      </trkpt>
      <trkpt lat="46.19666" lon="6.48954">
        <ele>1091.56640625</ele>
        <time>2021-08-21T15:06:19Z</time>
      </trkpt>
      <trkpt lat="46.1966" lon="6.48957">
        <ele>1088.91796875</ele>
        <time>2021-08-21T15:06:20Z</time>
      </trkpt>
      <trkpt lat="46.19654" lon="6.48958">
        <ele>1086.68359375</ele>
        <time>2021-08-21T15:06:21Z</time>
      </trkpt>
      <trkpt lat="46.19648" lon="6.48958">
        <ele>1085.09375</ele>
        <time>2021-08-21T15:06:22Z</time>
      </trkpt>
      <trkpt lat="46.19638" lon="6.48958">
        <ele>1081.86328125</ele>
        <time>2021-08-21T15:06:24Z</time>
      </trkpt>
      <trkpt lat="46.19622" lon="6.48961">
        <ele>1076.1953125</ele>
        <time>2021-08-21T15:06:28Z</time>
      </trkpt>
      <trkpt lat="46.19607" lon="6.48968">
        <ele>1069.62109375</ele>
        <time>2021-08-21T15:06:33Z</time>
      </trkpt>
      <trkpt lat="46.19597" lon="6.48973">
        <ele>1065.37109375</ele>
        <time>2021-08-21T15:06:35Z</time>
      </trkpt>
      <trkpt lat="46.19588" lon="6.48979">
        <ele>1061.02734375</ele>
        <time>2021-08-21T15:06:37Z</time>
      </trkpt>
      <trkpt lat="46.19584" lon="6.4898">
        <ele>1059.5</ele>
        <time>2021-08-21T15:06:38Z</time>
      </trkpt>
      <trkpt lat="46.19579" lon="6.4898">
        <ele>1058.0234375</ele>
        <time>2021-08-21T15:06:39Z</time>
      </trkpt>
      <trkpt lat="46.19556" lon="6.48978">
        <ele>1051.70703125</ele>
        <time>2021-08-21T15:06:43Z</time>
      </trkpt>
      <trkpt lat="46.19533" lon="6.48971">
        <ele>1046.609375</ele>
        <time>2021-08-21T15:06:46Z</time>
      </trkpt>
      <trkpt lat="46.19526" lon="6.48968">
        <ele>1045.4765625</ele>
        <time>2021-08-21T15:06:47Z</time>
      </trkpt>
      <trkpt lat="46.19499" lon="6.48954">
        <ele>1043.81640625</ele>
        <time>2021-08-21T15:06:51Z</time>
      </trkpt>
      <trkpt lat="46.19481" lon="6.4894">
        <ele>1045.8984375</ele>
        <time>2021-08-21T15:06:56Z</time>
      </trkpt>
      <trkpt lat="46.1948" lon="6.48936">
        <ele>1047.125</ele>
        <time>2021-08-21T15:06:57Z</time>
      </trkpt>
      <trkpt lat="46.19481" lon="6.48931">
        <ele>1048.94921875</ele>
        <time>2021-08-21T15:06:58Z</time>
      </trkpt>
      <trkpt lat="46.19482" lon="6.48927">
        <ele>1050.55859375</ele>
        <time>2021-08-21T15:06:59Z</time>
      </trkpt>
      <trkpt lat="46.19483" lon="6.48922">
        <ele>1052.2421875</ele>
        <time>2021-08-21T15:07:00Z</time>
      </trkpt>
      <trkpt lat="46.19471" lon="6.48882">
        <ele>1063.4375</ele>
        <time>2021-08-21T15:07:11Z</time>
      </trkpt>
      <trkpt lat="46.1947" lon="6.48881">
        <ele>1063.86328125</ele>
        <time>2021-08-21T15:07:12Z</time>
      </trkpt>
      <trkpt lat="46.19456" lon="6.48871">
        <ele>1064.85546875</ele>
        <time>2021-08-21T15:07:20Z</time>
      </trkpt>
      <trkpt lat="46.19454" lon="6.48871">
        <ele>1064.83203125</ele>
        <time>2021-08-21T15:07:21Z</time>
      </trkpt>
      <trkpt lat="46.19426" lon="6.48865">
        <ele>1064.0078125</ele>
        <time>2021-08-21T15:07:33Z</time>
      </trkpt>
      <trkpt lat="46.19423" lon="6.48866">
        <ele>1063.48828125</ele>
        <time>2021-08-21T15:07:34Z</time>
      </trkpt>
      <trkpt lat="46.19392" lon="6.48865">
        <ele>1062.18359375</ele>
        <time>2021-08-21T15:07:43Z</time>
      </trkpt>
      <trkpt lat="46.19372" lon="6.48856">
        <ele>1064.0546875</ele>
        <time>2021-08-21T15:07:48Z</time>
      </trkpt>
      <trkpt lat="46.19369" lon="6.48854">
        <ele>1064.5234375</ele>
        <time>2021-08-21T15:07:49Z</time>
      </trkpt>
      <trkpt lat="46.19365" lon="6.48851">
        <ele>1064.96484375</ele>
        <time>2021-08-21T15:07:50Z</time>
      </trkpt>
      <trkpt lat="46.19342" lon="6.4884">
        <ele>1066.17578125</ele>
        <time>2021-08-21T15:07:55Z</time>
      </trkpt>
      <trkpt lat="46.19337" lon="6.4884">
        <ele>1065.97265625</ele>
        <time>2021-08-21T15:07:56Z</time>
      </trkpt>
      <trkpt lat="46.19333" lon="6.48839">
        <ele>1065.73828125</ele>
        <time>2021-08-21T15:07:57Z</time>
      </trkpt>
      <trkpt lat="46.19324" lon="6.48838">
        <ele>1065.42578125</ele>
        <time>2021-08-21T15:07:59Z</time>
      </trkpt>
      <trkpt lat="46.19255" lon="6.48827">
        <ele>1059.76953125</ele>
        <time>2021-08-21T15:08:11Z</time>
      </trkpt>
      <trkpt lat="46.19236" lon="6.48825">
        <ele>1057.89453125</ele>
        <time>2021-08-21T15:08:14Z</time>
      </trkpt>
      <trkpt lat="46.19165" lon="6.4879">
        <ele>1059.96484375</ele>
        <time>2021-08-21T15:08:25Z</time>
      </trkpt>
      <trkpt lat="46.1916" lon="6.48786">
        <ele>1060.8046875</ele>
        <time>2021-08-21T15:08:26Z</time>
      </trkpt>
      <trkpt lat="46.19117" lon="6.48766">
        <ele>1061.81640625</ele>
        <time>2021-08-21T15:08:34Z</time>
      </trkpt>
      <trkpt lat="46.19106" lon="6.4876">
        <ele>1062.1484375</ele>
        <time>2021-08-21T15:08:36Z</time>
      </trkpt>
      <trkpt lat="46.19088" lon="6.48753">
        <ele>1061.68359375</ele>
        <time>2021-08-21T15:08:39Z</time>
      </trkpt>
      <trkpt lat="46.19082" lon="6.48749">
        <ele>1062.05859375</ele>
        <time>2021-08-21T15:08:40Z</time>
      </trkpt>
      <trkpt lat="46.1906" lon="6.48736">
        <ele>1062.91015625</ele>
        <time>2021-08-21T15:08:44Z</time>
      </trkpt>
      <trkpt lat="46.19012" lon="6.48716">
        <ele>1062.99609375</ele>
        <time>2021-08-21T15:08:53Z</time>
      </trkpt>
      <trkpt lat="46.19007" lon="6.48715">
        <ele>1062.546875</ele>
        <time>2021-08-21T15:08:54Z</time>
      </trkpt>
      <trkpt lat="46.18967" lon="6.48713">
        <ele>1056.39453125</ele>
        <time>2021-08-21T15:09:00Z</time>
      </trkpt>
      <trkpt lat="46.18959" lon="6.48711">
        <ele>1055.7734375</ele>
        <time>2021-08-21T15:09:01Z</time>
      </trkpt>
      <trkpt lat="46.18951" lon="6.48708">
        <ele>1055.66015625</ele>
        <time>2021-08-21T15:09:02Z</time>
      </trkpt>
      <trkpt lat="46.18854" lon="6.48661">
        <ele>1060.0078125</ele>
        <time>2021-08-21T15:09:16Z</time>
      </trkpt>
      <trkpt lat="46.18841" lon="6.48654">
        <ele>1061.984375</ele>
        <time>2021-08-21T15:09:18Z</time>
      </trkpt>
      <trkpt lat="46.18833" lon="6.48653">
        <ele>1062.60546875</ele>
        <time>2021-08-21T15:09:19Z</time>
      </trkpt>
      <trkpt lat="46.18826" lon="6.48653">
        <ele>1062.9453125</ele>
        <time>2021-08-21T15:09:20Z</time>
      </trkpt>
      <trkpt lat="46.18818" lon="6.48655">
        <ele>1063.84375</ele>
        <time>2021-08-21T15:09:21Z</time>
      </trkpt>
      <trkpt lat="46.1881" lon="6.48656">
        <ele>1064.99609375</ele>
        <time>2021-08-21T15:09:22Z</time>
      </trkpt>
      <trkpt lat="46.18802" lon="6.48655">
        <ele>1066.296875</ele>
        <time>2021-08-21T15:09:23Z</time>
      </trkpt>
      <trkpt lat="46.18795" lon="6.48654">
        <ele>1067.71484375</ele>
        <time>2021-08-21T15:09:24Z</time>
      </trkpt>
      <trkpt lat="46.18745" lon="6.48637">
        <ele>1075.16796875</ele>
        <time>2021-08-21T15:09:32Z</time>
      </trkpt>
      <trkpt lat="46.1874" lon="6.48637">
        <ele>1075.765625</ele>
        <time>2021-08-21T15:09:33Z</time>
      </trkpt>
      <trkpt lat="46.18731" lon="6.48637">
        <ele>1076.84765625</ele>
        <time>2021-08-21T15:09:35Z</time>
      </trkpt>
      <trkpt lat="46.18727" lon="6.48636">
        <ele>1077.13671875</ele>
        <time>2021-08-21T15:09:36Z</time>
      </trkpt>
      <trkpt lat="46.18672" lon="6.4863">
        <ele>1078.8828125</ele>
        <time>2021-08-21T15:09:49Z</time>
      </trkpt>
      <trkpt lat="46.18638" lon="6.48642">
        <ele>1080.0859375</ele>
        <time>2021-08-21T15:10:01Z</time>
      </trkpt>
      <trkpt lat="46.18613" lon="6.48649">
        <ele>1079.41796875</ele>
        <time>2021-08-21T15:10:11Z</time>
      </trkpt>
      <trkpt lat="46.18579" lon="6.48661">
        <ele>1077.3515625</ele>
        <time>2021-08-21T15:10:23Z</time>
      </trkpt>
      <trkpt lat="46.18526" lon="6.48675">
        <ele>1075.015625</ele>
        <time>2021-08-21T15:10:32Z</time>
      </trkpt>
      <trkpt lat="46.18463" lon="6.48682">
        <ele>1070.4453125</ele>
        <time>2021-08-21T15:10:40Z</time>
      </trkpt>
      <trkpt lat="46.18456" lon="6.48681">
        <ele>1069.60546875</ele>
        <time>2021-08-21T15:10:41Z</time>
      </trkpt>
      <trkpt lat="46.18449" lon="6.48679">
        <ele>1068.71484375</ele>
        <time>2021-08-21T15:10:42Z</time>
      </trkpt>
      <trkpt lat="46.18442" lon="6.48676">
        <ele>1067.76953125</ele>
        <time>2021-08-21T15:10:43Z</time>
      </trkpt>
      <trkpt lat="46.18436" lon="6.48672">
        <ele>1066.80078125</ele>
        <time>2021-08-21T15:10:44Z</time>
      </trkpt>
      <trkpt lat="46.1843" lon="6.48668">
        <ele>1065.85546875</ele>
        <time>2021-08-21T15:10:45Z</time>
      </trkpt>
      <trkpt lat="46.18423" lon="6.48665">
        <ele>1064.92578125</ele>
        <time>2021-08-21T15:10:46Z</time>
      </trkpt>
      <trkpt lat="46.18389" lon="6.4865">
        <ele>1061.703125</ele>
        <time>2021-08-21T15:10:51Z</time>
      </trkpt>
      <trkpt lat="46.18382" lon="6.48648">
        <ele>1061.046875</ele>
        <time>2021-08-21T15:10:52Z</time>
      </trkpt>
      <trkpt lat="46.18375" lon="6.48649">
        <ele>1060.1640625</ele>
        <time>2021-08-21T15:10:53Z</time>
      </trkpt>
      <trkpt lat="46.18369" lon="6.48651">
        <ele>1059.22265625</ele>
        <time>2021-08-21T15:10:54Z</time>
      </trkpt>
      <trkpt lat="46.18363" lon="6.48656">
        <ele>1058.2890625</ele>
        <time>2021-08-21T15:10:55Z</time>
      </trkpt>
      <trkpt lat="46.18357" lon="6.48662">
        <ele>1057.54296875</ele>
        <time>2021-08-21T15:10:56Z</time>
      </trkpt>
      <trkpt lat="46.18352" lon="6.48667">
        <ele>1057.0390625</ele>
        <time>2021-08-21T15:10:57Z</time>
      </trkpt>
      <trkpt lat="46.18346" lon="6.48671">
        <ele>1056.234375</ele>
        <time>2021-08-21T15:10:58Z</time>
      </trkpt>
      <trkpt lat="46.18339" lon="6.48674">
        <ele>1055.2890625</ele>
        <time>2021-08-21T15:10:59Z</time>
      </trkpt>
      <trkpt lat="46.18314" lon="6.48683">
        <ele>1052.1328125</ele>
        <time>2021-08-21T15:11:02Z</time>
      </trkpt>
      <trkpt lat="46.18299" lon="6.48687">
        <ele>1050.2265625</ele>
        <time>2021-08-21T15:11:04Z</time>
      </trkpt>
      <trkpt lat="46.18292" lon="6.48688">
        <ele>1049.01953125</ele>
        <time>2021-08-21T15:11:05Z</time>
      </trkpt>
      <trkpt lat="46.18285" lon="6.48688">
        <ele>1047.80078125</ele>
        <time>2021-08-21T15:11:06Z</time>
      </trkpt>
      <trkpt lat="46.18279" lon="6.48687">
        <ele>1046.61328125</ele>
        <time>2021-08-21T15:11:07Z</time>
      </trkpt>
      <trkpt lat="46.18265" lon="6.48684">
        <ele>1043.98046875</ele>
        <time>2021-08-21T15:11:09Z</time>
      </trkpt>
      <trkpt lat="46.1824" lon="6.48679">
        <ele>1039.703125</ele>
        <time>2021-08-21T15:11:12Z</time>
      </trkpt>
      <trkpt lat="46.18232" lon="6.48678">
        <ele>1038.13671875</ele>
        <time>2021-08-21T15:11:13Z</time>
      </trkpt>
      <trkpt lat="46.18211" lon="6.48679">
        <ele>1034.71875</ele>
        <time>2021-08-21T15:11:16Z</time>
      </trkpt>
      <trkpt lat="46.1819" lon="6.48683">
        <ele>1032.703125</ele>
        <time>2021-08-21T15:11:19Z</time>
      </trkpt>
      <trkpt lat="46.18174" lon="6.48684">
        <ele>1031.7890625</ele>
        <time>2021-08-21T15:11:21Z</time>
      </trkpt>
      <trkpt lat="46.18167" lon="6.48684">
        <ele>1031.55859375</ele>
        <time>2021-08-21T15:11:22Z</time>
      </trkpt>
      <trkpt lat="46.18157" lon="6.48685">
        <ele>1031.17578125</ele>
        <time>2021-08-21T15:11:24Z</time>
      </trkpt>
      <trkpt lat="46.18153" lon="6.48685">
        <ele>1030.48828125</ele>
        <time>2021-08-21T15:11:25Z</time>
      </trkpt>
      <trkpt lat="46.18144" lon="6.48684">
        <ele>1028.38671875</ele>
        <time>2021-08-21T15:11:27Z</time>
      </trkpt>
      <trkpt lat="46.18133" lon="6.48679">
        <ele>1025.4375</ele>
        <time>2021-08-21T15:11:29Z</time>
      </trkpt>
      <trkpt lat="46.18118" lon="6.48667">
        <ele>1020.16015625</ele>
        <time>2021-08-21T15:11:32Z</time>
      </trkpt>
      <trkpt lat="46.18113" lon="6.48665">
        <ele>1018.875</ele>
        <time>2021-08-21T15:11:33Z</time>
      </trkpt>
      <trkpt lat="46.1811" lon="6.48663">
        <ele>1017.7734375</ele>
        <time>2021-08-21T15:11:34Z</time>
      </trkpt>
      <trkpt lat="46.18107" lon="6.48661">
        <ele>1016.7734375</ele>
        <time>2021-08-21T15:11:35Z</time>
      </trkpt>
      <trkpt lat="46.18103" lon="6.48658">
        <ele>1015.74609375</ele>
        <time>2021-08-21T15:11:36Z</time>
      </trkpt>
      <trkpt lat="46.18092" lon="6.48654">
        <ele>1011.6875</ele>
        <time>2021-08-21T15:11:39Z</time>
      </trkpt>
      <trkpt lat="46.18079" lon="6.48651">
        <ele>1007.46875</ele>
        <time>2021-08-21T15:11:42Z</time>
      </trkpt>
      <trkpt lat="46.18071" lon="6.48649">
        <ele>1005.30078125</ele>
        <time>2021-08-21T15:11:44Z</time>
      </trkpt>
      <trkpt lat="46.18067" lon="6.48649">
        <ele>1004.3828125</ele>
        <time>2021-08-21T15:11:45Z</time>
      </trkpt>
      <trkpt lat="46.18047" lon="6.48667">
        <ele>1000.3046875</ele>
        <time>2021-08-21T15:11:49Z</time>
      </trkpt>
      <trkpt lat="46.18043" lon="6.48676">
        <ele>999.66015625</ele>
        <time>2021-08-21T15:11:50Z</time>
      </trkpt>
      <trkpt lat="46.18038" lon="6.48683">
        <ele>998.30859375</ele>
        <time>2021-08-21T15:11:51Z</time>
      </trkpt>
      <trkpt lat="46.1803" lon="6.4869">
        <ele>995.6953125</ele>
        <time>2021-08-21T15:11:52Z</time>
      </trkpt>
      <trkpt lat="46.18008" lon="6.48702">
        <ele>988.3671875</ele>
        <time>2021-08-21T15:11:54Z</time>
      </trkpt>
      <trkpt lat="46.17981" lon="6.48721">
        <ele>980.24609375</ele>
        <time>2021-08-21T15:11:57Z</time>
      </trkpt>
      <trkpt lat="46.17959" lon="6.48739">
        <ele>973.28125</ele>
        <time>2021-08-21T15:12:00Z</time>
      </trkpt>
      <trkpt lat="46.17952" lon="6.48745">
        <ele>971.35546875</ele>
        <time>2021-08-21T15:12:01Z</time>
      </trkpt>
      <trkpt lat="46.17944" lon="6.48748">
        <ele>969.65625</ele>
        <time>2021-08-21T15:12:02Z</time>
      </trkpt>
      <trkpt lat="46.17936" lon="6.48751">
        <ele>967.890625</ele>
        <time>2021-08-21T15:12:03Z</time>
      </trkpt>
      <trkpt lat="46.17928" lon="6.48751">
        <ele>966.0234375</ele>
        <time>2021-08-21T15:12:04Z</time>
      </trkpt>
      <trkpt lat="46.17919" lon="6.4875">
        <ele>964.1484375</ele>
        <time>2021-08-21T15:12:05Z</time>
      </trkpt>
      <trkpt lat="46.17911" lon="6.48748">
        <ele>962.30859375</ele>
        <time>2021-08-21T15:12:06Z</time>
      </trkpt>
      <trkpt lat="46.17896" lon="6.48742">
        <ele>957.96875</ele>
        <time>2021-08-21T15:12:08Z</time>
      </trkpt>
      <trkpt lat="46.1789" lon="6.48737">
        <ele>956.19140625</ele>
        <time>2021-08-21T15:12:09Z</time>
      </trkpt>
      <trkpt lat="46.17885" lon="6.48732">
        <ele>954.86328125</ele>
        <time>2021-08-21T15:12:10Z</time>
      </trkpt>
      <trkpt lat="46.17883" lon="6.48724">
        <ele>954.3125</ele>
        <time>2021-08-21T15:12:11Z</time>
      </trkpt>
      <trkpt lat="46.17881" lon="6.48716">
        <ele>953.9765625</ele>
        <time>2021-08-21T15:12:12Z</time>
      </trkpt>
      <trkpt lat="46.17878" lon="6.48709">
        <ele>952.875</ele>
        <time>2021-08-21T15:12:13Z</time>
      </trkpt>
      <trkpt lat="46.17875" lon="6.487">
        <ele>951.82421875</ele>
        <time>2021-08-21T15:12:14Z</time>
      </trkpt>
      <trkpt lat="46.17871" lon="6.48691">
        <ele>950.5546875</ele>
        <time>2021-08-21T15:12:15Z</time>
      </trkpt>
      <trkpt lat="46.1787" lon="6.4868">
        <ele>950.34765625</ele>
        <time>2021-08-21T15:12:16Z</time>
      </trkpt>
      <trkpt lat="46.17869" lon="6.4867">
        <ele>950.2265625</ele>
        <time>2021-08-21T15:12:17Z</time>
      </trkpt>
      <trkpt lat="46.17866" lon="6.4866">
        <ele>949.828125</ele>
        <time>2021-08-21T15:12:18Z</time>
      </trkpt>
      <trkpt lat="46.17862" lon="6.48652">
        <ele>949.6171875</ele>
        <time>2021-08-21T15:12:19Z</time>
      </trkpt>
      <trkpt lat="46.17858" lon="6.48645">
        <ele>949.0390625</ele>
        <time>2021-08-21T15:12:20Z</time>
      </trkpt>
      <trkpt lat="46.17843" lon="6.48629">
        <ele>946.77734375</ele>
        <time>2021-08-21T15:12:23Z</time>
      </trkpt>
      <trkpt lat="46.17838" lon="6.48628">
        <ele>945.828125</ele>
        <time>2021-08-21T15:12:24Z</time>
      </trkpt>
      <trkpt lat="46.17828" lon="6.48625">
        <ele>943.5859375</ele>
        <time>2021-08-21T15:12:26Z</time>
      </trkpt>
      <trkpt lat="46.17822" lon="6.48622">
        <ele>942.15234375</ele>
        <time>2021-08-21T15:12:27Z</time>
      </trkpt>
      <trkpt lat="46.17816" lon="6.48616">
        <ele>940.48046875</ele>
        <time>2021-08-21T15:12:28Z</time>
      </trkpt>
      <trkpt lat="46.1781" lon="6.48607">
        <ele>939.23046875</ele>
        <time>2021-08-21T15:12:29Z</time>
      </trkpt>
      <trkpt lat="46.17804" lon="6.48597">
        <ele>937.53515625</ele>
        <time>2021-08-21T15:12:30Z</time>
      </trkpt>
      <trkpt lat="46.17798" lon="6.48586">
        <ele>935.703125</ele>
        <time>2021-08-21T15:12:31Z</time>
      </trkpt>
      <trkpt lat="46.17792" lon="6.48574">
        <ele>933.8515625</ele>
        <time>2021-08-21T15:12:32Z</time>
      </trkpt>
      <trkpt lat="46.17787" lon="6.48562">
        <ele>931.69921875</ele>
        <time>2021-08-21T15:12:33Z</time>
      </trkpt>
      <trkpt lat="46.17783" lon="6.4855">
        <ele>929.91796875</ele>
        <time>2021-08-21T15:12:34Z</time>
      </trkpt>
      <trkpt lat="46.17781" lon="6.48537">
        <ele>928.453125</ele>
        <time>2021-08-21T15:12:35Z</time>
      </trkpt>
      <trkpt lat="46.17778" lon="6.48523">
        <ele>927.12109375</ele>
        <time>2021-08-21T15:12:36Z</time>
      </trkpt>
      <trkpt lat="46.17777" lon="6.48509">
        <ele>926.46875</ele>
        <time>2021-08-21T15:12:37Z</time>
      </trkpt>
      <trkpt lat="46.17776" lon="6.48495">
        <ele>926.2890625</ele>
        <time>2021-08-21T15:12:38Z</time>
      </trkpt>
      <trkpt lat="46.17777" lon="6.48482">
        <ele>925.9921875</ele>
        <time>2021-08-21T15:12:39Z</time>
      </trkpt>
      <trkpt lat="46.1778" lon="6.48468">
        <ele>926.328125</ele>
        <time>2021-08-21T15:12:40Z</time>
      </trkpt>
      <trkpt lat="46.17784" lon="6.48455">
        <ele>926.38671875</ele>
        <time>2021-08-21T15:12:41Z</time>
      </trkpt>
      <trkpt lat="46.17787" lon="6.48442">
        <ele>926.25390625</ele>
        <time>2021-08-21T15:12:42Z</time>
      </trkpt>
      <trkpt lat="46.17788" lon="6.48431">
        <ele>926.1484375</ele>
        <time>2021-08-21T15:12:43Z</time>
      </trkpt>
      <trkpt lat="46.17787" lon="6.4842">
        <ele>925.26953125</ele>
        <time>2021-08-21T15:12:44Z</time>
      </trkpt>
      <trkpt lat="46.17785" lon="6.48408">
        <ele>923.765625</ele>
        <time>2021-08-21T15:12:45Z</time>
      </trkpt>
      <trkpt lat="46.17782" lon="6.48398">
        <ele>922.0234375</ele>
        <time>2021-08-21T15:12:46Z</time>
      </trkpt>
      <trkpt lat="46.17776" lon="6.4839">
        <ele>919.34765625</ele>
        <time>2021-08-21T15:12:47Z</time>
      </trkpt>
      <trkpt lat="46.17769" lon="6.48383">
        <ele>915.7109375</ele>
        <time>2021-08-21T15:12:48Z</time>
      </trkpt>
      <trkpt lat="46.17761" lon="6.48378">
        <ele>913.5859375</ele>
        <time>2021-08-21T15:12:49Z</time>
      </trkpt>
      <trkpt lat="46.17753" lon="6.48373">
        <ele>910.8125</ele>
        <time>2021-08-21T15:12:50Z</time>
      </trkpt>
      <trkpt lat="46.17745" lon="6.4837">
        <ele>907.58984375</ele>
        <time>2021-08-21T15:12:51Z</time>
      </trkpt>
      <trkpt lat="46.17732" lon="6.4836">
        <ele>903.640625</ele>
        <time>2021-08-21T15:12:53Z</time>
      </trkpt>
      <trkpt lat="46.17728" lon="6.48353">
        <ele>903.25</ele>
        <time>2021-08-21T15:12:54Z</time>
      </trkpt>
      <trkpt lat="46.17725" lon="6.48344">
        <ele>903.05078125</ele>
        <time>2021-08-21T15:12:55Z</time>
      </trkpt>
      <trkpt lat="46.17722" lon="6.48335">
        <ele>903.265625</ele>
        <time>2021-08-21T15:12:56Z</time>
      </trkpt>
      <trkpt lat="46.17721" lon="6.48324">
        <ele>903.453125</ele>
        <time>2021-08-21T15:12:57Z</time>
      </trkpt>
      <trkpt lat="46.17717" lon="6.483">
        <ele>901.76171875</ele>
        <time>2021-08-21T15:12:59Z</time>
      </trkpt>
      <trkpt lat="46.17716" lon="6.48286">
        <ele>900.71875</ele>
        <time>2021-08-21T15:13:00Z</time>
      </trkpt>
      <trkpt lat="46.17716" lon="6.48274">
        <ele>900.16796875</ele>
        <time>2021-08-21T15:13:01Z</time>
      </trkpt>
      <trkpt lat="46.17716" lon="6.48264">
        <ele>899.43359375</ele>
        <time>2021-08-21T15:13:02Z</time>
      </trkpt>
      <trkpt lat="46.17715" lon="6.48256">
        <ele>898.1015625</ele>
        <time>2021-08-21T15:13:03Z</time>
      </trkpt>
      <trkpt lat="46.17713" lon="6.48248">
        <ele>896.57421875</ele>
        <time>2021-08-21T15:13:04Z</time>
      </trkpt>
      <trkpt lat="46.17712" lon="6.48244">
        <ele>895.67578125</ele>
        <time>2021-08-21T15:13:05Z</time>
      </trkpt>
      <trkpt lat="46.17711" lon="6.48244">
        <ele>895.07421875</ele>
        <time>2021-08-21T15:13:06Z</time>
      </trkpt>
      <trkpt lat="46.17712" lon="6.48251">
        <ele>896.3515625</ele>
        <time>2021-08-21T15:13:08Z</time>
      </trkpt>
      <trkpt lat="46.17713" lon="6.48255">
        <ele>897.15625</ele>
        <time>2021-08-21T15:13:09Z</time>
      </trkpt>
      <trkpt lat="46.17714" lon="6.48258">
        <ele>897.9296875</ele>
        <time>2021-08-21T15:13:10Z</time>
      </trkpt>
      <trkpt lat="46.17716" lon="6.48282">
        <ele>900.52734375</ele>
        <time>2021-08-21T15:13:17Z</time>
      </trkpt>
      <trkpt lat="46.17716" lon="6.48286">
        <ele>900.33984375</ele>
        <time>2021-08-21T15:13:18Z</time>
      </trkpt>
      <trkpt lat="46.17715" lon="6.48291">
        <ele>899.91796875</ele>
        <time>2021-08-21T15:13:19Z</time>
      </trkpt>
      <trkpt lat="46.17711" lon="6.48314">
        <ele>898.31640625</ele>
        <time>2021-08-21T15:13:22Z</time>
      </trkpt>
      <trkpt lat="46.1771" lon="6.48322">
        <ele>897.50390625</ele>
        <time>2021-08-21T15:13:23Z</time>
      </trkpt>
      <trkpt lat="46.17707" lon="6.48331">
        <ele>895.78515625</ele>
        <time>2021-08-21T15:13:24Z</time>
      </trkpt>
      <trkpt lat="46.17702" lon="6.48349">
        <ele>890.625</ele>
        <time>2021-08-21T15:13:26Z</time>
      </trkpt>
      <trkpt lat="46.177" lon="6.48357">
        <ele>888.3515625</ele>
        <time>2021-08-21T15:13:27Z</time>
      </trkpt>
      <trkpt lat="46.17698" lon="6.48365">
        <ele>886.0078125</ele>
        <time>2021-08-21T15:13:28Z</time>
      </trkpt>
      <trkpt lat="46.17696" lon="6.48372">
        <ele>884.15625</ele>
        <time>2021-08-21T15:13:29Z</time>
      </trkpt>
      <trkpt lat="46.17697" lon="6.48378">
        <ele>883.25390625</ele>
        <time>2021-08-21T15:13:30Z</time>
      </trkpt>
      <trkpt lat="46.17699" lon="6.48382">
        <ele>883.515625</ele>
        <time>2021-08-21T15:13:31Z</time>
      </trkpt>
      <trkpt lat="46.17703" lon="6.48385">
        <ele>884.81640625</ele>
        <time>2021-08-21T15:13:32Z</time>
      </trkpt>
      <trkpt lat="46.17707" lon="6.48388">
        <ele>886.51953125</ele>
        <time>2021-08-21T15:13:33Z</time>
      </trkpt>
      <trkpt lat="46.17712" lon="6.4839">
        <ele>888.375</ele>
        <time>2021-08-21T15:13:34Z</time>
      </trkpt>
      <trkpt lat="46.17719" lon="6.48396">
        <ele>891.43359375</ele>
        <time>2021-08-21T15:13:36Z</time>
      </trkpt>
      <trkpt lat="46.17722" lon="6.48401">
        <ele>892.72265625</ele>
        <time>2021-08-21T15:13:37Z</time>
      </trkpt>
      <trkpt lat="46.17726" lon="6.48407">
        <ele>894.07421875</ele>
        <time>2021-08-21T15:13:38Z</time>
      </trkpt>
      <trkpt lat="46.17728" lon="6.48411">
        <ele>894.8984375</ele>
        <time>2021-08-21T15:13:39Z</time>
      </trkpt>
      <trkpt lat="46.17729" lon="6.48415">
        <ele>895.390625</ele>
        <time>2021-08-21T15:13:40Z</time>
      </trkpt>
      <trkpt lat="46.1773" lon="6.4842">
        <ele>895.8359375</ele>
        <time>2021-08-21T15:13:41Z</time>
      </trkpt>
      <trkpt lat="46.17731" lon="6.48427">
        <ele>896.421875</ele>
        <time>2021-08-21T15:13:42Z</time>
      </trkpt>
      <trkpt lat="46.17732" lon="6.48434">
        <ele>896.765625</ele>
        <time>2021-08-21T15:13:43Z</time>
      </trkpt>
      <trkpt lat="46.17731" lon="6.48438">
        <ele>896.58984375</ele>
        <time>2021-08-21T15:13:44Z</time>
      </trkpt>
      <trkpt lat="46.1773" lon="6.48442">
        <ele>896.3828125</ele>
        <time>2021-08-21T15:13:45Z</time>
      </trkpt>
      <trkpt lat="46.17729" lon="6.48446">
        <ele>896.0546875</ele>
        <time>2021-08-21T15:13:46Z</time>
      </trkpt>
      <trkpt lat="46.17728" lon="6.48448">
        <ele>895.8515625</ele>
        <time>2021-08-21T15:13:47Z</time>
      </trkpt>
      <trkpt lat="46.17728" lon="6.48452">
        <ele>895.79296875</ele>
        <time>2021-08-21T15:13:48Z</time>
      </trkpt>
      <trkpt lat="46.1772" lon="6.48483">
        <ele>893.61328125</ele>
        <time>2021-08-21T15:13:55Z</time>
      </trkpt>
      <trkpt lat="46.17714" lon="6.48522">
        <ele>892.5703125</ele>
        <time>2021-08-21T15:14:01Z</time>
      </trkpt>
      <trkpt lat="46.17713" lon="6.48529">
        <ele>892.70703125</ele>
        <time>2021-08-21T15:14:02Z</time>
      </trkpt>
      <trkpt lat="46.17713" lon="6.48536">
        <ele>893.109375</ele>
        <time>2021-08-21T15:14:03Z</time>
      </trkpt>
      <trkpt lat="46.17712" lon="6.4855">
        <ele>893.89453125</ele>
        <time>2021-08-21T15:14:05Z</time>
      </trkpt>
      <trkpt lat="46.17712" lon="6.48557">
        <ele>893.70703125</ele>
        <time>2021-08-21T15:14:06Z</time>
      </trkpt>
      <trkpt lat="46.17712" lon="6.48563">
        <ele>893.90234375</ele>
        <time>2021-08-21T15:14:07Z</time>
      </trkpt>
      <trkpt lat="46.17716" lon="6.48595">
        <ele>897.546875</ele>
        <time>2021-08-21T15:14:15Z</time>
      </trkpt>
      <trkpt lat="46.17715" lon="6.48598">
        <ele>897.04296875</ele>
        <time>2021-08-21T15:14:16Z</time>
      </trkpt>
      <trkpt lat="46.17706" lon="6.48619">
        <ele>891.09375</ele>
        <time>2021-08-21T15:14:21Z</time>
      </trkpt>
      <trkpt lat="46.17706" lon="6.48624">
        <ele>891.47265625</ele>
        <time>2021-08-21T15:14:22Z</time>
      </trkpt>
      <trkpt lat="46.1771" lon="6.48642">
        <ele>892.83203125</ele>
        <time>2021-08-21T15:14:27Z</time>
      </trkpt>
      <trkpt lat="46.17716" lon="6.48675">
        <ele>893.82421875</ele>
        <time>2021-08-21T15:14:35Z</time>
      </trkpt>
      <trkpt lat="46.17718" lon="6.48689">
        <ele>892.55078125</ele>
        <time>2021-08-21T15:14:38Z</time>
      </trkpt>
      <trkpt lat="46.17718" lon="6.48694">
        <ele>891.96875</ele>
        <time>2021-08-21T15:14:39Z</time>
      </trkpt>
      <trkpt lat="46.17718" lon="6.48714">
        <ele>887.9375</ele>
        <time>2021-08-21T15:14:42Z</time>
      </trkpt>
      <trkpt lat="46.17718" lon="6.48719">
        <ele>887.05859375</ele>
        <time>2021-08-21T15:14:43Z</time>
      </trkpt>
      <trkpt lat="46.17718" lon="6.48721">
        <ele>886.828125</ele>
        <time>2021-08-21T15:14:44Z</time>
      </trkpt>
      <trkpt lat="46.17723" lon="6.48726">
        <ele>888.04296875</ele>
        <time>2021-08-21T15:14:52Z</time>
      </trkpt>
      <trkpt lat="46.17722" lon="6.4875">
        <ele>883.2109375</ele>
        <time>2021-08-21T15:14:56Z</time>
      </trkpt>
      <trkpt lat="46.17727" lon="6.48764">
        <ele>882.62890625</ele>
        <time>2021-08-21T15:14:59Z</time>
      </trkpt>
      <trkpt lat="46.17734" lon="6.4878">
        <ele>882.62109375</ele>
        <time>2021-08-21T15:15:02Z</time>
      </trkpt>
      <trkpt lat="46.17737" lon="6.48799">
        <ele>879.74609375</ele>
        <time>2021-08-21T15:15:06Z</time>
      </trkpt>
      <trkpt lat="46.17737" lon="6.48802">
        <ele>879.09765625</ele>
        <time>2021-08-21T15:15:07Z</time>
      </trkpt>
      <trkpt lat="46.17737" lon="6.48811">
        <ele>876.9921875</ele>
        <time>2021-08-21T15:15:11Z</time>
      </trkpt>
      <trkpt lat="46.17731" lon="6.48834">
        <ele>869.234375</ele>
        <time>2021-08-21T15:15:19Z</time>
      </trkpt>
      <trkpt lat="46.1772" lon="6.48848">
        <ele>860.5390625</ele>
        <time>2021-08-21T15:15:22Z</time>
      </trkpt>
      <trkpt lat="46.17717" lon="6.48858">
        <ele>856.484375</ele>
        <time>2021-08-21T15:15:24Z</time>
      </trkpt>
      <trkpt lat="46.17717" lon="6.48863">
        <ele>855.07421875</ele>
        <time>2021-08-21T15:15:25Z</time>
      </trkpt>
      <trkpt lat="46.17718" lon="6.48865">
        <ele>854.91015625</ele>
        <time>2021-08-21T15:15:26Z</time>
      </trkpt>
      <trkpt lat="46.17727" lon="6.48878">
        <ele>856.2890625</ele>
        <time>2021-08-21T15:15:32Z</time>
      </trkpt>
      <trkpt lat="46.17729" lon="6.48883">
        <ele>856.29296875</ele>
        <time>2021-08-21T15:15:34Z</time>
      </trkpt>
      <trkpt lat="46.17726" lon="6.4889">
        <ele>852.80078125</ele>
        <time>2021-08-21T15:15:38Z</time>
      </trkpt>
      <trkpt lat="46.17721" lon="6.48896">
        <ele>848.23828125</ele>
        <time>2021-08-21T15:15:42Z</time>
      </trkpt>
      <trkpt lat="46.1772" lon="6.48898">
        <ele>847.06640625</ele>
        <time>2021-08-21T15:15:48Z</time>
      </trkpt>
      <trkpt lat="46.17715" lon="6.489">
        <ele>843.1640625</ele>
        <time>2021-08-21T15:16:03Z</time>
      </trkpt>
      <trkpt lat="46.17712" lon="6.48906">
        <ele>839.80859375</ele>
        <time>2021-08-21T15:16:06Z</time>
      </trkpt>
      <trkpt lat="46.17713" lon="6.48911">
        <ele>839.09375</ele>
        <time>2021-08-21T15:16:07Z</time>
      </trkpt>
      <trkpt lat="46.17714" lon="6.48917">
        <ele>838.14453125</ele>
        <time>2021-08-21T15:16:08Z</time>
      </trkpt>
      <trkpt lat="46.17715" lon="6.48924">
        <ele>837.26171875</ele>
        <time>2021-08-21T15:16:09Z</time>
      </trkpt>
      <trkpt lat="46.17715" lon="6.48928">
        <ele>836.21875</ele>
        <time>2021-08-21T15:16:10Z</time>
      </trkpt>
      <trkpt lat="46.17716" lon="6.48933">
        <ele>835.3203125</ele>
        <time>2021-08-21T15:16:11Z</time>
      </trkpt>
      <trkpt lat="46.1772" lon="6.48952">
        <ele>833.50390625</ele>
        <time>2021-08-21T15:16:15Z</time>
      </trkpt>
      <trkpt lat="46.17721" lon="6.48958">
        <ele>833.0078125</ele>
        <time>2021-08-21T15:16:16Z</time>
      </trkpt>
      <trkpt lat="46.17723" lon="6.48964">
        <ele>833.1328125</ele>
        <time>2021-08-21T15:16:17Z</time>
      </trkpt>
      <trkpt lat="46.17727" lon="6.4897">
        <ele>834.44140625</ele>
        <time>2021-08-21T15:16:19Z</time>
      </trkpt>
      <trkpt lat="46.17733" lon="6.48983">
        <ele>835.1796875</ele>
        <time>2021-08-21T15:16:23Z</time>
      </trkpt>
      <trkpt lat="46.17738" lon="6.48998">
        <ele>834.4296875</ele>
        <time>2021-08-21T15:16:26Z</time>
      </trkpt>
      <trkpt lat="46.17745" lon="6.49012">
        <ele>835.08203125</ele>
        <time>2021-08-21T15:16:29Z</time>
      </trkpt>
      <trkpt lat="46.17756" lon="6.49036">
        <ele>836.5</ele>
        <time>2021-08-21T15:16:34Z</time>
      </trkpt>
      <trkpt lat="46.1776" lon="6.49055">
        <ele>834.92578125</ele>
        <time>2021-08-21T15:16:38Z</time>
      </trkpt>
      <trkpt lat="46.17761" lon="6.49061">
        <ele>834.66015625</ele>
        <time>2021-08-21T15:16:39Z</time>
      </trkpt>
      <trkpt lat="46.17759" lon="6.49078">
        <ele>832.22265625</ele>
        <time>2021-08-21T15:16:42Z</time>
      </trkpt>
      <trkpt lat="46.17757" lon="6.49084">
        <ele>830.4296875</ele>
        <time>2021-08-21T15:16:43Z</time>
      </trkpt>
      <trkpt lat="46.17754" lon="6.49091">
        <ele>828.91796875</ele>
        <time>2021-08-21T15:16:44Z</time>
      </trkpt>
      <trkpt lat="46.17751" lon="6.49105">
        <ele>826.25390625</ele>
        <time>2021-08-21T15:16:46Z</time>
      </trkpt>
      <trkpt lat="46.1775" lon="6.49112">
        <ele>825.359375</ele>
        <time>2021-08-21T15:16:47Z</time>
      </trkpt>
      <trkpt lat="46.17746" lon="6.49132">
        <ele>822.0859375</ele>
        <time>2021-08-21T15:16:50Z</time>
      </trkpt>
      <trkpt lat="46.17746" lon="6.49191">
        <ele>817.81640625</ele>
        <time>2021-08-21T15:17:00Z</time>
      </trkpt>
      <trkpt lat="46.17754" lon="6.49281">
        <ele>817.9921875</ele>
        <time>2021-08-21T15:17:16Z</time>
      </trkpt>
      <trkpt lat="46.17776" lon="6.49359">
        <ele>818.19921875</ele>
        <time>2021-08-21T15:17:31Z</time>
      </trkpt>
      <trkpt lat="46.17803" lon="6.494">
        <ele>821.69921875</ele>
        <time>2021-08-21T15:17:42Z</time>
      </trkpt>
      <trkpt lat="46.17827" lon="6.49428">
        <ele>825.5234375</ele>
        <time>2021-08-21T15:17:54Z</time>
      </trkpt>
      <trkpt lat="46.17842" lon="6.49436">
        <ele>828.46875</ele>
        <time>2021-08-21T15:18:02Z</time>
      </trkpt>
      <trkpt lat="46.17866" lon="6.49436">
        <ele>834.4609375</ele>
        <time>2021-08-21T15:18:14Z</time>
      </trkpt>
      <trkpt lat="46.17885" lon="6.49417">
        <ele>839.6484375</ele>
        <time>2021-08-21T15:18:25Z</time>
      </trkpt>
      <trkpt lat="46.179" lon="6.49396">
        <ele>844.25390625</ele>
        <time>2021-08-21T15:18:36Z</time>
      </trkpt>
      <trkpt lat="46.17905" lon="6.49396">
        <ele>845.32421875</ele>
        <time>2021-08-21T15:18:39Z</time>
      </trkpt>
      <trkpt lat="46.17907" lon="6.49396">
        <ele>845.54296875</ele>
        <time>2021-08-21T15:18:40Z</time>
      </trkpt>
      <trkpt lat="46.17914" lon="6.494">
        <ele>847.4453125</ele>
        <time>2021-08-21T15:18:45Z</time>
      </trkpt>
      <trkpt lat="46.17927" lon="6.49411">
        <ele>850.23828125</ele>
        <time>2021-08-21T15:18:55Z</time>
      </trkpt>
      <trkpt lat="46.17942" lon="6.49426">
        <ele>853.73828125</ele>
        <time>2021-08-21T15:19:05Z</time>
      </trkpt>
      <trkpt lat="46.17953" lon="6.49441">
        <ele>856.04296875</ele>
        <time>2021-08-21T15:19:15Z</time>
      </trkpt>
      <trkpt lat="46.17954" lon="6.49443">
        <ele>856.07421875</ele>
        <time>2021-08-21T15:19:16Z</time>
      </trkpt>
      <trkpt lat="46.17955" lon="6.49445">
        <ele>856.2734375</ele>
        <time>2021-08-21T15:19:17Z</time>
      </trkpt>
      <trkpt lat="46.17959" lon="6.4945">
        <ele>857</ele>
        <time>2021-08-21T15:19:20Z</time>
      </trkpt>
      <trkpt lat="46.17971" lon="6.49467">
        <ele>860.04296875</ele>
        <time>2021-08-21T15:19:30Z</time>
      </trkpt>
      <trkpt lat="46.17973" lon="6.49471">
        <ele>860.53125</ele>
        <time>2021-08-21T15:19:32Z</time>
      </trkpt>
      <trkpt lat="46.17975" lon="6.49474">
        <ele>861.13671875</ele>
        <time>2021-08-21T15:19:34Z</time>
      </trkpt>
      <trkpt lat="46.17984" lon="6.49485">
        <ele>863.7265625</ele>
        <time>2021-08-21T15:19:40Z</time>
      </trkpt>
      <trkpt lat="46.17993" lon="6.49498">
        <ele>865.2421875</ele>
        <time>2021-08-21T15:19:47Z</time>
      </trkpt>
      <trkpt lat="46.17993" lon="6.495">
        <ele>865.38671875</ele>
        <time>2021-08-21T15:19:48Z</time>
      </trkpt>
      <trkpt lat="46.17995" lon="6.49502">
        <ele>865.5859375</ele>
        <time>2021-08-21T15:19:49Z</time>
      </trkpt>
      <trkpt lat="46.17996" lon="6.49504">
        <ele>865.6796875</ele>
        <time>2021-08-21T15:19:50Z</time>
      </trkpt>
      <trkpt lat="46.18012" lon="6.4953">
        <ele>866.625</ele>
        <time>2021-08-21T15:20:03Z</time>
      </trkpt>
      <trkpt lat="46.18022" lon="6.49553">
        <ele>863.89453125</ele>
        <time>2021-08-21T15:20:14Z</time>
      </trkpt>
      <trkpt lat="46.18023" lon="6.49556">
        <ele>863.62890625</ele>
        <time>2021-08-21T15:20:15Z</time>
      </trkpt>
      <trkpt lat="46.18024" lon="6.49558">
        <ele>863.234375</ele>
        <time>2021-08-21T15:20:16Z</time>
      </trkpt>
      <trkpt lat="46.18025" lon="6.49561">
        <ele>862.9765625</ele>
        <time>2021-08-21T15:20:17Z</time>
      </trkpt>
      <trkpt lat="46.18026" lon="6.49563">
        <ele>862.73046875</ele>
        <time>2021-08-21T15:20:18Z</time>
      </trkpt>
      <trkpt lat="46.18027" lon="6.49565">
        <ele>862.42578125</ele>
        <time>2021-08-21T15:20:19Z</time>
      </trkpt>
      <trkpt lat="46.18037" lon="6.49583">
        <ele>862.4140625</ele>
        <time>2021-08-21T15:20:28Z</time>
      </trkpt>
      <trkpt lat="46.18043" lon="6.4959">
        <ele>863.12109375</ele>
        <time>2021-08-21T15:20:32Z</time>
      </trkpt>
      <trkpt lat="46.18054" lon="6.49607">
        <ele>862.78515625</ele>
        <time>2021-08-21T15:20:42Z</time>
      </trkpt>
      <trkpt lat="46.18068" lon="6.49622">
        <ele>864.2890625</ele>
        <time>2021-08-21T15:20:53Z</time>
      </trkpt>
      <trkpt lat="46.18085" lon="6.49624">
        <ele>872.40234375</ele>
        <time>2021-08-21T15:21:02Z</time>
      </trkpt>
      <trkpt lat="46.18098" lon="6.4961">
        <ele>884.38671875</ele>
        <time>2021-08-21T15:21:11Z</time>
      </trkpt>
      <trkpt lat="46.18101" lon="6.49598">
        <ele>890.37109375</ele>
        <time>2021-08-21T15:21:17Z</time>
      </trkpt>
      <trkpt lat="46.18104" lon="6.49596">
        <ele>891.81640625</ele>
        <time>2021-08-21T15:21:19Z</time>
      </trkpt>
      <trkpt lat="46.18125" lon="6.49582">
        <ele>900.66015625</ele>
        <time>2021-08-21T15:21:32Z</time>
      </trkpt>
      <trkpt lat="46.18147" lon="6.49585">
        <ele>904.0234375</ele>
        <time>2021-08-21T15:21:45Z</time>
      </trkpt>
      <trkpt lat="46.1815" lon="6.49588">
        <ele>903.9140625</ele>
        <time>2021-08-21T15:21:47Z</time>
      </trkpt>
      <trkpt lat="46.18158" lon="6.49594">
        <ele>904.2265625</ele>
        <time>2021-08-21T15:21:52Z</time>
      </trkpt>
      <trkpt lat="46.18183" lon="6.49602">
        <ele>909.5234375</ele>
        <time>2021-08-21T15:22:07Z</time>
      </trkpt>
      <trkpt lat="46.18197" lon="6.49603">
        <ele>913.33984375</ele>
        <time>2021-08-21T15:22:16Z</time>
      </trkpt>
      <trkpt lat="46.18212" lon="6.49599">
        <ele>918.04296875</ele>
        <time>2021-08-21T15:22:24Z</time>
      </trkpt>
      <trkpt lat="46.18219" lon="6.496">
        <ele>920.0625</ele>
        <time>2021-08-21T15:22:28Z</time>
      </trkpt>
      <trkpt lat="46.18239" lon="6.49608">
        <ele>925.7109375</ele>
        <time>2021-08-21T15:22:39Z</time>
      </trkpt>
      <trkpt lat="46.18249" lon="6.49616">
        <ele>929.25</ele>
        <time>2021-08-21T15:22:45Z</time>
      </trkpt>
      <trkpt lat="46.18273" lon="6.49622">
        <ele>934.54296875</ele>
        <time>2021-08-21T15:22:56Z</time>
      </trkpt>
      <trkpt lat="46.18291" lon="6.49616">
        <ele>937.32421875</ele>
        <time>2021-08-21T15:23:06Z</time>
      </trkpt>
      <trkpt lat="46.18305" lon="6.49613">
        <ele>939.91015625</ele>
        <time>2021-08-21T15:23:14Z</time>
      </trkpt>
      <trkpt lat="46.18316" lon="6.49609">
        <ele>942.08984375</ele>
        <time>2021-08-21T15:23:21Z</time>
      </trkpt>
      <trkpt lat="46.18341" lon="6.49608">
        <ele>946.03515625</ele>
        <time>2021-08-21T15:23:35Z</time>
      </trkpt>
      <trkpt lat="46.18362" lon="6.49607">
        <ele>947.6640625</ele>
        <time>2021-08-21T15:23:46Z</time>
      </trkpt>
      <trkpt lat="46.18387" lon="6.49601">
        <ele>947.65234375</ele>
        <time>2021-08-21T15:23:51Z</time>
      </trkpt>
      <trkpt lat="46.18403" lon="6.49592">
        <ele>946.18359375</ele>
        <time>2021-08-21T15:23:54Z</time>
      </trkpt>
      <trkpt lat="46.18409" lon="6.49589">
        <ele>945.4296875</ele>
        <time>2021-08-21T15:23:55Z</time>
      </trkpt>
      <trkpt lat="46.18419" lon="6.49578">
        <ele>943.28515625</ele>
        <time>2021-08-21T15:23:57Z</time>
      </trkpt>
      <trkpt lat="46.18424" lon="6.49569">
        <ele>942.74609375</ele>
        <time>2021-08-21T15:23:58Z</time>
      </trkpt>
      <trkpt lat="46.18429" lon="6.4956">
        <ele>942.22265625</ele>
        <time>2021-08-21T15:23:59Z</time>
      </trkpt>
      <trkpt lat="46.18449" lon="6.49527">
        <ele>939.3984375</ele>
        <time>2021-08-21T15:24:03Z</time>
      </trkpt>
      <trkpt lat="46.18454" lon="6.4952">
        <ele>938.46875</ele>
        <time>2021-08-21T15:24:04Z</time>
      </trkpt>
      <trkpt lat="46.18467" lon="6.49501">
        <ele>936.5</ele>
        <time>2021-08-21T15:24:07Z</time>
      </trkpt>
      <trkpt lat="46.18481" lon="6.49482">
        <ele>934.0234375</ele>
        <time>2021-08-21T15:24:10Z</time>
      </trkpt>
      <trkpt lat="46.18489" lon="6.49473">
        <ele>932.1875</ele>
        <time>2021-08-21T15:24:12Z</time>
      </trkpt>
      <trkpt lat="46.18493" lon="6.49469">
        <ele>931.03125</ele>
        <time>2021-08-21T15:24:13Z</time>
      </trkpt>
      <trkpt lat="46.18508" lon="6.49458">
        <ele>928.08203125</ele>
        <time>2021-08-21T15:24:16Z</time>
      </trkpt>
      <trkpt lat="46.18514" lon="6.49453">
        <ele>927.05078125</ele>
        <time>2021-08-21T15:24:17Z</time>
      </trkpt>
      <trkpt lat="46.18519" lon="6.49447">
        <ele>926.09765625</ele>
        <time>2021-08-21T15:24:18Z</time>
      </trkpt>
      <trkpt lat="46.18524" lon="6.49443">
        <ele>925.16796875</ele>
        <time>2021-08-21T15:24:19Z</time>
      </trkpt>
      <trkpt lat="46.18528" lon="6.49438">
        <ele>924.37109375</ele>
        <time>2021-08-21T15:24:20Z</time>
      </trkpt>
      <trkpt lat="46.18532" lon="6.49434">
        <ele>923.59765625</ele>
        <time>2021-08-21T15:24:21Z</time>
      </trkpt>
      <trkpt lat="46.18537" lon="6.49429">
        <ele>922.7578125</ele>
        <time>2021-08-21T15:24:22Z</time>
      </trkpt>
      <trkpt lat="46.18546" lon="6.49417">
        <ele>920.91015625</ele>
        <time>2021-08-21T15:24:24Z</time>
      </trkpt>
      <trkpt lat="46.18554" lon="6.49408">
        <ele>919.1015625</ele>
        <time>2021-08-21T15:24:26Z</time>
      </trkpt>
      <trkpt lat="46.18559" lon="6.49405">
        <ele>918.00390625</ele>
        <time>2021-08-21T15:24:27Z</time>
      </trkpt>
      <trkpt lat="46.1858" lon="6.49386">
        <ele>913.21875</ele>
        <time>2021-08-21T15:24:31Z</time>
      </trkpt>
      <trkpt lat="46.18596" lon="6.49367">
        <ele>908.64453125</ele>
        <time>2021-08-21T15:24:34Z</time>
      </trkpt>
      <trkpt lat="46.186" lon="6.49359">
        <ele>907.65625</ele>
        <time>2021-08-21T15:24:35Z</time>
      </trkpt>
      <trkpt lat="46.18613" lon="6.49334">
        <ele>905.16015625</ele>
        <time>2021-08-21T15:24:38Z</time>
      </trkpt>
      <trkpt lat="46.18622" lon="6.49321">
        <ele>903.5390625</ele>
        <time>2021-08-21T15:24:40Z</time>
      </trkpt>
      <trkpt lat="46.18625" lon="6.49317">
        <ele>902.859375</ele>
        <time>2021-08-21T15:24:41Z</time>
      </trkpt>
      <trkpt lat="46.18639" lon="6.493">
        <ele>900.703125</ele>
        <time>2021-08-21T15:24:46Z</time>
      </trkpt>
      <trkpt lat="46.18649" lon="6.49297">
        <ele>898.60546875</ele>
        <time>2021-08-21T15:24:48Z</time>
      </trkpt>
      <trkpt lat="46.18674" lon="6.49292">
        <ele>893.62109375</ele>
        <time>2021-08-21T15:24:53Z</time>
      </trkpt>
      <trkpt lat="46.187" lon="6.49285">
        <ele>889.328125</ele>
        <time>2021-08-21T15:24:57Z</time>
      </trkpt>
      <trkpt lat="46.18707" lon="6.49284">
        <ele>888.33203125</ele>
        <time>2021-08-21T15:24:58Z</time>
      </trkpt>
      <trkpt lat="46.18729" lon="6.49279">
        <ele>886.4140625</ele>
        <time>2021-08-21T15:25:01Z</time>
      </trkpt>
      <trkpt lat="46.18768" lon="6.49271">
        <ele>884.15234375</ele>
        <time>2021-08-21T15:25:06Z</time>
      </trkpt>
      <trkpt lat="46.18806" lon="6.4926">
        <ele>882.7109375</ele>
        <time>2021-08-21T15:25:11Z</time>
      </trkpt>
      <trkpt lat="46.18866" lon="6.49249">
        <ele>880.5625</ele>
        <time>2021-08-21T15:25:20Z</time>
      </trkpt>
      <trkpt lat="46.18872" lon="6.4925">
        <ele>880.5</ele>
        <time>2021-08-21T15:25:21Z</time>
      </trkpt>
      <trkpt lat="46.18877" lon="6.49252">
        <ele>880.38671875</ele>
        <time>2021-08-21T15:25:22Z</time>
      </trkpt>
      <trkpt lat="46.18931" lon="6.49263">
        <ele>880.9921875</ele>
        <time>2021-08-21T15:25:33Z</time>
      </trkpt>
      <trkpt lat="46.18987" lon="6.49271">
        <ele>880.16015625</ele>
        <time>2021-08-21T15:25:44Z</time>
      </trkpt>
      <trkpt lat="46.18992" lon="6.49271">
        <ele>880.015625</ele>
        <time>2021-08-21T15:25:45Z</time>
      </trkpt>
      <trkpt lat="46.18997" lon="6.49271">
        <ele>879.95703125</ele>
        <time>2021-08-21T15:25:46Z</time>
      </trkpt>
      <trkpt lat="46.19002" lon="6.49273">
        <ele>879.83984375</ele>
        <time>2021-08-21T15:25:47Z</time>
      </trkpt>
      <trkpt lat="46.19007" lon="6.49275">
        <ele>879.5390625</ele>
        <time>2021-08-21T15:25:48Z</time>
      </trkpt>
      <trkpt lat="46.19012" lon="6.49279">
        <ele>879.1171875</ele>
        <time>2021-08-21T15:25:49Z</time>
      </trkpt>
      <trkpt lat="46.19023" lon="6.49286">
        <ele>878.578125</ele>
        <time>2021-08-21T15:25:51Z</time>
      </trkpt>
      <trkpt lat="46.19029" lon="6.49289">
        <ele>878.56640625</ele>
        <time>2021-08-21T15:25:52Z</time>
      </trkpt>
      <trkpt lat="46.1909" lon="6.49323">
        <ele>878.4921875</ele>
        <time>2021-08-21T15:26:05Z</time>
      </trkpt>
      <trkpt lat="46.19107" lon="6.49335">
        <ele>878.25</ele>
        <time>2021-08-21T15:26:09Z</time>
      </trkpt>
      <trkpt lat="46.19111" lon="6.4934">
        <ele>878.03125</ele>
        <time>2021-08-21T15:26:10Z</time>
      </trkpt>
      <trkpt lat="46.19175" lon="6.49403">
        <ele>876.53515625</ele>
        <time>2021-08-21T15:26:24Z</time>
      </trkpt>
      <trkpt lat="46.19234" lon="6.49444">
        <ele>877.578125</ele>
        <time>2021-08-21T15:26:37Z</time>
      </trkpt>
      <trkpt lat="46.19288" lon="6.4948">
        <ele>877.25</ele>
        <time>2021-08-21T15:26:48Z</time>
      </trkpt>
      <trkpt lat="46.19364" lon="6.49535">
        <ele>877.97265625</ele>
        <time>2021-08-21T15:27:04Z</time>
      </trkpt>
      <trkpt lat="46.19415" lon="6.49576">
        <ele>880.79296875</ele>
        <time>2021-08-21T15:27:16Z</time>
      </trkpt>
      <trkpt lat="46.1946" lon="6.49599">
        <ele>881.4765625</ele>
        <time>2021-08-21T15:27:26Z</time>
      </trkpt>
      <trkpt lat="46.19463" lon="6.49603">
        <ele>881.11328125</ele>
        <time>2021-08-21T15:27:27Z</time>
      </trkpt>
      <trkpt lat="46.19465" lon="6.4961">
        <ele>880.41796875</ele>
        <time>2021-08-21T15:27:28Z</time>
      </trkpt>
      <trkpt lat="46.19465" lon="6.49619">
        <ele>879.50390625</ele>
        <time>2021-08-21T15:27:29Z</time>
      </trkpt>
      <trkpt lat="46.19464" lon="6.49628">
        <ele>878.42578125</ele>
        <time>2021-08-21T15:27:30Z</time>
      </trkpt>
      <trkpt lat="46.19462" lon="6.49644">
        <ele>877.08984375</ele>
        <time>2021-08-21T15:27:32Z</time>
      </trkpt>
      <trkpt lat="46.19454" lon="6.4965">
        <ele>876.1640625</ele>
        <time>2021-08-21T15:27:35Z</time>
      </trkpt>
      <trkpt lat="46.19422" lon="6.49633">
        <ele>875.890625</ele>
        <time>2021-08-21T15:27:45Z</time>
      </trkpt>
      <trkpt lat="46.19417" lon="6.49646">
        <ele>874.1015625</ele>
        <time>2021-08-21T15:27:54Z</time>
      </trkpt>
      <trkpt lat="46.19419" lon="6.49648">
        <ele>874.1484375</ele>
        <time>2021-08-21T15:28:08Z</time>
      </trkpt>
      <trkpt lat="46.19421" lon="6.49653">
        <ele>873.75390625</ele>
        <time>2021-08-21T15:28:22Z</time>
      </trkpt>
      <trkpt lat="46.19421" lon="6.49652">
        <ele>873.7578125</ele>
        <time>2021-08-21T15:28:49Z</time>
      </trkpt>
      <trkpt lat="46.1942" lon="6.49653">
        <ele>873.6640625</ele>
        <time>2021-08-21T15:29:22Z</time>
      </trkpt>
    </trkseg>
  </trk>
</gpx>